Time,TemperatureF,DewpointF,PressureIn,WindDirection,WindDirectionDegrees,WindSpeedMPH,WindSpeedGustMPH,Humidity,HourlyPrecipIn,Conditions,Clouds,dailyrainin,SoftwareType,DateUTC
2013-07-30 00:00:00,58.8,42.7,30.09,West,271,0.0,0.0,55,0.00,,---,0.00,VWS V14.01,2013-07-30 04:00:00,
2013-07-30 00:01:00,57.4,44.5,30.09,WNW,297,0.0,4.0,62,0.00,,---,0.00,VWS V14.01,2013-07-30 04:01:00,
2013-07-30 00:02:00,58.6,42.5,30.09,West,271,0.0,0.0,55,0.00,,---,0.00,VWS V14.01,2013-07-30 04:02:00,
2013-07-30 00:03:00,57.4,44.5,30.09,NW,319,2.7,4.9,62,0.00,,---,0.00,VWS V14.01,2013-07-30 04:03:00,
2013-07-30 00:04:00,58.6,42.5,30.09,West,266,0.0,2.7,55,0.00,,---,0.00,VWS V14.01,2013-07-30 04:04:00,
2013-07-30 00:05:00,58.6,42.0,30.09,West,266,0.0,0.0,54,0.00,,---,0.00,VWS V14.01,2013-07-30 04:05:00,
2013-07-30 00:06:00,58.6,42.5,30.09,West,278,0.0,0.0,55,0.00,,---,0.00,VWS V14.01,2013-07-30 04:06:00,
2013-07-30 00:07:00,58.6,42.5,30.09,WNW,296,0.0,0.0,55,0.00,,---,0.00,VWS V14.01,2013-07-30 04:07:00,
2013-07-30 00:08:00,57.2,43.9,30.12,WNW,297,0.0,0.0,61,0.00,,---,0.00,VWS V14.01,2013-07-30 04:08:00,
2013-07-30 00:09:00,58.4,42.8,30.09,WNW,288,0.0,0.0,56,0.00,,---,0.00,VWS V14.01,2013-07-30 04:09:00,
2013-07-30 00:10:00,58.4,42.8,30.09,WNW,293,0.0,0.0,56,0.00,,---,0.00,VWS V14.01,2013-07-30 04:10:00,
2013-07-30 00:11:00,58.3,42.7,30.09,WNW,295,0.0,0.0,56,0.00,,---,0.00,VWS V14.01,2013-07-30 04:11:00,
2013-07-30 00:12:00,58.3,42.7,30.09,WNW,288,3.1,3.1,56,0.00,,---,0.00,VWS V14.01,2013-07-30 04:12:00,
2013-07-30 00:13:00,57.0,43.7,30.12,WNW,300,0.0,0.0,61,0.00,,---,0.00,VWS V14.01,2013-07-30 04:13:00,
2013-07-30 00:14:00,58.1,42.9,30.09,WNW,294,2.7,3.6,57,0.00,,---,0.00,VWS V14.01,2013-07-30 04:14:00,
2013-07-30 00:15:00,58.1,43.4,30.09,NW,311,3.1,3.6,58,0.00,,---,0.00,VWS V14.01,2013-07-30 04:15:00,
2013-07-30 00:16:00,58.1,43.4,30.09,NW,314,0.0,3.6,58,0.00,,---,0.00,VWS V14.01,2013-07-30 04:16:00,
2013-07-30 00:17:00,57.9,43.2,30.09,NW,326,2.7,3.1,58,0.00,,---,0.00,VWS V14.01,2013-07-30 04:17:00,
2013-07-30 00:18:00,56.5,44.0,30.12,NW,308,0.0,0.0,63,0.00,,---,0.00,VWS V14.01,2013-07-30 04:18:00,
2013-07-30 00:19:00,57.7,43.5,30.09,NW,311,0.0,3.1,59,0.00,,---,0.00,VWS V14.01,2013-07-30 04:19:00,
2013-07-30 00:20:00,57.5,43.3,30.09,NW,311,0.0,0.0,59,0.00,,---,0.00,VWS V14.01,2013-07-30 04:20:00,
2013-07-30 00:21:00,57.5,43.3,30.09,NW,313,4.5,4.5,59,0.00,,---,0.00,VWS V14.01,2013-07-30 04:21:00,
2013-07-30 00:22:00,57.4,43.2,30.09,NW,321,0.0,4.5,59,0.00,,---,0.00,VWS V14.01,2013-07-30 04:22:00,
2013-07-30 00:23:00,55.9,44.7,30.12,NW,308,0.0,0.0,66,0.00,,---,0.00,VWS V14.01,2013-07-30 04:23:00,
2013-07-30 00:24:00,57.4,43.6,30.09,NW,309,0.0,0.0,60,0.00,,---,0.00,VWS V14.01,2013-07-30 04:24:00,
2013-07-30 00:25:00,57.4,43.6,30.09,NW,310,0.0,0.0,60,0.00,,---,0.00,VWS V14.01,2013-07-30 04:25:00,
2013-07-30 00:26:00,57.4,43.6,30.09,NW,314,0.0,0.0,60,0.00,,---,0.00,VWS V14.01,2013-07-30 04:26:00,
2013-07-30 00:27:00,57.4,44.0,30.09,NW,314,0.0,0.0,61,0.00,,---,0.00,VWS V14.01,2013-07-30 04:27:00,
2013-07-30 00:28:00,55.6,45.6,30.12,NW,308,0.0,0.0,69,0.00,,---,0.00,VWS V14.01,2013-07-30 04:28:00,
2013-07-30 00:29:00,57.2,43.9,30.09,NW,318,0.0,0.0,61,0.00,,---,0.00,VWS V14.01,2013-07-30 04:29:00,
2013-07-30 00:30:00,57.2,43.9,30.09,NW,320,0.0,0.0,61,0.00,,---,0.00,VWS V14.01,2013-07-30 04:30:00,
2013-07-30 00:31:00,57.2,43.9,30.09,NNW,336,0.0,0.0,61,0.00,,---,0.00,VWS V14.01,2013-07-30 04:31:00,
2013-07-30 00:32:00,57.2,44.3,30.09,NW,306,0.0,4.5,62,0.00,,---,0.00,VWS V14.01,2013-07-30 04:32:00,
2013-07-30 00:33:00,55.4,45.4,30.12,NW,308,0.0,0.0,69,0.00,,---,0.00,VWS V14.01,2013-07-30 04:33:00,
2013-07-30 00:34:00,57.2,44.3,30.09,NW,308,0.0,0.0,62,0.00,,---,0.00,VWS V14.01,2013-07-30 04:34:00,
2013-07-30 00:35:00,57.2,44.3,30.09,NW,308,0.0,3.6,62,0.00,,---,0.00,VWS V14.01,2013-07-30 04:35:00,
2013-07-30 00:36:00,57.2,44.7,30.09,NW,318,0.0,5.4,63,0.00,,---,0.00,VWS V14.01,2013-07-30 04:36:00,
2013-07-30 00:37:00,57.2,44.7,30.09,NNW,329,0.0,2.7,63,0.00,,---,0.00,VWS V14.01,2013-07-30 04:37:00,
2013-07-30 00:38:00,55.6,46.0,30.12,NW,308,0.0,0.0,70,0.00,,---,0.00,VWS V14.01,2013-07-30 04:38:00,
2013-07-30 00:39:00,57.2,44.7,30.09,NW,319,2.7,4.0,63,0.00,,---,0.00,VWS V14.01,2013-07-30 04:39:00,
2013-07-30 00:40:00,57.2,44.7,30.09,WNW,301,4.0,4.5,63,0.00,,---,0.00,VWS V14.01,2013-07-30 04:40:00,
2013-07-30 00:41:00,57.4,45.3,30.09,NW,309,0.0,4.9,64,0.00,,---,0.00,VWS V14.01,2013-07-30 04:41:00,
2013-07-30 00:42:00,57.4,45.3,30.09,NNW,338,4.9,4.9,64,0.00,,---,0.00,VWS V14.01,2013-07-30 04:42:00,
2013-07-30 00:43:00,55.6,46.0,30.12,NNE,33,0.0,0.0,70,0.00,,---,0.00,VWS V14.01,2013-07-30 04:43:00,
2013-07-30 00:44:00,57.4,45.3,30.09,NW,318,3.1,5.4,64,0.00,,---,0.00,VWS V14.01,2013-07-30 04:44:00,
2013-07-30 00:45:00,57.4,44.9,30.09,WNW,301,2.7,4.9,63,0.00,,---,0.00,VWS V14.01,2013-07-30 04:45:00,
2013-07-30 00:46:00,57.2,44.7,30.09,NW,306,3.6,3.6,63,0.00,,---,0.00,VWS V14.01,2013-07-30 04:46:00,
2013-07-30 00:47:00,57.2,44.7,30.09,NW,318,3.6,4.9,63,0.00,,---,0.00,VWS V14.01,2013-07-30 04:47:00,
2013-07-30 00:48:00,55.7,46.1,30.12,ENE,65,0.0,0.0,70,0.00,,---,0.00,VWS V14.01,2013-07-30 04:48:00,
2013-07-30 00:49:00,57.2,44.7,30.09,NW,308,4.5,4.5,63,0.00,,---,0.00,VWS V14.01,2013-07-30 04:49:00,
2013-07-30 00:50:00,57.2,44.7,30.09,NW,316,2.7,4.5,63,0.00,,---,0.00,VWS V14.01,2013-07-30 04:50:00,
2013-07-30 00:51:00,57.2,44.7,30.09,NW,319,3.6,3.6,63,0.00,,---,0.00,VWS V14.01,2013-07-30 04:51:00,
2013-07-30 00:52:00,57.2,44.7,30.09,NW,317,0.0,4.5,63,0.00,,---,0.00,VWS V14.01,2013-07-30 04:52:00,
2013-07-30 00:53:00,55.9,47.0,30.12,NNW,345,0.0,0.0,72,0.00,,---,0.00,VWS V14.01,2013-07-30 04:53:00,
2013-07-30 00:54:00,57.2,44.3,30.09,NW,319,0.0,3.6,62,0.00,,---,0.00,VWS V14.01,2013-07-30 04:54:00,
2013-07-30 00:55:00,57.2,44.3,30.09,West,270,0.0,0.0,62,0.00,,---,0.00,VWS V14.01,2013-07-30 04:55:00,
2013-07-30 00:56:00,57.2,44.3,30.09,NNW,346,3.1,3.6,62,0.00,,---,0.00,VWS V14.01,2013-07-30 04:56:00,
2013-07-30 00:57:00,57.2,44.3,30.09,WNW,299,4.0,4.9,62,0.00,,---,0.00,VWS V14.01,2013-07-30 04:57:00,
2013-07-30 00:58:00,56.1,47.6,30.12,North,356,2.7,2.7,73,0.00,,---,0.00,VWS V14.01,2013-07-30 04:58:00,
2013-07-30 00:59:00,57.2,44.3,30.09,NW,321,3.1,4.5,62,0.00,,---,0.00,VWS V14.01,2013-07-30 04:59:00,
2013-07-30 01:00:00,57.2,44.3,30.09,West,277,4.0,4.9,62,0.00,,---,0.00,VWS V14.01,2013-07-30 05:00:00,
2013-07-30 01:01:00,57.4,44.5,30.09,WNW,297,0.0,4.0,62,0.00,,---,0.00,VWS V14.01,2013-07-30 05:01:00,
2013-07-30 01:02:00,57.4,44.5,30.09,NW,306,0.0,0.0,62,0.00,,---,0.00,VWS V14.01,2013-07-30 05:02:00,
2013-07-30 01:03:00,56.1,47.6,30.12,North,351,0.0,0.0,73,0.00,,---,0.00,VWS V14.01,2013-07-30 05:03:00,
2013-07-30 01:04:00,57.4,44.5,30.09,NW,306,3.6,4.9,62,0.00,,---,0.00,VWS V14.01,2013-07-30 05:04:00,
2013-07-30 01:05:00,57.4,44.5,30.12,WNW,296,0.0,3.6,62,0.00,,---,0.00,VWS V14.01,2013-07-30 05:05:00,
2013-07-30 01:06:00,57.4,44.0,30.12,WNW,302,0.0,3.1,61,0.00,,---,0.00,VWS V14.01,2013-07-30 05:06:00,
2013-07-30 01:07:00,57.2,43.9,30.12,NW,309,3.6,3.6,61,0.00,,---,0.00,VWS V14.01,2013-07-30 05:07:00,
2013-07-30 01:08:00,55.9,47.0,30.12,North,351,3.6,3.6,72,0.00,,---,0.00,VWS V14.01,2013-07-30 05:08:00,
2013-07-30 01:09:00,57.2,43.9,30.12,WNW,300,0.0,0.0,61,0.00,,---,0.00,VWS V14.01,2013-07-30 05:09:00,
2013-07-30 01:10:00,57.2,43.9,30.12,WNW,300,0.0,0.0,61,0.00,,---,0.00,VWS V14.01,2013-07-30 05:10:00,
2013-07-30 01:11:00,57.2,43.9,30.12,WNW,300,0.0,0.0,61,0.00,,---,0.00,VWS V14.01,2013-07-30 05:11:00,
2013-07-30 01:12:00,57.0,43.7,30.12,WNW,300,0.0,0.0,61,0.00,,---,0.00,VWS V14.01,2013-07-30 05:12:00,
2013-07-30 01:13:00,55.9,47.8,30.12,North,351,0.0,0.0,74,0.00,,---,0.00,VWS V14.01,2013-07-30 05:13:00,
2013-07-30 01:14:00,57.0,43.7,30.12,WNW,300,0.0,0.0,61,0.00,,---,0.00,VWS V14.01,2013-07-30 05:14:00,
2013-07-30 01:15:00,56.8,44.0,30.12,WNW,300,0.0,0.0,62,0.00,,---,0.00,VWS V14.01,2013-07-30 05:15:00,
2013-07-30 01:16:00,56.6,44.2,30.12,NW,308,0.0,0.0,63,0.00,,---,0.00,VWS V14.01,2013-07-30 05:16:00,
2013-07-30 01:17:00,56.6,44.2,30.12,NW,308,0.0,0.0,63,0.00,,---,0.00,VWS V14.01,2013-07-30 05:17:00,
2013-07-30 01:18:00,55.7,48.0,30.12,North,351,0.0,0.0,75,0.00,,---,0.00,VWS V14.01,2013-07-30 05:18:00,
2013-07-30 01:19:00,56.3,44.3,30.12,NW,308,0.0,0.0,64,0.00,,---,0.00,VWS V14.01,2013-07-30 05:19:00,
2013-07-30 01:20:00,56.3,44.7,30.12,NW,308,0.0,0.0,65,0.00,,---,0.00,VWS V14.01,2013-07-30 05:20:00,
2013-07-30 01:21:00,56.1,44.5,30.12,NW,308,0.0,0.0,65,0.00,,---,0.00,VWS V14.01,2013-07-30 05:21:00,
2013-07-30 01:22:00,56.1,44.9,30.12,NW,308,0.0,0.0,66,0.00,,---,0.00,VWS V14.01,2013-07-30 05:22:00,
2013-07-30 01:23:00,55.6,47.8,30.12,NNE,32,0.0,0.0,75,0.00,,---,0.00,VWS V14.01,2013-07-30 05:23:00,
2013-07-30 01:24:00,55.9,44.7,30.12,NW,308,0.0,0.0,66,0.00,,---,0.00,VWS V14.01,2013-07-30 05:24:00,
2013-07-30 01:25:00,55.7,45.0,30.12,NW,308,0.0,0.0,67,0.00,,---,0.00,VWS V14.01,2013-07-30 05:25:00,
2013-07-30 01:26:00,55.7,45.0,30.12,NW,308,0.0,0.0,67,0.00,,---,0.00,VWS V14.01,2013-07-30 05:26:00,
2013-07-30 01:27:00,55.6,45.2,30.12,NW,308,0.0,0.0,68,0.00,,---,0.00,VWS V14.01,2013-07-30 05:27:00,
2013-07-30 01:28:00,55.6,47.8,30.12,NNE,25,0.0,0.0,75,0.00,,---,0.00,VWS V14.01,2013-07-30 05:28:00,
2013-07-30 01:29:00,55.4,45.8,30.12,NW,308,0.0,0.0,70,0.00,,---,0.00,VWS V14.01,2013-07-30 05:29:00,
2013-07-30 01:30:00,55.4,45.4,30.12,NW,308,0.0,0.0,69,0.00,,---,0.00,VWS V14.01,2013-07-30 05:30:00,
2013-07-30 01:31:00,55.4,45.4,30.12,NW,308,0.0,0.0,69,0.00,,---,0.00,VWS V14.01,2013-07-30 05:31:00,
2013-07-30 01:32:00,55.4,45.4,30.12,NW,308,0.0,0.0,69,0.00,,---,0.00,VWS V14.01,2013-07-30 05:32:00,
2013-07-30 01:33:00,55.6,47.8,30.12,NNE,25,0.0,0.0,75,0.00,,---,0.00,VWS V14.01,2013-07-30 05:33:00,
2013-07-30 01:34:00,55.6,45.9,30.12,NW,308,0.0,0.0,70,0.00,,---,0.00,VWS V14.01,2013-07-30 05:34:00,
2013-07-30 01:35:00,55.6,45.9,30.12,NW,308,0.0,0.0,70,0.00,,---,0.00,VWS V14.01,2013-07-30 05:35:00,
2013-07-30 01:36:00,55.6,45.9,30.12,NW,308,0.0,0.0,70,0.00,,---,0.00,VWS V14.01,2013-07-30 05:36:00,
2013-07-30 01:37:00,55.6,45.9,30.12,NW,308,0.0,0.0,70,0.00,,---,0.00,VWS V14.01,2013-07-30 05:37:00,
2013-07-30 01:38:00,55.2,47.4,30.12,WSW,253,0.0,0.0,75,0.00,,---,0.00,VWS V14.01,2013-07-30 05:38:00,
2013-07-30 01:39:00,55.6,45.9,30.12,NW,308,0.0,0.0,70,0.00,,---,0.00,VWS V14.01,2013-07-30 05:39:00,
2013-07-30 01:40:00,55.6,46.3,30.12,NW,308,0.0,0.0,71,0.00,,---,0.00,VWS V14.01,2013-07-30 05:40:00,
2013-07-30 01:41:00,55.6,46.3,30.12,NW,308,0.0,0.0,71,0.00,,---,0.00,VWS V14.01,2013-07-30 05:41:00,
2013-07-30 01:42:00,55.6,45.9,30.12,NNE,33,0.0,0.0,70,0.00,,---,0.00,VWS V14.01,2013-07-30 05:42:00,
2013-07-30 01:43:00,55.2,47.8,30.12,WSW,253,0.0,0.0,76,0.00,,---,0.00,VWS V14.01,2013-07-30 05:43:00,
2013-07-30 01:44:00,55.6,45.9,30.12,NNE,33,0.0,0.0,70,0.00,,---,0.00,VWS V14.01,2013-07-30 05:44:00,
2013-07-30 01:45:00,55.6,46.3,30.12,NE,37,3.6,4.0,71,0.00,,---,0.00,VWS V14.01,2013-07-30 05:45:00,
2013-07-30 01:46:00,55.7,46.5,30.12,NE,37,0.0,3.6,71,0.00,,---,0.00,VWS V14.01,2013-07-30 05:46:00,
2013-07-30 01:47:00,55.9,46.3,30.12,NE,37,0.0,0.0,70,0.00,,---,0.00,VWS V14.01,2013-07-30 05:47:00,
2013-07-30 01:48:00,55.2,48.1,30.12,WSW,256,0.0,0.0,77,0.00,,---,0.00,VWS V14.01,2013-07-30 05:48:00,
2013-07-30 01:49:00,55.7,46.1,30.12,North,356,0.0,0.0,70,0.00,,---,0.00,VWS V14.01,2013-07-30 05:49:00,
2013-07-30 01:50:00,55.7,46.1,30.12,NNE,15,0.0,0.0,70,0.00,,---,0.00,VWS V14.01,2013-07-30 05:50:00,
2013-07-30 01:51:00,55.7,46.1,30.12,NE,37,0.0,0.0,70,0.00,,---,0.00,VWS V14.01,2013-07-30 05:51:00,
2013-07-30 01:52:00,55.9,47.0,30.12,North,351,4.5,4.5,72,0.00,,---,0.00,VWS V14.01,2013-07-30 05:52:00,
2013-07-30 01:53:00,55.0,48.3,30.12,WSW,256,0.0,0.0,78,0.00,,---,0.00,VWS V14.01,2013-07-30 05:53:00,
2013-07-30 01:54:00,55.9,47.0,30.12,NE,35,0.0,0.0,72,0.00,,---,0.00,VWS V14.01,2013-07-30 05:54:00,
2013-07-30 01:55:00,55.9,47.0,30.12,NE,35,0.0,0.0,72,0.00,,---,0.00,VWS V14.01,2013-07-30 05:55:00,
2013-07-30 01:56:00,55.9,47.0,30.12,NE,35,0.0,0.0,72,0.00,,---,0.00,VWS V14.01,2013-07-30 05:56:00,
2013-07-30 01:57:00,55.9,47.0,30.12,NE,35,0.0,0.0,72,0.00,,---,0.00,VWS V14.01,2013-07-30 05:57:00,
2013-07-30 01:58:00,54.8,48.1,30.12,WSW,256,0.0,0.0,78,0.00,,---,0.00,VWS V14.01,2013-07-30 05:58:00,
2013-07-30 01:59:00,56.1,47.6,30.12,ENE,61,0.0,2.7,73,0.00,,---,0.00,VWS V14.01,2013-07-30 05:59:00,
2013-07-30 02:00:00,56.1,47.6,30.12,WNW,298,0.0,0.0,73,0.00,,---,0.00,VWS V14.01,2013-07-30 06:00:00,
2013-07-30 02:01:00,56.1,47.6,30.12,North,356,3.1,3.1,73,0.00,,---,0.00,VWS V14.01,2013-07-30 06:01:00,
2013-07-30 02:02:00,56.1,47.6,30.12,North,351,0.0,3.1,73,0.00,,---,0.00,VWS V14.01,2013-07-30 06:02:00,
2013-07-30 02:03:00,54.7,48.0,30.12,WSW,256,0.0,0.0,78,0.00,,---,0.00,VWS V14.01,2013-07-30 06:03:00,
2013-07-30 02:04:00,56.1,47.6,30.12,NNW,346,0.0,0.0,73,0.00,,---,0.00,VWS V14.01,2013-07-30 06:04:00,
2013-07-30 02:05:00,56.1,47.6,30.12,NW,319,4.0,4.5,73,0.00,,---,0.00,VWS V14.01,2013-07-30 06:05:00,
2013-07-30 02:06:00,56.1,47.6,30.12,NW,319,0.0,4.0,73,0.00,,---,0.00,VWS V14.01,2013-07-30 06:06:00,
2013-07-30 02:07:00,56.1,47.6,30.12,NW,317,0.0,0.0,73,0.00,,---,0.00,VWS V14.01,2013-07-30 06:07:00,
2013-07-30 02:08:00,54.8,48.1,30.12,WSW,256,0.0,0.0,78,0.00,,---,0.00,VWS V14.01,2013-07-30 06:08:00,
2013-07-30 02:09:00,55.9,47.4,30.12,NE,55,2.7,3.6,73,0.00,,---,0.00,VWS V14.01,2013-07-30 06:09:00,
2013-07-30 02:10:00,55.9,47.8,30.12,NE,55,0.0,2.7,74,0.00,,---,0.00,VWS V14.01,2013-07-30 06:10:00,
2013-07-30 02:11:00,55.9,47.4,30.12,NW,320,3.6,3.6,73,0.00,,---,0.00,VWS V14.01,2013-07-30 06:11:00,
2013-07-30 02:12:00,55.9,47.8,30.12,NE,35,2.7,3.6,74,0.00,,---,0.00,VWS V14.01,2013-07-30 06:12:00,
2013-07-30 02:13:00,54.7,48.0,30.12,WSW,256,0.0,0.0,78,0.00,,---,0.00,VWS V14.01,2013-07-30 06:13:00,
2013-07-30 02:14:00,55.9,47.8,30.12,NNE,19,3.6,3.6,74,0.00,,---,0.00,VWS V14.01,2013-07-30 06:14:00,
2013-07-30 02:15:00,55.9,48.1,30.12,North,2,0.0,4.5,75,0.00,,---,0.00,VWS V14.01,2013-07-30 06:15:00,
2013-07-30 02:16:00,55.9,48.1,30.12,West,261,0.0,0.0,75,0.00,,---,0.00,VWS V14.01,2013-07-30 06:16:00,
2013-07-30 02:17:00,55.9,47.8,30.12,NNW,339,4.5,4.9,74,0.00,,---,0.00,VWS V14.01,2013-07-30 06:17:00,
2013-07-30 02:18:00,54.5,47.8,30.12,WSW,256,0.0,0.0,78,0.00,,---,0.00,VWS V14.01,2013-07-30 06:18:00,
2013-07-30 02:19:00,55.7,48.0,30.12,NNE,32,0.0,0.0,75,0.00,,---,0.00,VWS V14.01,2013-07-30 06:19:00,
2013-07-30 02:20:00,55.7,47.6,30.12,NNE,32,0.0,0.0,74,0.00,,---,0.00,VWS V14.01,2013-07-30 06:20:00,
2013-07-30 02:21:00,55.6,47.4,30.12,NNE,32,0.0,0.0,74,0.00,,---,0.00,VWS V14.01,2013-07-30 06:21:00,
2013-07-30 02:22:00,55.6,47.4,30.12,NNE,32,0.0,0.0,74,0.00,,---,0.00,VWS V14.01,2013-07-30 06:22:00,
2013-07-30 02:23:00,54.7,48.3,30.12,West,260,0.0,0.0,79,0.00,,---,0.00,VWS V14.01,2013-07-30 06:23:00,
2013-07-30 02:24:00,55.6,47.8,30.12,NNE,32,0.0,0.0,75,0.00,,---,0.00,VWS V14.01,2013-07-30 06:24:00,
2013-07-30 02:25:00,55.6,47.8,30.12,NNE,32,0.0,0.0,75,0.00,,---,0.00,VWS V14.01,2013-07-30 06:25:00,
2013-07-30 02:26:00,55.6,47.8,30.12,NNE,25,0.0,0.0,75,0.00,,---,0.00,VWS V14.01,2013-07-30 06:26:00,
2013-07-30 02:27:00,55.6,47.8,30.12,NNE,25,0.0,0.0,75,0.00,,---,0.00,VWS V14.01,2013-07-30 06:27:00,
2013-07-30 02:28:00,54.7,48.3,30.12,West,259,0.0,0.0,79,0.00,,---,0.00,VWS V14.01,2013-07-30 06:28:00,
2013-07-30 02:29:00,55.6,47.8,30.12,NNE,25,0.0,0.0,75,0.00,,---,0.00,VWS V14.01,2013-07-30 06:29:00,
2013-07-30 02:30:00,55.6,47.8,30.12,NNE,25,0.0,0.0,75,0.00,,---,0.00,VWS V14.01,2013-07-30 06:30:00,
2013-07-30 02:31:00,55.6,47.8,30.12,NNE,25,0.0,0.0,75,0.00,,---,0.00,VWS V14.01,2013-07-30 06:31:00,
2013-07-30 02:32:00,55.4,47.6,30.12,NNE,25,0.0,0.0,75,0.00,,---,0.00,VWS V14.01,2013-07-30 06:32:00,
2013-07-30 02:33:00,54.7,48.6,30.12,West,260,0.0,0.0,80,0.00,,---,0.00,VWS V14.01,2013-07-30 06:33:00,
2013-07-30 02:34:00,55.6,48.1,30.12,WSW,253,0.0,0.0,76,0.00,,---,0.00,VWS V14.01,2013-07-30 06:34:00,
2013-07-30 02:35:00,55.6,48.1,30.12,WSW,253,0.0,0.0,76,0.00,,---,0.00,VWS V14.01,2013-07-30 06:35:00,
2013-07-30 02:36:00,55.6,47.8,30.12,WSW,253,0.0,0.0,75,0.00,,---,0.00,VWS V14.01,2013-07-30 06:36:00,
2013-07-30 02:37:00,55.4,47.6,30.12,WSW,253,0.0,0.0,75,0.00,,---,0.00,VWS V14.01,2013-07-30 06:37:00,
2013-07-30 02:38:00,54.8,48.8,30.12,West,259,0.0,0.0,80,0.00,,---,0.00,VWS V14.01,2013-07-30 06:38:00,
2013-07-30 02:39:00,55.2,47.4,30.12,WSW,253,0.0,0.0,75,0.00,,---,0.00,VWS V14.01,2013-07-30 06:39:00,
2013-07-30 02:40:00,55.2,47.4,30.12,WSW,253,0.0,0.0,75,0.00,,---,0.00,VWS V14.01,2013-07-30 06:40:00,
2013-07-30 02:41:00,55.2,47.4,30.12,WSW,253,0.0,0.0,75,0.00,,---,0.00,VWS V14.01,2013-07-30 06:41:00,
2013-07-30 02:42:00,55.2,47.8,30.12,WSW,253,0.0,0.0,76,0.00,,---,0.00,VWS V14.01,2013-07-30 06:42:00,
2013-07-30 02:43:00,54.7,48.6,30.12,West,259,0.0,0.0,80,0.00,,---,0.00,VWS V14.01,2013-07-30 06:43:00,
2013-07-30 02:44:00,55.2,47.4,30.12,WSW,243,0.0,0.0,75,0.00,,---,0.00,VWS V14.01,2013-07-30 06:44:00,
2013-07-30 02:45:00,55.0,47.6,30.12,WSW,244,0.0,0.0,76,0.00,,---,0.00,VWS V14.01,2013-07-30 06:45:00,
2013-07-30 02:46:00,55.2,48.1,30.12,WSW,256,0.0,0.0,77,0.00,,---,0.00,VWS V14.01,2013-07-30 06:46:00,
2013-07-30 02:47:00,55.0,48.0,30.12,WSW,256,0.0,0.0,77,0.00,,---,0.00,VWS V14.01,2013-07-30 06:47:00,
2013-07-30 02:48:00,54.7,49.0,30.12,West,260,0.0,0.0,81,0.00,,---,0.00,VWS V14.01,2013-07-30 06:48:00,
2013-07-30 02:49:00,55.2,48.1,30.12,WSW,256,0.0,0.0,77,0.00,,---,0.00,VWS V14.01,2013-07-30 06:49:00,
2013-07-30 02:50:00,55.0,48.0,30.12,WSW,256,0.0,0.0,77,0.00,,---,0.00,VWS V14.01,2013-07-30 06:50:00,
2013-07-30 02:51:00,55.0,48.0,30.12,WSW,256,0.0,0.0,77,0.00,,---,0.00,VWS V14.01,2013-07-30 06:51:00,
2013-07-30 02:52:00,55.0,48.3,30.12,WSW,256,0.0,0.0,78,0.00,,---,0.00,VWS V14.01,2013-07-30 06:52:00,
2013-07-30 02:53:00,54.3,48.3,30.12,West,260,0.0,0.0,80,0.00,,---,0.00,VWS V14.01,2013-07-30 06:53:00,
2013-07-30 02:54:00,54.8,48.1,30.12,WSW,256,0.0,0.0,78,0.00,,---,0.00,VWS V14.01,2013-07-30 06:54:00,
2013-07-30 02:55:00,54.8,48.1,30.12,WSW,256,0.0,0.0,78,0.00,,---,0.00,VWS V14.01,2013-07-30 06:55:00,
2013-07-30 02:56:00,54.8,48.1,30.12,WSW,256,0.0,0.0,78,0.00,,---,0.00,VWS V14.01,2013-07-30 06:56:00,
2013-07-30 02:57:00,54.8,47.8,30.12,WSW,256,0.0,0.0,77,0.00,,---,0.00,VWS V14.01,2013-07-30 06:57:00,
2013-07-30 02:58:00,54.5,48.8,30.12,West,260,0.0,0.0,81,0.00,,---,0.00,VWS V14.01,2013-07-30 06:58:00,
2013-07-30 02:59:00,54.8,48.1,30.12,WSW,256,0.0,0.0,78,0.00,,---,0.00,VWS V14.01,2013-07-30 06:59:00,
2013-07-30 03:00:00,54.8,48.1,30.12,WSW,256,0.0,0.0,78,0.00,,---,0.00,VWS V14.01,2013-07-30 07:00:00,
2013-07-30 03:01:00,54.8,48.1,30.12,WSW,256,0.0,0.0,78,0.00,,---,0.00,VWS V14.01,2013-07-30 07:01:00,
2013-07-30 03:02:00,54.8,48.1,30.12,WSW,256,0.0,0.0,78,0.00,,---,0.00,VWS V14.01,2013-07-30 07:02:00,
2013-07-30 03:03:00,54.3,48.9,30.12,West,259,0.0,0.0,82,0.00,,---,0.00,VWS V14.01,2013-07-30 07:03:00,
2013-07-30 03:04:00,54.8,48.1,30.12,WSW,256,0.0,0.0,78,0.00,,---,0.00,VWS V14.01,2013-07-30 07:04:00,
2013-07-30 03:05:00,54.7,48.0,30.12,WSW,256,0.0,0.0,78,0.00,,---,0.00,VWS V14.01,2013-07-30 07:05:00,
2013-07-30 03:06:00,54.7,48.0,30.12,WSW,256,0.0,0.0,78,0.00,,---,0.00,VWS V14.01,2013-07-30 07:06:00,
2013-07-30 03:07:00,54.7,48.0,30.12,WSW,256,0.0,0.0,78,0.00,,---,0.00,VWS V14.01,2013-07-30 07:07:00,
2013-07-30 03:08:00,54.1,48.8,30.12,NNW,343,4.0,4.5,82,0.00,,---,0.00,VWS V14.01,2013-07-30 07:08:00,
2013-07-30 03:09:00,54.7,48.0,30.12,WSW,256,0.0,0.0,78,0.00,,---,0.00,VWS V14.01,2013-07-30 07:09:00,
2013-07-30 03:10:00,54.7,48.0,30.12,WSW,256,0.0,0.0,78,0.00,,---,0.00,VWS V14.01,2013-07-30 07:10:00,
2013-07-30 03:11:00,54.7,48.0,30.12,WSW,256,0.0,0.0,78,0.00,,---,0.00,VWS V14.01,2013-07-30 07:11:00,
2013-07-30 03:12:00,54.7,48.0,30.12,WSW,256,0.0,0.0,78,0.00,,---,0.00,VWS V14.01,2013-07-30 07:12:00,
2013-07-30 03:13:00,53.8,48.4,30.12,NNW,342,0.0,0.0,82,0.00,,---,0.00,VWS V14.01,2013-07-30 07:13:00,
2013-07-30 03:14:00,54.5,47.8,30.12,WSW,256,0.0,0.0,78,0.00,,---,0.00,VWS V14.01,2013-07-30 07:14:00,
2013-07-30 03:15:00,54.5,47.8,30.12,WSW,256,0.0,0.0,78,0.00,,---,0.00,VWS V14.01,2013-07-30 07:15:00,
2013-07-30 03:16:00,54.5,47.8,30.12,WSW,256,0.0,0.0,78,0.00,,---,0.00,VWS V14.01,2013-07-30 07:16:00,
2013-07-30 03:17:00,54.5,47.8,30.12,WSW,255,0.0,0.0,78,0.00,,---,0.00,VWS V14.01,2013-07-30 07:17:00,
2013-07-30 03:18:00,53.8,48.7,30.12,NNW,327,0.0,0.0,83,0.00,,---,0.00,VWS V14.01,2013-07-30 07:18:00,
2013-07-30 03:19:00,54.7,48.0,30.12,WSW,256,0.0,0.0,78,0.00,,---,0.00,VWS V14.01,2013-07-30 07:19:00,
2013-07-30 03:20:00,54.7,48.0,30.12,WSW,256,0.0,0.0,78,0.00,,---,0.00,VWS V14.01,2013-07-30 07:20:00,
2013-07-30 03:21:00,54.7,48.0,30.12,WSW,256,0.0,0.0,78,0.00,,---,0.00,VWS V14.01,2013-07-30 07:21:00,
2013-07-30 03:22:00,54.7,48.3,30.12,West,260,0.0,0.0,79,0.00,,---,0.00,VWS V14.01,2013-07-30 07:22:00,
2013-07-30 03:23:00,53.8,48.7,30.12,WSW,241,0.0,0.0,83,0.00,,---,0.00,VWS V14.01,2013-07-30 07:23:00,
2013-07-30 03:24:00,54.7,48.3,30.12,West,260,0.0,0.0,79,0.00,,---,0.00,VWS V14.01,2013-07-30 07:24:00,
2013-07-30 03:25:00,54.7,48.3,30.12,West,260,0.0,0.0,79,0.00,,---,0.00,VWS V14.01,2013-07-30 07:25:00,
2013-07-30 03:26:00,54.7,48.3,30.12,West,259,0.0,0.0,79,0.00,,---,0.00,VWS V14.01,2013-07-30 07:26:00,
2013-07-30 03:27:00,54.5,48.1,30.12,West,259,0.0,0.0,79,0.00,,---,0.00,VWS V14.01,2013-07-30 07:27:00,
2013-07-30 03:28:00,53.8,48.7,30.12,West,272,4.5,4.9,83,0.00,,---,0.00,VWS V14.01,2013-07-30 07:28:00,
2013-07-30 03:29:00,54.7,48.3,30.12,West,259,0.0,0.0,79,0.00,,---,0.00,VWS V14.01,2013-07-30 07:29:00,
2013-07-30 03:30:00,54.7,48.3,30.12,West,260,0.0,0.0,79,0.00,,---,0.00,VWS V14.01,2013-07-30 07:30:00,
2013-07-30 03:31:00,54.7,48.3,30.12,West,260,0.0,0.0,79,0.00,,---,0.00,VWS V14.01,2013-07-30 07:31:00,
2013-07-30 03:32:00,54.7,48.3,30.12,West,260,0.0,0.0,79,0.00,,---,0.00,VWS V14.01,2013-07-30 07:32:00,
2013-07-30 03:33:00,53.8,48.7,30.12,WNW,299,0.0,3.6,83,0.00,,---,0.00,VWS V14.01,2013-07-30 07:33:00,
2013-07-30 03:34:00,54.8,48.8,30.12,West,260,0.0,0.0,80,0.00,,---,0.00,VWS V14.01,2013-07-30 07:34:00,
2013-07-30 03:35:00,54.7,48.6,30.12,West,259,0.0,0.0,80,0.00,,---,0.00,VWS V14.01,2013-07-30 07:35:00,
2013-07-30 03:36:00,54.7,48.6,30.12,West,260,0.0,0.0,80,0.00,,---,0.00,VWS V14.01,2013-07-30 07:36:00,
2013-07-30 03:37:00,54.7,48.6,30.12,West,259,0.0,0.0,80,0.00,,---,0.00,VWS V14.01,2013-07-30 07:37:00,
2013-07-30 03:38:00,53.4,48.4,30.12,NNW,339,3.1,5.4,83,0.00,,---,0.00,VWS V14.01,2013-07-30 07:38:00,
2013-07-30 03:39:00,54.8,48.8,30.12,West,260,0.0,0.0,80,0.00,,---,0.00,VWS V14.01,2013-07-30 07:39:00,
2013-07-30 03:40:00,54.7,48.6,30.12,West,260,0.0,0.0,80,0.00,,---,0.00,VWS V14.01,2013-07-30 07:40:00,
2013-07-30 03:41:00,54.7,48.6,30.12,West,259,0.0,0.0,80,0.00,,---,0.00,VWS V14.01,2013-07-30 07:41:00,
2013-07-30 03:42:00,54.7,48.6,30.12,West,259,0.0,0.0,80,0.00,,---,0.00,VWS V14.01,2013-07-30 07:42:00,
2013-07-30 03:43:00,53.8,49.0,30.12,NW,314,0.0,0.0,84,0.00,,---,0.00,VWS V14.01,2013-07-30 07:43:00,
2013-07-30 03:44:00,54.7,48.6,30.12,West,259,0.0,0.0,80,0.00,,---,0.00,VWS V14.01,2013-07-30 07:44:00,
2013-07-30 03:45:00,54.5,48.5,30.12,West,260,0.0,0.0,80,0.00,,---,0.00,VWS V14.01,2013-07-30 07:45:00,
2013-07-30 03:46:00,54.5,48.5,30.12,West,260,0.0,0.0,80,0.00,,---,0.00,VWS V14.01,2013-07-30 07:46:00,
2013-07-30 03:47:00,54.7,48.6,30.12,West,260,0.0,0.0,80,0.00,,---,0.00,VWS V14.01,2013-07-30 07:47:00,
2013-07-30 03:48:00,53.8,49.4,30.12,WNW,298,0.0,0.0,85,0.00,,---,0.00,VWS V14.01,2013-07-30 07:48:00,
2013-07-30 03:49:00,54.7,49.0,30.12,West,259,0.0,0.0,81,0.00,,---,0.00,VWS V14.01,2013-07-30 07:49:00,
2013-07-30 03:50:00,54.5,48.5,30.12,West,259,0.0,0.0,80,0.00,,---,0.00,VWS V14.01,2013-07-30 07:50:00,
2013-07-30 03:51:00,54.5,48.5,30.12,West,259,0.0,0.0,80,0.00,,---,0.00,VWS V14.01,2013-07-30 07:51:00,
2013-07-30 03:52:00,54.5,48.5,30.12,West,259,0.0,0.0,80,0.00,,---,0.00,VWS V14.01,2013-07-30 07:52:00,
2013-07-30 03:53:00,53.6,48.9,30.12,North,356,0.0,0.0,84,0.00,,---,0.00,VWS V14.01,2013-07-30 07:53:00,
2013-07-30 03:54:00,54.3,48.6,30.12,West,260,0.0,0.0,81,0.00,,---,0.00,VWS V14.01,2013-07-30 07:54:00,
2013-07-30 03:55:00,54.3,48.6,30.12,West,259,0.0,0.0,81,0.00,,---,0.00,VWS V14.01,2013-07-30 07:55:00,
2013-07-30 03:56:00,54.3,48.6,30.12,West,259,0.0,0.0,81,0.00,,---,0.00,VWS V14.01,2013-07-30 07:56:00,
2013-07-30 03:57:00,54.5,48.8,30.12,West,259,0.0,0.0,81,0.00,,---,0.00,VWS V14.01,2013-07-30 07:57:00,
2013-07-30 03:58:00,53.4,48.7,30.12,North,351,0.0,0.0,84,0.00,,---,0.00,VWS V14.01,2013-07-30 07:58:00,
2013-07-30 03:59:00,54.5,48.8,30.12,West,259,0.0,0.0,81,0.00,,---,0.00,VWS V14.01,2013-07-30 07:59:00,
2013-07-30 04:00:00,54.5,48.8,30.12,West,260,0.0,0.0,81,0.00,,---,0.00,VWS V14.01,2013-07-30 08:00:00,
2013-07-30 04:01:00,54.3,48.6,30.12,West,259,0.0,0.0,81,0.00,,---,0.00,VWS V14.01,2013-07-30 08:01:00,
2013-07-30 04:02:00,54.3,48.6,30.12,West,260,0.0,0.0,81,0.00,,---,0.00,VWS V14.01,2013-07-30 08:02:00,
2013-07-30 04:03:00,53.6,49.2,30.12,West,275,0.0,4.5,85,0.00,,---,0.00,VWS V14.01,2013-07-30 08:03:00,
2013-07-30 04:04:00,54.3,48.9,30.12,West,259,0.0,0.0,82,0.00,,---,0.00,VWS V14.01,2013-07-30 08:04:00,
2013-07-30 04:05:00,54.3,48.9,30.12,West,260,0.0,0.0,82,0.00,,---,0.00,VWS V14.01,2013-07-30 08:05:00,
2013-07-30 04:06:00,54.1,48.8,30.12,South,181,0.0,0.0,82,0.00,,---,0.00,VWS V14.01,2013-07-30 08:06:00,
2013-07-30 04:07:00,54.1,48.8,30.12,NNW,337,4.0,4.0,82,0.00,,---,0.00,VWS V14.01,2013-07-30 08:07:00,
2013-07-30 04:08:00,53.4,49.0,30.12,WNW,302,0.0,0.0,85,0.00,,---,0.00,VWS V14.01,2013-07-30 08:08:00,
2013-07-30 04:09:00,54.1,48.8,30.12,NNW,342,0.0,4.0,82,0.00,,---,0.00,VWS V14.01,2013-07-30 08:09:00,
2013-07-30 04:10:00,54.1,48.8,30.12,NNW,342,0.0,0.0,82,0.00,,---,0.00,VWS V14.01,2013-07-30 08:10:00,
2013-07-30 04:11:00,53.9,48.6,30.12,NNW,342,0.0,0.0,82,0.00,,---,0.00,VWS V14.01,2013-07-30 08:11:00,
2013-07-30 04:12:00,53.4,49.0,30.12,WNW,302,0.0,0.0,85,0.00,,---,0.00,VWS V14.01,2013-07-30 08:12:00,
2013-07-30 04:13:00,53.8,48.4,30.12,NNW,342,0.0,0.0,82,0.00,,---,0.00,VWS V14.01,2013-07-30 08:13:00,
2013-07-30 04:14:00,53.8,48.4,30.12,NNW,342,0.0,0.0,82,0.00,,---,0.00,VWS V14.01,2013-07-30 08:14:00,
2013-07-30 04:15:00,53.8,48.7,30.12,NE,48,3.1,4.0,83,0.00,,---,0.00,VWS V14.01,2013-07-30 08:15:00,
2013-07-30 04:16:00,53.8,48.7,30.12,NE,48,0.0,3.1,83,0.00,,---,0.00,VWS V14.01,2013-07-30 08:16:00,
2013-07-30 04:17:00,53.8,48.7,30.12,NE,48,0.0,0.0,83,0.00,,---,0.00,VWS V14.01,2013-07-30 08:17:00,
2013-07-30 04:18:00,53.2,48.8,30.12,WNW,302,0.0,0.0,85,0.00,,---,0.00,VWS V14.01,2013-07-30 08:18:00,
2013-07-30 04:19:00,53.8,48.7,30.12,NNW,327,0.0,0.0,83,0.00,,---,0.00,VWS V14.01,2013-07-30 08:19:00,
2013-07-30 04:20:00,53.8,48.7,30.12,SSW,199,0.0,0.0,83,0.00,,---,0.00,VWS V14.01,2013-07-30 08:20:00,
2013-07-30 04:21:00,53.8,48.7,30.12,SSW,200,0.0,0.0,83,0.00,,---,0.00,VWS V14.01,2013-07-30 08:21:00,
2013-07-30 04:22:00,53.8,48.7,30.12,SSW,200,0.0,0.0,83,0.00,,---,0.00,VWS V14.01,2013-07-30 08:22:00,
2013-07-30 04:23:00,53.4,49.0,30.12,NW,308,0.0,0.0,85,0.00,,---,0.00,VWS V14.01,2013-07-30 08:23:00,
2013-07-30 04:24:00,53.8,48.7,30.12,West,264,4.0,4.5,83,0.00,,---,0.00,VWS V14.01,2013-07-30 08:24:00,
2013-07-30 04:25:00,53.9,48.9,30.12,West,266,2.7,4.0,83,0.00,,---,0.00,VWS V14.01,2013-07-30 08:25:00,
2013-07-30 04:26:00,53.8,48.7,30.12,West,266,0.0,2.7,83,0.00,,---,0.00,VWS V14.01,2013-07-30 08:26:00,
2013-07-30 04:27:00,53.0,48.7,30.12,NW,308,0.0,0.0,85,0.00,,---,0.00,VWS V14.01,2013-07-30 08:27:00,
2013-07-30 04:28:00,53.8,48.7,30.12,West,272,4.5,4.9,83,0.00,,---,0.00,VWS V14.01,2013-07-30 08:28:00,
2013-07-30 04:29:00,53.9,49.2,30.12,WSW,241,2.7,4.5,84,0.00,,---,0.00,VWS V14.01,2013-07-30 08:29:00,
2013-07-30 04:30:00,53.8,49.0,30.12,SW,235,0.0,3.1,84,0.00,,---,0.00,VWS V14.01,2013-07-30 08:30:00,
2013-07-30 04:31:00,53.8,49.0,30.12,SSW,209,0.0,0.0,84,0.00,,---,0.00,VWS V14.01,2013-07-30 08:31:00,
2013-07-30 04:32:00,52.9,48.5,30.12,NW,308,0.0,0.0,85,0.00,,---,0.00,VWS V14.01,2013-07-30 08:32:00,
2013-07-30 04:33:00,53.8,48.7,30.12,WNW,299,0.0,3.6,83,0.00,,---,0.00,VWS V14.01,2013-07-30 08:33:00,
2013-07-30 04:34:00,53.6,48.5,30.12,WNW,287,0.0,0.0,83,0.00,,---,0.00,VWS V14.01,2013-07-30 08:34:00,
2013-07-30 04:35:00,53.4,48.4,30.12,WNW,287,0.0,0.0,83,0.00,,---,0.00,VWS V14.01,2013-07-30 08:35:00,
2013-07-30 04:36:00,53.4,48.4,30.12,WNW,287,0.0,0.0,83,0.00,,---,0.00,VWS V14.01,2013-07-30 08:36:00,
2013-07-30 04:37:00,52.7,48.3,30.12,NW,308,0.0,0.0,85,0.00,,---,0.00,VWS V14.01,2013-07-30 08:37:00,
2013-07-30 04:38:00,53.4,48.4,30.12,NNW,339,2.7,5.4,83,0.00,,---,0.00,VWS V14.01,2013-07-30 08:38:00,
2013-07-30 04:39:00,53.4,48.7,30.12,NNW,339,0.0,2.7,84,0.00,,---,0.00,VWS V14.01,2013-07-30 08:39:00,
2013-07-30 04:40:00,53.8,49.0,30.12,NNW,339,2.7,3.1,84,0.00,,---,0.00,VWS V14.01,2013-07-30 08:40:00,
2013-07-30 04:41:00,53.6,48.9,30.12,NNW,339,0.0,2.7,84,0.00,,---,0.00,VWS V14.01,2013-07-30 08:41:00,
2013-07-30 04:42:00,52.7,48.3,30.12,NW,308,0.0,0.0,85,0.00,,---,0.00,VWS V14.01,2013-07-30 08:42:00,
2013-07-30 04:43:00,53.8,49.0,30.12,NW,314,0.0,0.0,84,0.00,,---,0.00,VWS V14.01,2013-07-30 08:43:00,
2013-07-30 04:44:00,53.8,49.0,30.12,NW,312,0.0,0.0,84,0.00,,---,0.00,VWS V14.01,2013-07-30 08:44:00,
2013-07-30 04:45:00,53.8,49.0,30.12,NW,313,0.0,0.0,84,0.00,,---,0.00,VWS V14.01,2013-07-30 08:45:00,
2013-07-30 04:46:00,53.8,49.0,30.12,NW,314,4.0,4.0,84,0.00,,---,0.00,VWS V14.01,2013-07-30 08:46:00,
2013-07-30 04:47:00,52.7,48.6,30.12,NW,308,0.0,0.0,86,0.00,,---,0.00,VWS V14.01,2013-07-30 08:47:00,
2013-07-30 04:48:00,53.8,49.4,30.12,NNW,334,0.0,0.0,85,0.00,,---,0.00,VWS V14.01,2013-07-30 08:48:00,
2013-07-30 04:49:00,53.6,49.2,30.12,NE,35,3.6,3.6,85,0.00,,---,0.00,VWS V14.01,2013-07-30 08:49:00,
2013-07-30 04:50:00,53.8,49.4,30.12,North,356,0.0,3.6,85,0.00,,---,0.00,VWS V14.01,2013-07-30 08:50:00,
2013-07-30 04:51:00,53.8,49.4,30.12,North,356,0.0,2.7,85,0.00,,---,0.00,VWS V14.01,2013-07-30 08:51:00,
2013-07-30 04:52:00,52.9,48.8,30.12,NW,307,0.0,0.0,86,0.00,,---,0.00,VWS V14.01,2013-07-30 08:52:00,
2013-07-30 04:53:00,53.6,48.9,30.12,North,356,0.0,0.0,84,0.00,,---,0.00,VWS V14.01,2013-07-30 08:53:00,
2013-07-30 04:54:00,53.6,48.9,30.12,North,356,0.0,0.0,84,0.00,,---,0.00,VWS V14.01,2013-07-30 08:54:00,
2013-07-30 04:55:00,53.4,48.7,30.12,North,356,0.0,0.0,84,0.00,,---,0.00,VWS V14.01,2013-07-30 08:55:00,
2013-07-30 04:56:00,53.4,48.7,30.12,North,356,0.0,0.0,84,0.00,,---,0.00,VWS V14.01,2013-07-30 08:56:00,
2013-07-30 04:57:00,52.9,48.8,30.12,NW,308,0.0,0.0,86,0.00,,---,0.00,VWS V14.01,2013-07-30 08:57:00,
2013-07-30 04:58:00,53.4,48.7,30.12,NNW,333,0.0,0.0,84,0.00,,---,0.00,VWS V14.01,2013-07-30 08:58:00,
2013-07-30 04:59:00,53.4,48.7,30.12,NW,324,0.0,0.0,84,0.00,,---,0.00,VWS V14.01,2013-07-30 08:59:00,
2013-07-30 05:00:00,53.4,48.7,30.12,NW,324,0.0,0.0,84,0.00,,---,0.00,VWS V14.01,2013-07-30 09:00:00,
2013-07-30 05:01:00,53.4,48.7,30.12,NW,324,0.0,0.0,84,0.00,,---,0.00,VWS V14.01,2013-07-30 09:01:00,
2013-07-30 05:02:00,53.4,48.7,30.12,NW,315,4.0,4.9,84,0.00,,---,0.00,VWS V14.01,2013-07-30 09:02:00,
2013-07-30 05:03:00,52.5,48.4,30.12,NW,308,0.0,0.0,86,0.00,,---,0.00,VWS V14.01,2013-07-30 09:03:00,
2013-07-30 05:04:00,53.4,49.0,30.12,South,176,0.0,3.1,85,0.00,,---,0.00,VWS V14.01,2013-07-30 09:04:00,
2013-07-30 05:05:00,53.4,49.0,30.12,South,176,0.0,0.0,85,0.00,,---,0.00,VWS V14.01,2013-07-30 09:05:00,
2013-07-30 05:06:00,53.6,49.2,30.12,WNW,299,4.0,4.0,85,0.00,,---,0.00,VWS V14.01,2013-07-30 09:06:00,
2013-07-30 05:07:00,53.6,49.2,30.12,WNW,302,0.0,4.5,85,0.00,,---,0.00,VWS V14.01,2013-07-30 09:07:00,
2013-07-30 05:08:00,52.3,48.3,30.12,NW,308,0.0,0.0,86,0.00,,---,0.00,VWS V14.01,2013-07-30 09:08:00,
2013-07-30 05:09:00,53.4,49.0,30.12,WNW,302,0.0,0.0,85,0.00,,---,0.00,VWS V14.01,2013-07-30 09:09:00,
2013-07-30 05:10:00,53.6,49.2,30.12,WNW,302,0.0,0.0,85,0.00,,---,0.00,VWS V14.01,2013-07-30 09:10:00,
2013-07-30 05:11:00,53.6,49.2,30.12,WNW,302,0.0,0.0,85,0.00,,---,0.00,VWS V14.01,2013-07-30 09:11:00,
2013-07-30 05:12:00,53.4,49.0,30.12,WNW,302,0.0,0.0,85,0.00,,---,0.00,VWS V14.01,2013-07-30 09:12:00,
2013-07-30 05:13:00,52.1,48.1,30.12,NW,308,0.0,0.0,86,0.00,,---,0.00,VWS V14.01,2013-07-30 09:13:00,
2013-07-30 05:14:00,53.6,49.2,30.12,WNW,302,0.0,0.0,85,0.00,,---,0.00,VWS V14.01,2013-07-30 09:14:00,
2013-07-30 05:15:00,53.4,49.0,30.12,WNW,302,0.0,0.0,85,0.00,,---,0.00,VWS V14.01,2013-07-30 09:15:00,
2013-07-30 05:16:00,53.4,49.0,30.12,WNW,302,0.0,0.0,85,0.00,,---,0.00,VWS V14.01,2013-07-30 09:16:00,
2013-07-30 05:17:00,53.4,49.0,30.12,WNW,302,0.0,0.0,85,0.00,,---,0.00,VWS V14.01,2013-07-30 09:17:00,
2013-07-30 05:18:00,52.1,48.4,30.12,NW,308,0.0,0.0,87,0.00,,---,0.00,VWS V14.01,2013-07-30 09:18:00,
2013-07-30 05:19:00,53.2,48.8,30.12,NW,308,0.0,0.0,85,0.00,,---,0.00,VWS V14.01,2013-07-30 09:19:00,
2013-07-30 05:20:00,53.2,48.8,30.12,NW,308,0.0,0.0,85,0.00,,---,0.00,VWS V14.01,2013-07-30 09:20:00,
2013-07-30 05:21:00,53.2,48.8,30.12,NW,308,0.0,0.0,85,0.00,,---,0.00,VWS V14.01,2013-07-30 09:21:00,
2013-07-30 05:22:00,53.2,48.8,30.12,NW,308,0.0,0.0,85,0.00,,---,0.00,VWS V14.01,2013-07-30 09:22:00,
2013-07-30 05:23:00,52.1,48.4,30.12,NW,308,0.0,0.0,87,0.00,,---,0.00,VWS V14.01,2013-07-30 09:23:00,
2013-07-30 05:24:00,53.2,48.8,30.12,NW,308,0.0,0.0,85,0.00,,---,0.00,VWS V14.01,2013-07-30 09:24:00,
2013-07-30 05:25:00,53.2,48.8,30.12,NW,308,0.0,0.0,85,0.00,,---,0.00,VWS V14.01,2013-07-30 09:25:00,
2013-07-30 05:26:00,53.0,48.7,30.12,NW,308,0.0,0.0,85,0.00,,---,0.00,VWS V14.01,2013-07-30 09:26:00,
2013-07-30 05:27:00,53.0,48.7,30.12,NW,308,0.0,0.0,85,0.00,,---,0.00,VWS V14.01,2013-07-30 09:27:00,
2013-07-30 05:28:00,52.3,48.6,30.12,NW,308,0.0,0.0,87,0.00,,---,0.00,VWS V14.01,2013-07-30 09:28:00,
2013-07-30 05:29:00,53.0,48.7,30.12,NW,308,0.0,0.0,85,0.00,,---,0.00,VWS V14.01,2013-07-30 09:29:00,
2013-07-30 05:30:00,53.0,48.7,30.12,NW,308,0.0,0.0,85,0.00,,---,0.00,VWS V14.01,2013-07-30 09:30:00,
2013-07-30 05:31:00,52.9,48.5,30.12,NW,308,0.0,0.0,85,0.00,,---,0.00,VWS V14.01,2013-07-30 09:31:00,
2013-07-30 05:32:00,52.9,48.5,30.12,NW,308,0.0,0.0,85,0.00,,---,0.00,VWS V14.01,2013-07-30 09:32:00,
2013-07-30 05:33:00,52.3,48.6,30.12,NW,308,0.0,0.0,87,0.00,,---,0.00,VWS V14.01,2013-07-30 09:33:00,
2013-07-30 05:34:00,52.9,48.5,30.12,NW,308,0.0,0.0,85,0.00,,---,0.00,VWS V14.01,2013-07-30 09:34:00,
2013-07-30 05:35:00,52.9,48.5,30.12,NW,308,0.0,0.0,85,0.00,,---,0.00,VWS V14.01,2013-07-30 09:35:00,
2013-07-30 05:36:00,52.7,48.3,30.12,NW,308,0.0,0.0,85,0.00,,---,0.00,VWS V14.01,2013-07-30 09:36:00,
2013-07-30 05:37:00,52.7,48.3,30.12,NW,308,0.0,0.0,85,0.00,,---,0.00,VWS V14.01,2013-07-30 09:37:00,
2013-07-30 05:38:00,52.3,48.6,30.12,NW,308,0.0,0.0,87,0.00,,---,0.00,VWS V14.01,2013-07-30 09:38:00,
2013-07-30 05:39:00,52.7,48.3,30.12,NW,308,0.0,0.0,85,0.00,,---,0.00,VWS V14.01,2013-07-30 09:39:00,
2013-07-30 05:40:00,52.7,48.3,30.12,NW,308,0.0,0.0,85,0.00,,---,0.00,VWS V14.01,2013-07-30 09:40:00,
2013-07-30 05:41:00,52.5,48.1,30.12,NW,308,0.0,0.0,85,0.00,,---,0.00,VWS V14.01,2013-07-30 09:41:00,
2013-07-30 05:42:00,52.7,48.3,30.12,NW,308,0.0,0.0,85,0.00,,---,0.00,VWS V14.01,2013-07-30 09:42:00,
2013-07-30 05:43:00,52.1,48.7,30.12,NW,308,0.0,0.0,88,0.00,,---,0.00,VWS V14.01,2013-07-30 09:43:00,
2013-07-30 05:44:00,52.7,48.3,30.12,NW,308,0.0,0.0,85,0.00,,---,0.00,VWS V14.01,2013-07-30 09:44:00,
2013-07-30 05:45:00,52.7,48.3,30.12,NW,308,0.0,0.0,85,0.00,,---,0.00,VWS V14.01,2013-07-30 09:45:00,
2013-07-30 05:46:00,52.7,48.6,30.12,NW,308,0.0,0.0,86,0.00,,---,0.00,VWS V14.01,2013-07-30 09:46:00,
2013-07-30 05:47:00,52.7,48.6,30.12,NW,308,0.0,0.0,86,0.00,,---,0.00,VWS V14.01,2013-07-30 09:47:00,
2013-07-30 05:48:00,52.0,48.5,30.12,NW,308,0.0,0.0,88,0.00,,---,0.00,VWS V14.01,2013-07-30 09:48:00,
2013-07-30 05:49:00,52.7,48.6,30.12,NW,308,0.0,0.0,86,0.00,,---,0.00,VWS V14.01,2013-07-30 09:49:00,
2013-07-30 05:50:00,52.9,48.8,30.12,NW,308,0.0,0.0,86,0.00,,---,0.00,VWS V14.01,2013-07-30 09:50:00,
2013-07-30 05:51:00,52.9,48.8,30.12,NW,308,0.0,0.0,86,0.00,,---,0.00,VWS V14.01,2013-07-30 09:51:00,
2013-07-30 05:52:00,52.9,48.8,30.12,NW,308,0.0,0.0,86,0.00,,---,0.00,VWS V14.01,2013-07-30 09:52:00,
2013-07-30 05:53:00,51.8,48.0,30.12,NW,308,0.0,0.0,87,0.00,,---,0.00,VWS V14.01,2013-07-30 09:53:00,
2013-07-30 05:54:00,52.7,48.6,30.12,NW,308,0.0,0.0,86,0.00,,---,0.00,VWS V14.01,2013-07-30 09:54:00,
2013-07-30 05:55:00,52.7,48.6,30.12,NW,308,0.0,0.0,86,0.00,,---,0.00,VWS V14.01,2013-07-30 09:55:00,
2013-07-30 05:56:00,52.7,48.6,30.12,NW,308,0.0,0.0,86,0.00,,---,0.00,VWS V14.01,2013-07-30 09:56:00,
2013-07-30 05:57:00,52.7,48.6,30.12,NW,308,0.0,0.0,86,0.00,,---,0.00,VWS V14.01,2013-07-30 09:57:00,
2013-07-30 05:58:00,51.8,48.0,30.12,NW,308,0.0,0.0,87,0.00,,---,0.00,VWS V14.01,2013-07-30 09:58:00,
2013-07-30 05:59:00,52.7,48.6,30.12,NW,308,0.0,0.0,86,0.00,,---,0.00,VWS V14.01,2013-07-30 09:59:00,
2013-07-30 06:00:00,52.5,48.4,30.12,NW,308,0.0,0.0,86,0.00,,---,0.00,VWS V14.01,2013-07-30 10:00:00,
2013-07-30 06:01:00,52.7,48.6,30.12,NW,308,0.0,0.0,86,0.00,,---,0.00,VWS V14.01,2013-07-30 10:01:00,
2013-07-30 06:02:00,52.7,48.6,30.12,NW,308,0.0,0.0,86,0.00,,---,0.00,VWS V14.01,2013-07-30 10:02:00,
2013-07-30 06:03:00,52.0,48.5,30.12,NW,308,0.0,0.0,88,0.00,,---,0.00,VWS V14.01,2013-07-30 10:03:00,
2013-07-30 06:04:00,52.5,48.4,30.12,NW,308,0.0,0.0,86,0.00,,---,0.00,VWS V14.01,2013-07-30 10:04:00,
2013-07-30 06:05:00,52.5,48.4,30.12,NW,308,0.0,0.0,86,0.00,,---,0.00,VWS V14.01,2013-07-30 10:05:00,
2013-07-30 06:06:00,52.5,48.4,30.12,NW,308,0.0,0.0,86,0.00,,---,0.00,VWS V14.01,2013-07-30 10:06:00,
2013-07-30 06:07:00,52.5,48.4,30.12,NW,308,0.0,0.0,86,0.00,,---,0.00,VWS V14.01,2013-07-30 10:07:00,
2013-07-30 06:08:00,52.1,48.7,30.12,NW,308,0.0,0.0,88,0.00,,---,0.00,VWS V14.01,2013-07-30 10:08:00,
2013-07-30 06:09:00,52.3,48.3,30.12,NW,308,0.0,0.0,86,0.00,,---,0.00,VWS V14.01,2013-07-30 10:09:00,
2013-07-30 06:10:00,52.3,48.3,30.12,NW,308,0.0,0.0,86,0.00,,---,0.00,VWS V14.01,2013-07-30 10:10:00,
2013-07-30 06:11:00,52.1,48.1,30.12,NW,308,0.0,0.0,86,0.00,,---,0.00,VWS V14.01,2013-07-30 10:11:00,
2013-07-30 06:12:00,52.1,48.1,30.12,NW,308,0.0,0.0,86,0.00,,---,0.00,VWS V14.01,2013-07-30 10:12:00,
2013-07-30 06:13:00,52.1,48.7,30.12,NW,308,0.0,0.0,88,0.00,,---,0.00,VWS V14.01,2013-07-30 10:13:00,
2013-07-30 06:14:00,52.3,48.3,30.12,NW,308,0.0,0.0,86,0.00,,---,0.00,VWS V14.01,2013-07-30 10:14:00,
2013-07-30 06:15:00,52.1,48.4,30.12,NW,308,0.0,0.0,87,0.00,,---,0.00,VWS V14.01,2013-07-30 10:15:00,
2013-07-30 06:16:00,52.1,48.4,30.12,NW,308,0.0,0.0,87,0.00,,---,0.00,VWS V14.01,2013-07-30 10:16:00,
2013-07-30 06:17:00,52.1,48.4,30.12,NW,308,0.0,0.0,87,0.00,,---,0.00,VWS V14.01,2013-07-30 10:17:00,
2013-07-30 06:18:00,52.1,48.7,30.12,NW,308,0.0,0.0,88,0.00,,---,0.00,VWS V14.01,2013-07-30 10:18:00,
2013-07-30 06:19:00,52.1,48.4,30.12,NW,308,0.0,0.0,87,0.00,,---,0.00,VWS V14.01,2013-07-30 10:19:00,
2013-07-30 06:20:00,52.3,48.6,30.12,NW,308,0.0,0.0,87,0.00,,---,0.00,VWS V14.01,2013-07-30 10:20:00,
2013-07-30 06:21:00,52.3,48.6,30.12,NW,308,0.0,0.0,87,0.00,,---,0.00,VWS V14.01,2013-07-30 10:21:00,
2013-07-30 06:22:00,52.1,48.4,30.12,NW,308,0.0,0.0,87,0.00,,---,0.00,VWS V14.01,2013-07-30 10:22:00,
2013-07-30 06:23:00,52.5,49.0,30.15,NW,308,0.0,0.0,88,0.00,,---,0.00,VWS V14.01,2013-07-30 10:23:00,
2013-07-30 06:24:00,52.1,48.4,30.12,NW,308,0.0,0.0,87,0.00,,---,0.00,VWS V14.01,2013-07-30 10:24:00,
2013-07-30 06:25:00,52.1,48.4,30.12,NW,308,0.0,0.0,87,0.00,,---,0.00,VWS V14.01,2013-07-30 10:25:00,
2013-07-30 06:26:00,52.1,48.4,30.12,NW,308,0.0,0.0,87,0.00,,---,0.00,VWS V14.01,2013-07-30 10:26:00,
2013-07-30 06:27:00,52.1,48.4,30.12,NW,308,0.0,0.0,87,0.00,,---,0.00,VWS V14.01,2013-07-30 10:27:00,
2013-07-30 06:28:00,52.5,49.0,30.15,NW,308,0.0,0.0,88,0.00,,---,0.00,VWS V14.01,2013-07-30 10:28:00,
2013-07-30 06:29:00,52.3,48.6,30.12,NW,308,0.0,0.0,87,0.00,,---,0.00,VWS V14.01,2013-07-30 10:29:00,
2013-07-30 06:30:00,52.3,48.6,30.12,NW,308,0.0,0.0,87,0.00,,---,0.00,VWS V14.01,2013-07-30 10:30:00,
2013-07-30 06:31:00,52.3,48.6,30.12,NW,308,0.0,0.0,87,0.00,,---,0.00,VWS V14.01,2013-07-30 10:31:00,
2013-07-30 06:32:00,52.3,48.6,30.12,NW,308,0.0,0.0,87,0.00,,---,0.00,VWS V14.01,2013-07-30 10:32:00,
2013-07-30 06:33:00,52.9,49.4,30.15,NW,308,0.0,0.0,88,0.00,,---,0.00,VWS V14.01,2013-07-30 10:33:00,
2013-07-30 06:34:00,52.3,48.6,30.12,NW,308,0.0,0.0,87,0.00,,---,0.00,VWS V14.01,2013-07-30 10:34:00,
2013-07-30 06:35:00,52.3,48.6,30.12,NW,308,0.0,0.0,87,0.00,,---,0.00,VWS V14.01,2013-07-30 10:35:00,
2013-07-30 06:36:00,52.3,48.6,30.12,NW,308,0.0,0.0,87,0.00,,---,0.00,VWS V14.01,2013-07-30 10:36:00,
2013-07-30 06:37:00,52.3,48.6,30.12,NW,308,0.0,0.0,87,0.00,,---,0.00,VWS V14.01,2013-07-30 10:37:00,
2013-07-30 06:38:00,52.9,49.4,30.15,NW,308,0.0,0.0,88,0.00,,---,0.00,VWS V14.01,2013-07-30 10:38:00,
2013-07-30 06:39:00,52.3,48.9,30.12,NW,308,0.0,0.0,88,0.00,,---,0.00,VWS V14.01,2013-07-30 10:39:00,
2013-07-30 06:40:00,52.3,48.9,30.12,NW,308,0.0,0.0,88,0.00,,---,0.00,VWS V14.01,2013-07-30 10:40:00,
2013-07-30 06:41:00,52.1,48.7,30.12,NW,308,0.0,0.0,88,0.00,,---,0.00,VWS V14.01,2013-07-30 10:41:00,
2013-07-30 06:42:00,52.1,48.7,30.12,NW,308,0.0,0.0,88,0.00,,---,0.00,VWS V14.01,2013-07-30 10:42:00,
2013-07-30 06:43:00,53.0,49.6,30.15,NW,308,0.0,0.0,88,0.00,,---,0.00,VWS V14.01,2013-07-30 10:43:00,
2013-07-30 06:44:00,52.1,48.7,30.12,NW,308,0.0,0.0,88,0.00,,---,0.00,VWS V14.01,2013-07-30 10:44:00,
2013-07-30 06:45:00,52.0,48.5,30.12,NW,308,0.0,0.0,88,0.00,,---,0.00,VWS V14.01,2013-07-30 10:45:00,
2013-07-30 06:46:00,52.1,48.7,30.12,NW,308,0.0,0.0,88,0.00,,---,0.00,VWS V14.01,2013-07-30 10:46:00,
2013-07-30 06:47:00,52.1,48.7,30.12,NW,308,0.0,0.0,88,0.00,,---,0.00,VWS V14.01,2013-07-30 10:47:00,
2013-07-30 06:48:00,53.0,49.6,30.15,NW,308,0.0,0.0,88,0.00,,---,0.00,VWS V14.01,2013-07-30 10:48:00,
2013-07-30 06:49:00,52.1,48.7,30.12,NW,308,0.0,0.0,88,0.00,,---,0.00,VWS V14.01,2013-07-30 10:49:00,
2013-07-30 06:50:00,52.0,48.5,30.12,NW,308,0.0,0.0,88,0.00,,---,0.00,VWS V14.01,2013-07-30 10:50:00,
2013-07-30 06:51:00,52.0,48.2,30.12,NW,308,0.0,0.0,87,0.00,,---,0.00,VWS V14.01,2013-07-30 10:51:00,
2013-07-30 06:52:00,51.8,48.0,30.12,NW,308,0.0,0.0,87,0.00,,---,0.00,VWS V14.01,2013-07-30 10:52:00,
2013-07-30 06:53:00,53.4,49.9,30.15,NW,308,0.0,0.0,88,0.00,,---,0.00,VWS V14.01,2013-07-30 10:53:00,
2013-07-30 06:54:00,51.8,48.0,30.12,NW,308,0.0,0.0,87,0.00,,---,0.00,VWS V14.01,2013-07-30 10:54:00,
2013-07-30 06:55:00,51.8,48.0,30.12,NW,308,0.0,0.0,87,0.00,,---,0.00,VWS V14.01,2013-07-30 10:55:00,
2013-07-30 06:56:00,52.0,48.5,30.12,NW,308,0.0,0.0,88,0.00,,---,0.00,VWS V14.01,2013-07-30 10:56:00,
2013-07-30 06:57:00,52.0,48.5,30.12,NW,308,0.0,0.0,88,0.00,,---,0.00,VWS V14.01,2013-07-30 10:57:00,
2013-07-30 06:58:00,53.6,50.1,30.15,NW,308,0.0,0.0,88,0.00,,---,0.00,VWS V14.01,2013-07-30 10:58:00,
2013-07-30 06:59:00,52.0,48.5,30.12,NW,308,0.0,0.0,88,0.00,,---,0.00,VWS V14.01,2013-07-30 10:59:00,
2013-07-30 07:00:00,51.8,48.3,30.12,NW,308,0.0,0.0,88,0.00,,---,0.00,VWS V14.01,2013-07-30 11:00:00,
2013-07-30 07:01:00,52.0,48.5,30.12,NW,308,0.0,0.0,88,0.00,,---,0.00,VWS V14.01,2013-07-30 11:01:00,
2013-07-30 07:02:00,52.0,48.5,30.12,NW,308,0.0,0.0,88,0.00,,---,0.00,VWS V14.01,2013-07-30 11:02:00,
2013-07-30 07:03:00,53.6,50.1,30.15,NW,308,0.0,0.0,88,0.00,,---,0.00,VWS V14.01,2013-07-30 11:03:00,
2013-07-30 07:04:00,52.0,48.5,30.12,NW,308,0.0,0.0,88,0.00,,---,0.00,VWS V14.01,2013-07-30 11:04:00,
2013-07-30 07:05:00,52.1,48.7,30.12,NW,308,0.0,0.0,88,0.00,,---,0.00,VWS V14.01,2013-07-30 11:05:00,
2013-07-30 07:06:00,52.1,48.7,30.12,NW,308,0.0,0.0,88,0.00,,---,0.00,VWS V14.01,2013-07-30 11:06:00,
2013-07-30 07:07:00,52.1,48.7,30.12,NW,308,0.0,0.0,88,0.00,,---,0.00,VWS V14.01,2013-07-30 11:07:00,
2013-07-30 07:08:00,53.9,50.8,30.15,NE,34,0.0,0.0,89,0.00,,---,0.00,VWS V14.01,2013-07-30 11:08:00,
2013-07-30 07:09:00,52.1,48.7,30.12,NW,308,0.0,0.0,88,0.00,,---,0.00,VWS V14.01,2013-07-30 11:09:00,
2013-07-30 07:10:00,52.1,48.7,30.12,NW,308,0.0,0.0,88,0.00,,---,0.00,VWS V14.01,2013-07-30 11:10:00,
2013-07-30 07:11:00,52.1,48.7,30.12,NW,308,0.0,0.0,88,0.00,,---,0.00,VWS V14.01,2013-07-30 11:11:00,
2013-07-30 07:12:00,52.1,48.7,30.12,NW,308,0.0,0.0,88,0.00,,---,0.00,VWS V14.01,2013-07-30 11:12:00,
2013-07-30 07:13:00,53.9,50.5,30.15,NE,34,0.0,0.0,88,0.00,,---,0.00,VWS V14.01,2013-07-30 11:13:00,
2013-07-30 07:14:00,52.1,48.7,30.12,NW,308,0.0,0.0,88,0.00,,---,0.00,VWS V14.01,2013-07-30 11:14:00,
2013-07-30 07:15:00,52.1,48.7,30.12,NW,308,0.0,0.0,88,0.00,,---,0.00,VWS V14.01,2013-07-30 11:15:00,
2013-07-30 07:16:00,52.1,48.7,30.12,NW,308,0.0,0.0,88,0.00,,---,0.00,VWS V14.01,2013-07-30 11:16:00,
2013-07-30 07:17:00,52.1,48.7,30.12,NW,308,0.0,0.0,88,0.00,,---,0.00,VWS V14.01,2013-07-30 11:17:00,
2013-07-30 07:18:00,53.9,50.5,30.15,NE,35,0.0,0.0,88,0.00,,---,0.00,VWS V14.01,2013-07-30 11:18:00,
2013-07-30 07:19:00,52.1,48.7,30.12,NW,308,0.0,0.0,88,0.00,,---,0.00,VWS V14.01,2013-07-30 11:19:00,
2013-07-30 07:20:00,52.1,48.7,30.15,NW,308,0.0,0.0,88,0.00,,---,0.00,VWS V14.01,2013-07-30 11:20:00,
2013-07-30 07:21:00,52.3,48.9,30.15,NW,308,0.0,0.0,88,0.00,,---,0.00,VWS V14.01,2013-07-30 11:21:00,
2013-07-30 07:22:00,52.5,49.1,30.15,NW,308,0.0,0.0,88,0.00,,---,0.00,VWS V14.01,2013-07-30 11:22:00,
2013-07-30 07:23:00,53.9,50.5,30.15,ESE,105,0.0,0.0,88,0.00,,---,0.00,VWS V14.01,2013-07-30 11:23:00,
2013-07-30 07:24:00,52.5,49.1,30.15,NW,308,0.0,0.0,88,0.00,,---,0.00,VWS V14.01,2013-07-30 11:24:00,
2013-07-30 07:25:00,52.5,49.1,30.15,NW,308,0.0,0.0,88,0.00,,---,0.00,VWS V14.01,2013-07-30 11:25:00,
2013-07-30 07:26:00,52.5,49.1,30.15,NW,308,0.0,0.0,88,0.00,,---,0.00,VWS V14.01,2013-07-30 11:26:00,
2013-07-30 07:27:00,52.5,49.1,30.15,NW,308,0.0,0.0,88,0.00,,---,0.00,VWS V14.01,2013-07-30 11:27:00,
2013-07-30 07:28:00,53.9,50.5,30.15,ESE,105,0.0,0.0,88,0.00,,---,0.00,VWS V14.01,2013-07-30 11:28:00,
2013-07-30 07:29:00,52.7,49.2,30.15,NW,308,0.0,0.0,88,0.00,,---,0.00,VWS V14.01,2013-07-30 11:29:00,
2013-07-30 07:30:00,52.7,49.2,30.15,NW,308,0.0,0.0,88,0.00,,---,0.00,VWS V14.01,2013-07-30 11:30:00,
2013-07-30 07:31:00,52.9,49.4,30.15,NW,308,0.0,0.0,88,0.00,,---,0.00,VWS V14.01,2013-07-30 11:31:00,
2013-07-30 07:32:00,52.9,49.4,30.15,NW,308,0.0,0.0,88,0.00,,---,0.00,VWS V14.01,2013-07-30 11:32:00,
2013-07-30 07:33:00,53.9,50.5,30.15,SSW,210,0.0,0.0,88,0.00,,---,0.00,VWS V14.01,2013-07-30 11:33:00,
2013-07-30 07:34:00,52.9,49.4,30.15,NW,308,0.0,0.0,88,0.00,,---,0.00,VWS V14.01,2013-07-30 11:34:00,
2013-07-30 07:35:00,52.9,49.4,30.15,NW,308,0.0,0.0,88,0.00,,---,0.00,VWS V14.01,2013-07-30 11:35:00,
2013-07-30 07:36:00,52.9,49.4,30.15,NW,308,0.0,0.0,88,0.00,,---,0.00,VWS V14.01,2013-07-30 11:36:00,
2013-07-30 07:37:00,52.9,49.4,30.15,NW,308,0.0,0.0,88,0.00,,---,0.00,VWS V14.01,2013-07-30 11:37:00,
2013-07-30 07:38:00,53.9,50.5,30.15,NE,39,0.0,3.1,88,0.00,,---,0.00,VWS V14.01,2013-07-30 11:38:00,
2013-07-30 07:39:00,52.9,49.4,30.15,NW,308,0.0,0.0,88,0.00,,---,0.00,VWS V14.01,2013-07-30 11:39:00,
2013-07-30 07:40:00,52.9,49.4,30.15,NW,308,0.0,0.0,88,0.00,,---,0.00,VWS V14.01,2013-07-30 11:40:00,
2013-07-30 07:41:00,53.0,49.6,30.15,NW,308,0.0,0.0,88,0.00,,---,0.00,VWS V14.01,2013-07-30 11:41:00,
2013-07-30 07:42:00,53.0,49.6,30.15,NW,308,0.0,0.0,88,0.00,,---,0.00,VWS V14.01,2013-07-30 11:42:00,
2013-07-30 07:43:00,53.9,50.5,30.15,NE,44,0.0,0.0,88,0.00,,---,0.00,VWS V14.01,2013-07-30 11:43:00,
2013-07-30 07:44:00,53.0,49.6,30.15,NW,308,0.0,0.0,88,0.00,,---,0.00,VWS V14.01,2013-07-30 11:44:00,
2013-07-30 07:45:00,53.0,49.6,30.15,NW,308,0.0,0.0,88,0.00,,---,0.00,VWS V14.01,2013-07-30 11:45:00,
2013-07-30 07:46:00,53.0,49.6,30.15,NW,308,0.0,0.0,88,0.00,,---,0.00,VWS V14.01,2013-07-30 11:46:00,
2013-07-30 07:47:00,53.0,49.6,30.15,NW,308,0.0,0.0,88,0.00,,---,0.00,VWS V14.01,2013-07-30 11:47:00,
2013-07-30 07:48:00,53.9,50.5,30.15,ENE,77,0.0,0.0,88,0.00,,---,0.00,VWS V14.01,2013-07-30 11:48:00,
2013-07-30 07:49:00,53.2,49.8,30.15,NW,308,0.0,0.0,88,0.00,,---,0.00,VWS V14.01,2013-07-30 11:49:00,
2013-07-30 07:50:00,53.2,49.8,30.15,NW,308,0.0,0.0,88,0.00,,---,0.00,VWS V14.01,2013-07-30 11:50:00,
2013-07-30 07:51:00,53.2,49.8,30.15,NW,308,0.0,0.0,88,0.00,,---,0.00,VWS V14.01,2013-07-30 11:51:00,
2013-07-30 07:52:00,53.4,49.9,30.15,NW,308,0.0,0.0,88,0.00,,---,0.00,VWS V14.01,2013-07-30 11:52:00,
2013-07-30 07:53:00,53.9,50.5,30.18,East,96,0.0,0.0,88,0.00,,---,0.00,VWS V14.01,2013-07-30 11:53:00,
2013-07-30 07:54:00,53.4,49.9,30.15,NW,308,0.0,0.0,88,0.00,,---,0.00,VWS V14.01,2013-07-30 11:54:00,
2013-07-30 07:55:00,53.4,49.9,30.15,NW,308,0.0,0.0,88,0.00,,---,0.00,VWS V14.01,2013-07-30 11:55:00,
2013-07-30 07:56:00,53.4,49.9,30.15,NW,308,0.0,0.0,88,0.00,,---,0.00,VWS V14.01,2013-07-30 11:56:00,
2013-07-30 07:57:00,53.4,49.9,30.15,NW,308,0.0,0.0,88,0.00,,---,0.00,VWS V14.01,2013-07-30 11:57:00,
2013-07-30 07:58:00,58.1,46.8,30.18,East,96,0.0,0.0,66,0.00,,---,0.00,VWS V14.01,2013-07-30 11:58:00,
2013-07-30 07:59:00,53.6,50.1,30.15,NW,308,0.0,0.0,88,0.00,,---,0.00,VWS V14.01,2013-07-30 11:59:00,
2013-07-30 08:00:00,53.6,50.1,30.15,NW,308,0.0,0.0,88,0.00,,---,0.00,VWS V14.01,2013-07-30 12:00:00,
2013-07-30 08:01:00,53.6,50.1,30.15,NW,308,0.0,0.0,88,0.00,,---,0.00,VWS V14.01,2013-07-30 12:01:00,
2013-07-30 08:02:00,59.7,46.7,30.18,NE,42,3.6,4.0,62,0.00,,---,0.00,VWS V14.01,2013-07-30 12:02:00,
2013-07-30 08:03:00,53.6,50.1,30.15,NW,308,0.0,0.0,88,0.00,,---,0.00,VWS V14.01,2013-07-30 12:03:00,
2013-07-30 08:04:00,53.8,50.3,30.15,NE,34,0.0,0.0,88,0.00,,---,0.00,VWS V14.01,2013-07-30 12:04:00,
2013-07-30 08:05:00,53.9,50.8,30.15,NE,34,0.0,0.0,89,0.00,,---,0.00,VWS V14.01,2013-07-30 12:05:00,
2013-07-30 08:06:00,53.9,50.8,30.15,NE,34,0.0,0.0,89,0.00,,---,0.00,VWS V14.01,2013-07-30 12:06:00,
2013-07-30 08:07:00,61.0,46.5,30.18,NE,45,0.0,0.0,59,0.00,,---,0.00,VWS V14.01,2013-07-30 12:07:00,
2013-07-30 08:08:00,53.9,50.8,30.15,NE,34,0.0,0.0,89,0.00,,---,0.00,VWS V14.01,2013-07-30 12:08:00,
2013-07-30 08:09:00,53.9,50.8,30.15,NE,34,0.0,0.0,89,0.00,,---,0.00,VWS V14.01,2013-07-30 12:09:00,
2013-07-30 08:10:00,53.9,50.8,30.15,NE,34,0.0,0.0,89,0.00,,---,0.00,VWS V14.01,2013-07-30 12:10:00,
2013-07-30 08:11:00,53.9,50.5,30.15,NE,34,0.0,3.6,88,0.00,,---,0.00,VWS V14.01,2013-07-30 12:11:00,
2013-07-30 08:12:00,61.5,44.7,30.18,NE,49,0.0,0.0,54,0.00,,---,0.00,VWS V14.01,2013-07-30 12:12:00,
2013-07-30 08:13:00,53.9,50.5,30.15,NE,34,0.0,0.0,88,0.00,,---,0.00,VWS V14.01,2013-07-30 12:13:00,
2013-07-30 08:14:00,53.9,50.5,30.15,NE,35,0.0,0.0,88,0.00,,---,0.00,VWS V14.01,2013-07-30 12:14:00,
2013-07-30 08:15:00,53.9,50.5,30.15,NE,35,0.0,0.0,88,0.00,,---,0.00,VWS V14.01,2013-07-30 12:15:00,
2013-07-30 08:16:00,53.9,50.5,30.15,NE,35,0.0,0.0,88,0.00,,---,0.00,VWS V14.01,2013-07-30 12:16:00,
2013-07-30 08:17:00,62.4,45.1,30.18,ENE,57,0.0,0.0,53,0.00,,---,0.00,VWS V14.01,2013-07-30 12:17:00,
2013-07-30 08:18:00,53.9,50.5,30.15,NE,35,0.0,0.0,88,0.00,,---,0.00,VWS V14.01,2013-07-30 12:18:00,
2013-07-30 08:19:00,53.9,50.5,30.15,NE,35,0.0,2.7,88,0.00,,---,0.00,VWS V14.01,2013-07-30 12:19:00,
2013-07-30 08:20:00,53.9,50.5,30.15,NE,35,0.0,0.0,88,0.00,,---,0.00,VWS V14.01,2013-07-30 12:20:00,
2013-07-30 08:21:00,53.9,50.5,30.15,NE,35,0.0,0.0,88,0.00,,---,0.00,VWS V14.01,2013-07-30 12:21:00,
2013-07-30 08:22:00,63.5,45.0,30.15,East,79,0.0,2.7,51,0.00,,---,0.00,VWS V14.01,2013-07-30 12:22:00,
2013-07-30 08:23:00,53.9,50.5,30.15,ESE,105,0.0,0.0,88,0.00,,---,0.00,VWS V14.01,2013-07-30 12:23:00,
2013-07-30 08:24:00,53.9,50.5,30.15,ESE,105,0.0,0.0,88,0.00,,---,0.00,VWS V14.01,2013-07-30 12:24:00,
2013-07-30 08:25:00,53.9,50.5,30.15,ESE,105,0.0,0.0,88,0.00,,---,0.00,VWS V14.01,2013-07-30 12:25:00,
2013-07-30 08:26:00,53.9,50.5,30.15,ESE,105,0.0,0.0,88,0.00,,---,0.00,VWS V14.01,2013-07-30 12:26:00,
2013-07-30 08:27:00,64.4,44.8,30.15,NE,49,0.0,0.0,49,0.00,,---,0.00,VWS V14.01,2013-07-30 12:27:00,
2013-07-30 08:28:00,53.9,50.5,30.15,ESE,105,0.0,0.0,88,0.00,,---,0.00,VWS V14.01,2013-07-30 12:28:00,
2013-07-30 08:29:00,53.9,50.5,30.15,ESE,105,0.0,0.0,88,0.00,,---,0.00,VWS V14.01,2013-07-30 12:29:00,
2013-07-30 08:30:00,53.9,50.5,30.15,ESE,105,0.0,0.0,88,0.00,,---,0.00,VWS V14.01,2013-07-30 12:30:00,
2013-07-30 08:31:00,53.9,50.5,30.15,SSW,210,0.0,0.0,88,0.00,,---,0.00,VWS V14.01,2013-07-30 12:31:00,
2013-07-30 08:32:00,66.2,46.5,30.15,NE,39,0.0,0.0,49,0.00,,---,0.00,VWS V14.01,2013-07-30 12:32:00,
2013-07-30 08:33:00,66.5,46.3,30.15,NE,44,0.0,0.0,48,0.00,,---,0.00,VWS V14.01,2013-07-30 12:33:00,
2013-07-30 08:34:00,53.9,50.5,30.15,SE,133,0.0,0.0,88,0.00,,---,0.00,VWS V14.01,2013-07-30 12:34:00,
2013-07-30 08:35:00,53.9,50.5,30.15,SE,133,0.0,0.0,88,0.00,,---,0.00,VWS V14.01,2013-07-30 12:35:00,
2013-07-30 08:36:00,53.9,50.5,30.15,SE,133,0.0,0.0,88,0.00,,---,0.00,VWS V14.01,2013-07-30 12:36:00,
2013-07-30 08:37:00,53.9,50.5,30.15,NE,48,0.0,0.0,88,0.00,,---,0.00,VWS V14.01,2013-07-30 12:37:00,
2013-07-30 08:38:00,68.5,45.8,30.18,East,100,0.0,0.0,44,0.00,,---,0.00,VWS V14.01,2013-07-30 12:38:00,
2013-07-30 08:39:00,53.9,50.5,30.15,NE,41,0.0,0.0,88,0.00,,---,0.00,VWS V14.01,2013-07-30 12:39:00,
2013-07-30 08:40:00,53.9,50.5,30.15,East,79,0.0,0.0,88,0.00,,---,0.00,VWS V14.01,2013-07-30 12:40:00,
2013-07-30 08:41:00,53.9,50.5,30.15,NE,45,0.0,0.0,88,0.00,,---,0.00,VWS V14.01,2013-07-30 12:41:00,
2013-07-30 08:42:00,53.9,50.5,30.15,NE,44,0.0,0.0,88,0.00,,---,0.00,VWS V14.01,2013-07-30 12:42:00,
2013-07-30 08:43:00,69.1,44.4,30.18,SSE,148,0.0,0.0,41,0.00,,---,0.00,VWS V14.01,2013-07-30 12:43:00,
2013-07-30 08:44:00,53.9,50.5,30.15,ENE,77,0.0,0.0,88,0.00,,---,0.00,VWS V14.01,2013-07-30 12:44:00,
2013-07-30 08:45:00,53.9,50.5,30.15,ENE,77,0.0,0.0,88,0.00,,---,0.00,VWS V14.01,2013-07-30 12:45:00,
2013-07-30 08:46:00,53.9,50.5,30.15,ENE,77,0.0,0.0,88,0.00,,---,0.00,VWS V14.01,2013-07-30 12:46:00,
2013-07-30 08:47:00,53.9,50.5,30.15,ENE,77,0.0,0.0,88,0.00,,---,0.00,VWS V14.01,2013-07-30 12:47:00,
2013-07-30 08:48:00,69.6,43.6,30.18,SE,145,0.0,0.0,39,0.00,,---,0.00,VWS V14.01,2013-07-30 12:48:00,
2013-07-30 08:49:00,53.9,50.5,30.15,East,93,0.0,0.0,88,0.00,,---,0.00,VWS V14.01,2013-07-30 12:49:00,
2013-07-30 08:50:00,53.9,50.5,30.18,East,96,0.0,0.0,88,0.00,,---,0.00,VWS V14.01,2013-07-30 12:50:00,
2013-07-30 08:51:00,53.9,50.5,30.18,East,96,0.0,0.0,88,0.00,,---,0.00,VWS V14.01,2013-07-30 12:51:00,
2013-07-30 08:52:00,53.9,50.5,30.18,East,97,0.0,0.0,88,0.00,,---,0.00,VWS V14.01,2013-07-30 12:52:00,
2013-07-30 08:53:00,68.2,43.0,30.18,ENE,63,0.0,0.0,40,0.00,,---,0.00,VWS V14.01,2013-07-30 12:53:00,
2013-07-30 08:54:00,53.9,50.5,30.18,East,96,0.0,0.0,88,0.00,,---,0.00,VWS V14.01,2013-07-30 12:54:00,
2013-07-30 08:55:00,53.9,50.5,30.18,East,96,0.0,0.0,88,0.00,,---,0.00,VWS V14.01,2013-07-30 12:55:00,
2013-07-30 08:56:00,53.9,50.5,30.18,East,96,0.0,0.0,88,0.00,,---,0.00,VWS V14.01,2013-07-30 12:56:00,
2013-07-30 08:57:00,53.9,50.5,30.18,East,96,0.0,0.0,88,0.00,,---,0.00,VWS V14.01,2013-07-30 12:57:00,
2013-07-30 08:58:00,71.2,45.0,30.18,East,82,0.0,0.0,39,0.00,,---,0.00,VWS V14.01,2013-07-30 12:58:00,
2013-07-30 08:59:00,58.4,46.7,30.18,NE,45,0.0,0.0,65,0.00,,---,0.00,VWS V14.01,2013-07-30 12:59:00,
2013-07-30 09:00:00,58.8,47.1,30.18,ENE,58,0.0,0.0,65,0.00,,---,0.00,VWS V14.01,2013-07-30 13:00:00,
2013-07-30 09:01:00,59.3,47.2,30.18,ENE,59,0.0,0.0,64,0.00,,---,0.00,VWS V14.01,2013-07-30 13:01:00,
2013-07-30 09:02:00,59.5,46.9,30.18,ENE,60,0.0,0.0,63,0.00,,---,0.00,VWS V14.01,2013-07-30 13:02:00,
2013-07-30 09:03:00,72.7,44.9,30.18,SW,228,0.0,0.0,37,0.00,,---,0.00,VWS V14.01,2013-07-30 13:03:00,
2013-07-30 09:04:00,59.7,45.8,30.18,NE,55,0.0,4.0,60,0.00,,---,0.00,VWS V14.01,2013-07-30 13:04:00,
2013-07-30 09:05:00,60.1,46.2,30.18,NE,54,0.0,0.0,60,0.00,,---,0.00,VWS V14.01,2013-07-30 13:05:00,
2013-07-30 09:06:00,60.4,46.5,30.18,ENE,59,0.0,0.0,60,0.00,,---,0.00,VWS V14.01,2013-07-30 13:06:00,
2013-07-30 09:07:00,60.8,46.8,30.18,NE,53,0.0,0.0,60,0.00,,---,0.00,VWS V14.01,2013-07-30 13:07:00,
2013-07-30 09:08:00,70.5,43.7,30.18,SW,232,0.0,0.0,38,0.00,,---,0.00,VWS V14.01,2013-07-30 13:08:00,
2013-07-30 09:09:00,61.1,46.7,30.18,NE,46,0.0,0.0,59,0.00,,---,0.00,VWS V14.01,2013-07-30 13:09:00,
2013-07-30 09:10:00,61.3,46.4,30.18,NE,52,3.6,4.0,58,0.00,,---,0.00,VWS V14.01,2013-07-30 13:10:00,
2013-07-30 09:11:00,61.9,46.9,30.18,NE,49,0.0,4.0,58,0.00,,---,0.00,VWS V14.01,2013-07-30 13:11:00,
2013-07-30 09:12:00,61.9,45.5,30.18,NE,49,0.0,0.0,55,0.00,,---,0.00,VWS V14.01,2013-07-30 13:12:00,
2013-07-30 09:13:00,72.5,44.0,30.18,WSW,238,0.0,0.0,36,0.00,,---,0.00,VWS V14.01,2013-07-30 13:13:00,
2013-07-30 09:14:00,61.7,45.4,30.18,NE,55,0.0,0.0,55,0.00,,---,0.00,VWS V14.01,2013-07-30 13:14:00,
2013-07-30 09:15:00,62.0,45.2,30.18,NE,41,0.0,0.0,54,0.00,,---,0.00,VWS V14.01,2013-07-30 13:15:00,
2013-07-30 09:16:00,62.0,45.2,30.18,NE,42,0.0,4.5,54,0.00,,---,0.00,VWS V14.01,2013-07-30 13:16:00,
2013-07-30 09:17:00,62.2,44.9,30.18,NE,45,0.0,0.0,53,0.00,,---,0.00,VWS V14.01,2013-07-30 13:17:00,
2013-07-30 09:18:00,72.7,44.2,30.18,West,279,2.7,3.1,36,0.00,,---,0.00,VWS V14.01,2013-07-30 13:18:00,
2013-07-30 09:19:00,62.6,45.7,30.18,ENE,57,0.0,0.0,54,0.00,,---,0.00,VWS V14.01,2013-07-30 13:19:00,
2013-07-30 09:20:00,62.8,45.4,30.15,ENE,61,0.0,0.0,53,0.00,,---,0.00,VWS V14.01,2013-07-30 13:20:00,
2013-07-30 09:21:00,62.9,45.6,30.15,ENE,59,0.0,0.0,53,0.00,,---,0.00,VWS V14.01,2013-07-30 13:21:00,
2013-07-30 09:22:00,62.8,44.9,30.15,East,79,2.7,4.5,52,0.00,,---,0.00,VWS V14.01,2013-07-30 13:22:00,
2013-07-30 09:23:00,73.7,45.2,30.15,NNW,334,0.0,0.0,36,0.00,,---,0.00,VWS V14.01,2013-07-30 13:23:00,
2013-07-30 09:24:00,63.8,45.4,30.15,East,79,0.0,2.7,51,0.00,,---,0.00,VWS V14.01,2013-07-30 13:24:00,
2013-07-30 09:25:00,64.0,45.0,30.15,NE,48,3.6,4.0,50,0.00,,---,0.00,VWS V14.01,2013-07-30 13:25:00,
2013-07-30 09:26:00,64.0,44.5,30.15,NE,55,3.1,3.6,49,0.00,,---,0.00,VWS V14.01,2013-07-30 13:26:00,
2013-07-30 09:27:00,64.0,45.0,30.15,NE,49,0.0,3.1,50,0.00,,---,0.00,VWS V14.01,2013-07-30 13:27:00,
2013-07-30 09:28:00,74.8,45.4,30.15,WNW,299,3.1,4.5,35,0.00,,---,0.00,VWS V14.01,2013-07-30 13:28:00,
2013-07-30 09:29:00,64.6,45.0,30.15,NE,50,0.0,0.0,49,0.00,,---,0.00,VWS V14.01,2013-07-30 13:29:00,
2013-07-30 09:30:00,64.6,45.0,30.15,NE,45,3.6,3.6,49,0.00,,---,0.00,VWS V14.01,2013-07-30 13:30:00,
2013-07-30 09:31:00,64.7,45.2,30.15,ENE,68,0.0,4.0,49,0.00,,---,0.00,VWS V14.01,2013-07-30 13:31:00,
2013-07-30 09:32:00,65.5,45.8,30.15,NE,39,0.0,0.0,49,0.00,,---,0.00,VWS V14.01,2013-07-30 13:32:00,
2013-07-30 09:33:00,72.3,43.9,30.15,West,264,3.1,4.5,36,0.00,,---,0.00,VWS V14.01,2013-07-30 13:33:00,
2013-07-30 09:34:00,66.4,46.1,30.15,NE,44,0.0,0.0,48,0.00,,---,0.00,VWS V14.01,2013-07-30 13:34:00,
2013-07-30 09:35:00,67.1,46.8,30.18,ENE,64,3.1,3.1,48,0.00,,---,0.00,VWS V14.01,2013-07-30 13:35:00,
2013-07-30 09:36:00,67.3,46.4,30.18,East,89,0.0,3.6,47,0.00,,---,0.00,VWS V14.01,2013-07-30 13:36:00,
2013-07-30 09:37:00,68.0,47.0,30.18,East,100,0.0,0.0,47,0.00,,---,0.00,VWS V14.01,2013-07-30 13:37:00,
2013-07-30 09:38:00,72.7,44.2,30.15,SW,227,0.0,0.0,36,0.00,,---,0.00,VWS V14.01,2013-07-30 13:38:00,
2013-07-30 09:39:00,68.7,46.5,30.18,ESE,113,0.0,0.0,45,0.00,,---,0.00,VWS V14.01,2013-07-30 13:39:00,
2013-07-30 09:40:00,69.2,45.8,30.18,SSE,149,0.0,3.6,43,0.00,,---,0.00,VWS V14.01,2013-07-30 13:40:00,
2013-07-30 09:41:00,69.8,45.0,30.18,SSE,149,0.0,0.0,41,0.00,,---,0.00,VWS V14.01,2013-07-30 13:41:00,
2013-07-30 09:42:00,69.6,44.2,30.18,SSE,148,0.0,0.0,40,0.00,,---,0.00,VWS V14.01,2013-07-30 13:42:00,
2013-07-30 09:43:00,75.9,44.0,30.15,ENE,60,0.0,0.0,32,0.00,,---,0.00,VWS V14.01,2013-07-30 13:43:00,
2013-07-30 09:44:00,68.9,43.6,30.18,SSE,148,0.0,0.0,40,0.00,,---,0.00,VWS V14.01,2013-07-30 13:44:00,
2013-07-30 09:45:00,69.1,44.4,30.18,SSE,148,0.0,0.0,41,0.00,,---,0.00,VWS V14.01,2013-07-30 13:45:00,
2013-07-30 09:46:00,69.6,44.9,30.18,SSE,148,0.0,0.0,41,0.00,,---,0.00,VWS V14.01,2013-07-30 13:46:00,
2013-07-30 09:47:00,70.0,43.9,30.18,SE,145,0.0,0.0,39,0.00,,---,0.00,VWS V14.01,2013-07-30 13:47:00,
2013-07-30 09:48:00,74.5,43.5,30.15,ENE,61,0.0,4.5,33,0.00,,---,0.00,VWS V14.01,2013-07-30 13:48:00,
2013-07-30 09:49:00,74.3,43.3,30.15,NNE,21,2.7,4.5,33,0.00,,---,0.00,VWS V14.01,2013-07-30 13:49:00,
2013-07-30 09:50:00,69.6,43.6,30.18,SE,134,0.0,0.0,39,0.00,,---,0.00,VWS V14.01,2013-07-30 13:50:00,
2013-07-30 09:51:00,70.1,44.7,30.18,SE,134,0.0,0.0,40,0.00,,---,0.00,VWS V14.01,2013-07-30 13:51:00,
2013-07-30 09:52:00,70.1,44.1,30.18,SE,134,0.0,0.0,39,0.00,,---,0.00,VWS V14.01,2013-07-30 13:52:00,
2013-07-30 09:53:00,75.0,44.0,30.15,North,10,0.0,0.0,33,0.00,,---,0.00,VWS V14.01,2013-07-30 13:53:00,
2013-07-30 09:54:00,67.8,42.6,30.18,ENE,67,0.0,0.0,40,0.00,,---,0.00,VWS V14.01,2013-07-30 13:54:00,
2013-07-30 09:55:00,68.3,43.8,30.18,ENE,67,0.0,0.0,41,0.00,,---,0.00,VWS V14.01,2013-07-30 13:55:00,
2013-07-30 09:56:00,69.2,43.9,30.18,East,79,0.0,0.0,40,0.00,,---,0.00,VWS V14.01,2013-07-30 13:56:00,
2013-07-30 09:57:00,70.0,44.6,30.18,East,82,0.0,0.0,40,0.00,,---,0.00,VWS V14.01,2013-07-30 13:57:00,
2013-07-30 09:58:00,75.5,44.5,30.15,NE,52,5.4,5.4,33,0.00,,---,0.00,VWS V14.01,2013-07-30 13:58:00,
2013-07-30 09:59:00,71.6,45.3,30.18,East,82,0.0,0.0,39,0.00,,---,0.00,VWS V14.01,2013-07-30 13:59:00,
2013-07-30 10:00:00,71.9,45.7,30.18,East,83,0.0,0.0,39,0.00,,---,0.00,VWS V14.01,2013-07-30 14:00:00,
2013-07-30 10:01:00,72.3,44.6,30.18,East,101,0.0,0.0,37,0.00,,---,0.00,VWS V14.01,2013-07-30 14:01:00,
2013-07-30 10:02:00,71.8,44.1,30.18,East,101,0.0,0.0,37,0.00,,---,0.00,VWS V14.01,2013-07-30 14:02:00,
2013-07-30 10:03:00,76.1,42.4,30.15,ESE,102,3.6,3.6,30,0.00,,---,0.00,VWS V14.01,2013-07-30 14:03:00,
2013-07-30 10:04:00,73.0,45.2,30.18,WSW,248,0.0,0.0,37,0.00,,---,0.00,VWS V14.01,2013-07-30 14:04:00,
2013-07-30 10:05:00,73.4,45.5,30.18,WNW,297,0.0,3.1,37,0.00,,---,0.00,VWS V14.01,2013-07-30 14:05:00,
2013-07-30 10:06:00,73.4,44.8,30.18,WSW,244,0.0,0.0,36,0.00,,---,0.00,VWS V14.01,2013-07-30 14:06:00,
2013-07-30 10:07:00,71.0,42.8,30.18,WSW,253,4.0,5.8,36,0.00,,---,0.00,VWS V14.01,2013-07-30 14:07:00,
2013-07-30 10:08:00,77.5,45.4,30.15,ENE,76,0.0,0.0,32,0.00,,---,0.00,VWS V14.01,2013-07-30 14:08:00,
2013-07-30 10:09:00,70.0,43.2,30.18,WSW,238,0.0,0.0,38,0.00,,---,0.00,VWS V14.01,2013-07-30 14:09:00,
2013-07-30 10:10:00,70.0,43.9,30.18,WSW,238,0.0,0.0,39,0.00,,---,0.00,VWS V14.01,2013-07-30 14:10:00,
2013-07-30 10:11:00,70.7,43.2,30.18,WSW,238,0.0,0.0,37,0.00,,---,0.00,VWS V14.01,2013-07-30 14:11:00,
2013-07-30 10:12:00,71.9,44.3,30.18,WSW,238,0.0,0.0,37,0.00,,---,0.00,VWS V14.01,2013-07-30 14:12:00,
2013-07-30 10:13:00,76.3,44.3,30.15,NW,315,3.6,3.6,32,0.00,,---,0.00,VWS V14.01,2013-07-30 14:13:00,
2013-07-30 10:14:00,73.0,45.2,30.18,WSW,238,0.0,0.0,37,0.00,,---,0.00,VWS V14.01,2013-07-30 14:14:00,
2013-07-30 10:15:00,73.0,45.2,30.18,SE,145,0.0,0.0,37,0.00,,---,0.00,VWS V14.01,2013-07-30 14:15:00,
2013-07-30 10:16:00,72.7,44.9,30.18,SSE,148,0.0,0.0,37,0.00,,---,0.00,VWS V14.01,2013-07-30 14:16:00,
2013-07-30 10:17:00,72.3,44.6,30.18,West,261,3.1,5.4,37,0.00,,---,0.00,VWS V14.01,2013-07-30 14:17:00,
2013-07-30 10:18:00,77.2,43.4,30.15,ENE,59,3.1,3.6,30,0.00,,---,0.00,VWS V14.01,2013-07-30 14:18:00,
2013-07-30 10:19:00,72.3,43.9,30.18,WSW,245,0.0,3.1,36,0.00,,---,0.00,VWS V14.01,2013-07-30 14:19:00,
2013-07-30 10:20:00,72.8,44.4,30.15,WSW,246,0.0,0.0,36,0.00,,---,0.00,VWS V14.01,2013-07-30 14:20:00,
2013-07-30 10:21:00,72.8,44.4,30.15,WSW,246,0.0,0.0,36,0.00,,---,0.00,VWS V14.01,2013-07-30 14:21:00,
2013-07-30 10:22:00,72.7,44.2,30.15,WSW,246,0.0,0.0,36,0.00,,---,0.00,VWS V14.01,2013-07-30 14:22:00,
2013-07-30 10:23:00,76.4,42.7,30.15,WSW,247,4.0,5.8,30,0.00,,---,0.00,VWS V14.01,2013-07-30 14:23:00,
2013-07-30 10:24:00,74.3,45.6,30.15,South,186,0.0,0.0,36,0.00,,---,0.00,VWS V14.01,2013-07-30 14:24:00,
2013-07-30 10:25:00,73.2,43.9,30.15,SE,129,0.0,0.0,35,0.00,,---,0.00,VWS V14.01,2013-07-30 14:25:00,
2013-07-30 10:26:00,72.8,44.4,30.15,SE,129,0.0,0.0,36,0.00,,---,0.00,VWS V14.01,2013-07-30 14:26:00,
2013-07-30 10:27:00,73.0,44.5,30.15,SE,128,0.0,0.0,36,0.00,,---,0.00,VWS V14.01,2013-07-30 14:27:00,
2013-07-30 10:28:00,79.1,44.2,30.15,ENE,73,3.6,5.4,29,0.00,,---,0.00,VWS V14.01,2013-07-30 14:28:00,
2013-07-30 10:29:00,75.4,45.8,30.15,West,264,3.1,4.5,35,0.00,,---,0.00,VWS V14.01,2013-07-30 14:29:00,
2013-07-30 10:30:00,73.7,44.4,30.15,WSW,241,3.6,4.0,35,0.00,,---,0.00,VWS V14.01,2013-07-30 14:30:00,
2013-07-30 10:31:00,73.7,44.4,30.15,SSW,200,0.0,3.6,35,0.00,,---,0.00,VWS V14.01,2013-07-30 14:31:00,
2013-07-30 10:32:00,73.9,44.6,30.15,SW,233,3.6,4.5,35,0.00,,---,0.00,VWS V14.01,2013-07-30 14:32:00,
2013-07-30 10:33:00,81.5,45.3,30.15,ENE,63,0.0,3.1,28,0.00,,---,0.00,VWS V14.01,2013-07-30 14:33:00,
2013-07-30 10:34:00,72.5,44.0,30.15,North,9,3.1,4.5,36,0.00,,---,0.00,VWS V14.01,2013-07-30 14:34:00,
2013-07-30 10:35:00,73.2,43.9,30.15,NNW,327,0.0,4.5,35,0.00,,---,0.00,VWS V14.01,2013-07-30 14:35:00,
2013-07-30 10:36:00,73.4,44.1,30.15,WNW,284,0.0,2.7,35,0.00,,---,0.00,VWS V14.01,2013-07-30 14:36:00,
2013-07-30 10:37:00,73.0,43.8,30.15,SW,227,0.0,4.5,35,0.00,,---,0.00,VWS V14.01,2013-07-30 14:37:00,
2013-07-30 10:38:00,78.4,41.7,30.15,North,356,4.5,5.8,27,0.00,,---,0.00,VWS V14.01,2013-07-30 14:38:00,
2013-07-30 10:39:00,72.3,43.9,30.15,SW,227,0.0,0.0,36,0.00,,---,0.00,VWS V14.01,2013-07-30 14:39:00,
2013-07-30 10:40:00,73.7,45.2,30.15,SW,227,0.0,0.0,36,0.00,,---,0.00,VWS V14.01,2013-07-30 14:40:00,
2013-07-30 10:41:00,74.5,43.5,30.15,NE,50,0.0,0.0,33,0.00,,---,0.00,VWS V14.01,2013-07-30 14:41:00,
2013-07-30 10:42:00,75.2,45.7,30.15,NE,50,0.0,0.0,35,0.00,,---,0.00,VWS V14.01,2013-07-30 14:42:00,
2013-07-30 10:43:00,81.5,45.3,30.15,NNW,333,4.5,5.8,28,0.00,,---,0.00,VWS V14.01,2013-07-30 14:43:00,
2013-07-30 10:44:00,76.6,44.6,30.15,ENE,60,0.0,0.0,32,0.00,,---,0.00,VWS V14.01,2013-07-30 14:44:00,
2013-07-30 10:45:00,77.5,47.7,30.15,NE,53,3.1,3.6,35,0.00,,---,0.00,VWS V14.01,2013-07-30 14:45:00,
2013-07-30 10:46:00,77.0,44.9,30.15,ENE,64,4.5,4.9,32,0.00,,---,0.00,VWS V14.01,2013-07-30 14:46:00,
2013-07-30 10:47:00,74.6,43.7,30.15,ENE,60,4.0,4.9,33,0.00,,---,0.00,VWS V14.01,2013-07-30 14:47:00,
2013-07-30 10:48:00,80.8,45.6,30.15,SE,128,0.0,2.7,29,0.00,,---,0.00,VWS V14.01,2013-07-30 14:48:00,
2013-07-30 10:49:00,74.3,43.3,30.15,NNE,21,2.7,4.5,33,0.00,,---,0.00,VWS V14.01,2013-07-30 14:49:00,
2013-07-30 10:50:00,74.5,43.5,30.15,NE,44,0.0,2.7,33,0.00,,---,0.00,VWS V14.01,2013-07-30 14:50:00,
2013-07-30 10:51:00,74.6,43.7,30.15,NE,35,2.7,3.6,33,0.00,,---,0.00,VWS V14.01,2013-07-30 14:51:00,
2013-07-30 10:52:00,81.8,43.6,30.15,North,351,4.9,4.9,26,0.00,,---,0.00,VWS V14.01,2013-07-30 14:52:00,
2013-07-30 10:53:00,81.8,43.6,30.15,ENE,67,0.0,4.5,26,0.00,,---,0.00,VWS V14.01,2013-07-30 14:53:00,
2013-07-30 10:54:00,74.6,43.7,30.15,NNW,342,0.0,0.0,33,0.00,,---,0.00,VWS V14.01,2013-07-30 14:54:00,
2013-07-30 10:55:00,75.4,44.3,30.15,NNW,342,0.0,0.0,33,0.00,,---,0.00,VWS V14.01,2013-07-30 14:55:00,
2013-07-30 10:56:00,75.7,44.6,30.15,East,86,0.0,0.0,33,0.00,,---,0.00,VWS V14.01,2013-07-30 14:56:00,
2013-07-30 10:57:00,76.8,44.7,30.15,ENE,71,0.0,0.0,32,0.00,,---,0.00,VWS V14.01,2013-07-30 14:57:00,
2013-07-30 10:58:00,81.5,43.3,30.15,North,351,6.9,8.3,26,0.00,,---,0.00,VWS V14.01,2013-07-30 14:58:00,
2013-07-30 10:59:00,74.8,43.8,30.15,NE,47,5.8,5.8,33,0.00,,---,0.00,VWS V14.01,2013-07-30 14:59:00,
2013-07-30 11:00:00,74.1,43.2,30.15,NE,44,0.0,5.8,33,0.00,,---,0.00,VWS V14.01,2013-07-30 15:00:00,
2013-07-30 11:01:00,75.4,44.3,30.15,NE,52,3.1,4.0,33,0.00,,---,0.00,VWS V14.01,2013-07-30 15:01:00,
2013-07-30 11:02:00,74.8,43.8,30.15,NE,52,3.6,4.5,33,0.00,,---,0.00,VWS V14.01,2013-07-30 15:02:00,
2013-07-30 11:03:00,82.6,44.2,30.15,North,6,7.4,7.4,26,0.00,,---,0.00,VWS V14.01,2013-07-30 15:03:00,
2013-07-30 11:04:00,76.3,42.6,30.15,ESE,102,3.1,3.6,30,0.00,,---,0.00,VWS V14.01,2013-07-30 15:04:00,
2013-07-30 11:05:00,76.4,44.4,30.15,NE,41,4.5,6.7,32,0.00,,---,0.00,VWS V14.01,2013-07-30 15:05:00,
2013-07-30 11:06:00,75.2,44.1,30.15,NNE,24,4.0,5.4,33,0.00,,---,0.00,VWS V14.01,2013-07-30 15:06:00,
2013-07-30 11:07:00,75.7,44.6,30.15,NE,46,2.7,4.0,33,0.00,,---,0.00,VWS V14.01,2013-07-30 15:07:00,
2013-07-30 11:08:00,78.8,42.0,30.15,NW,316,4.0,4.0,27,0.00,,---,0.00,VWS V14.01,2013-07-30 15:08:00,
2013-07-30 11:09:00,77.9,45.7,30.15,ENE,76,0.0,0.0,32,0.00,,---,0.00,VWS V14.01,2013-07-30 15:09:00,
2013-07-30 11:10:00,78.1,45.8,30.15,ENE,62,0.0,0.0,32,0.00,,---,0.00,VWS V14.01,2013-07-30 15:10:00,
2013-07-30 11:11:00,77.9,43.1,30.15,NE,51,4.0,4.5,29,0.00,,---,0.00,VWS V14.01,2013-07-30 15:11:00,
2013-07-30 11:12:00,75.9,42.3,30.15,NE,40,0.0,5.4,30,0.00,,---,0.00,VWS V14.01,2013-07-30 15:12:00,
2013-07-30 11:13:00,81.3,43.2,30.15,NNE,22,4.5,6.3,26,0.00,,---,0.00,VWS V14.01,2013-07-30 15:13:00,
2013-07-30 11:14:00,76.8,44.7,30.15,NNE,19,3.6,3.6,32,0.00,,---,0.00,VWS V14.01,2013-07-30 15:14:00,
2013-07-30 11:15:00,77.3,45.2,30.15,North,10,4.0,5.4,32,0.00,,---,0.00,VWS V14.01,2013-07-30 15:15:00,
2013-07-30 11:16:00,78.2,46.0,30.15,East,83,0.0,4.0,32,0.00,,---,0.00,VWS V14.01,2013-07-30 15:16:00,
2013-07-30 11:17:00,77.9,43.1,30.15,NE,54,0.0,0.0,29,0.00,,---,0.00,VWS V14.01,2013-07-30 15:17:00,
2013-07-30 11:18:00,79.9,42.0,30.15,North,0,6.3,6.7,26,0.00,,---,0.00,VWS V14.01,2013-07-30 15:18:00,
2013-07-30 11:19:00,76.8,43.0,30.15,NW,323,3.6,4.0,30,0.00,,---,0.00,VWS V14.01,2013-07-30 15:19:00,
2013-07-30 11:20:00,77.7,43.8,30.15,ENE,66,3.6,6.3,30,0.00,,---,0.00,VWS V14.01,2013-07-30 15:20:00,
2013-07-30 11:21:00,76.3,42.6,30.15,NE,38,2.7,6.7,30,0.00,,---,0.00,VWS V14.01,2013-07-30 15:21:00,
2013-07-30 11:22:00,77.3,43.5,30.15,WNW,289,4.0,5.4,30,0.00,,---,0.00,VWS V14.01,2013-07-30 15:22:00,
2013-07-30 11:23:00,77.9,41.2,30.15,North,356,6.3,8.3,27,0.00,,---,0.00,VWS V14.01,2013-07-30 15:23:00,
2013-07-30 11:24:00,75.7,42.1,30.15,SW,227,0.0,5.8,30,0.00,,---,0.00,VWS V14.01,2013-07-30 15:24:00,
2013-07-30 11:25:00,75.4,41.8,30.15,East,99,0.0,4.0,30,0.00,,---,0.00,VWS V14.01,2013-07-30 15:25:00,
2013-07-30 11:26:00,77.0,43.2,30.15,East,88,0.0,0.0,30,0.00,,---,0.00,VWS V14.01,2013-07-30 15:26:00,
2013-07-30 11:27:00,78.2,43.4,30.15,West,276,5.4,6.7,29,0.00,,---,0.00,VWS V14.01,2013-07-30 15:27:00,
2013-07-30 11:28:00,82.4,44.1,30.15,NNE,18,6.3,6.3,26,0.00,,---,0.00,VWS V14.01,2013-07-30 15:28:00,
2013-07-30 11:29:00,79.0,44.0,30.15,North,356,6.7,6.7,29,0.00,,---,0.00,VWS V14.01,2013-07-30 15:29:00,
2013-07-30 11:30:00,79.7,44.7,30.15,NNW,346,3.1,6.7,29,0.00,,---,0.00,VWS V14.01,2013-07-30 15:30:00,
2013-07-30 11:31:00,79.9,44.8,30.15,NE,35,2.7,5.4,29,0.00,,---,0.00,VWS V14.01,2013-07-30 15:31:00,
2013-07-30 11:32:00,80.4,45.3,30.15,ENE,69,3.1,4.5,29,0.00,,---,0.00,VWS V14.01,2013-07-30 15:32:00,
2013-07-30 11:33:00,82.7,44.4,30.15,NNE,16,4.9,7.4,26,0.00,,---,0.00,VWS V14.01,2013-07-30 15:33:00,
2013-07-30 11:34:00,80.8,42.7,30.15,SSW,202,0.0,3.1,26,0.00,,---,0.00,VWS V14.01,2013-07-30 15:34:00,
2013-07-30 11:35:00,80.9,45.7,30.15,NNE,27,3.6,5.4,29,0.00,,---,0.00,VWS V14.01,2013-07-30 15:35:00,
2013-07-30 11:36:00,78.8,42.0,30.15,ENE,58,4.5,5.4,27,0.00,,---,0.00,VWS V14.01,2013-07-30 15:36:00,
2013-07-30 11:37:00,78.8,42.0,30.15,NE,38,5.4,5.4,27,0.00,,---,0.00,VWS V14.01,2013-07-30 15:37:00,
2013-07-30 11:38:00,79.3,42.5,30.15,NNE,15,4.9,4.9,27,0.00,,---,0.00,VWS V14.01,2013-07-30 15:38:00,
2013-07-30 11:39:00,79.3,42.5,30.15,NNW,341,7.8,7.8,27,0.00,,---,0.00,VWS V14.01,2013-07-30 15:39:00,
2013-07-30 11:40:00,80.2,42.3,30.15,NNW,334,5.8,7.8,26,0.00,,---,0.00,VWS V14.01,2013-07-30 15:40:00,
2013-07-30 11:41:00,80.2,42.3,30.15,NNW,329,0.0,5.8,26,0.00,,---,0.00,VWS V14.01,2013-07-30 15:41:00,
2013-07-30 11:42:00,80.9,42.9,30.15,North,4,4.9,4.9,26,0.00,,---,0.00,VWS V14.01,2013-07-30 15:42:00,
2013-07-30 11:43:00,77.2,40.6,30.15,North,356,3.6,4.5,27,0.00,,---,0.00,VWS V14.01,2013-07-30 15:43:00,
2013-07-30 11:44:00,81.3,43.2,30.15,East,90,3.1,5.8,26,0.00,,---,0.00,VWS V14.01,2013-07-30 15:44:00,
2013-07-30 11:45:00,81.5,43.3,30.15,NE,39,4.9,5.8,26,0.00,,---,0.00,VWS V14.01,2013-07-30 15:45:00,
2013-07-30 11:46:00,80.2,42.3,30.15,North,356,4.9,4.9,26,0.00,,---,0.00,VWS V14.01,2013-07-30 15:46:00,
2013-07-30 11:47:00,80.4,42.4,30.15,ENE,75,3.6,5.4,26,0.00,,---,0.00,VWS V14.01,2013-07-30 15:47:00,
2013-07-30 11:48:00,83.5,47.0,30.15,ENE,69,4.0,4.0,28,0.00,,---,0.00,VWS V14.01,2013-07-30 15:48:00,
2013-07-30 11:49:00,81.1,43.0,30.15,NE,56,3.1,5.4,26,0.00,,---,0.00,VWS V14.01,2013-07-30 15:49:00,
2013-07-30 11:50:00,81.5,43.3,30.15,NNE,33,0.0,7.8,26,0.00,,---,0.00,VWS V14.01,2013-07-30 15:50:00,
2013-07-30 11:51:00,81.8,43.6,30.15,ENE,77,3.6,5.4,26,0.00,,---,0.00,VWS V14.01,2013-07-30 15:51:00,
2013-07-30 11:52:00,81.8,43.6,30.15,North,351,4.9,4.9,26,0.00,,---,0.00,VWS V14.01,2013-07-30 15:52:00,
2013-07-30 11:53:00,83.3,46.8,30.15,NNW,334,5.4,5.4,28,0.00,,---,0.00,VWS V14.01,2013-07-30 15:53:00,
2013-07-30 11:54:00,81.1,43.0,30.15,NNW,332,4.0,4.5,26,0.00,,---,0.00,VWS V14.01,2013-07-30 15:54:00,
2013-07-30 11:55:00,81.5,43.3,30.15,NNE,22,2.7,4.5,26,0.00,,---,0.00,VWS V14.01,2013-07-30 15:55:00,
2013-07-30 11:56:00,81.7,43.5,30.15,North,4,4.5,6.7,26,0.00,,---,0.00,VWS V14.01,2013-07-30 15:56:00,
2013-07-30 11:57:00,80.9,42.9,30.15,NW,326,0.0,6.9,26,0.00,,---,0.00,VWS V14.01,2013-07-30 15:57:00,
2013-07-30 11:58:00,82.7,44.4,30.15,ENE,70,0.0,2.7,26,0.00,,---,0.00,VWS V14.01,2013-07-30 15:58:00,
2013-07-30 11:59:00,81.5,43.3,30.15,NE,38,3.1,8.7,26,0.00,,---,0.00,VWS V14.01,2013-07-30 15:59:00,
2013-07-30 12:00:00,82.4,44.1,30.15,NNE,21,4.9,5.4,26,0.00,,---,0.00,VWS V14.01,2013-07-30 16:00:00,
2013-07-30 12:01:00,82.7,44.4,30.15,NE,56,3.6,8.3,26,0.00,,---,0.00,VWS V14.01,2013-07-30 16:01:00,
2013-07-30 12:02:00,82.6,46.2,30.15,NNE,28,4.5,6.3,28,0.00,,---,0.00,VWS V14.01,2013-07-30 16:02:00,
2013-07-30 12:03:00,83.5,45.0,30.15,East,91,0.0,4.5,26,0.00,,---,0.00,VWS V14.01,2013-07-30 16:03:00,
2013-07-30 12:04:00,82.2,43.9,30.15,NNW,338,7.8,9.2,26,0.00,,---,0.00,VWS V14.01,2013-07-30 16:04:00,
2013-07-30 12:05:00,82.2,43.9,30.15,NW,307,2.7,7.8,26,0.00,,---,0.00,VWS V14.01,2013-07-30 16:05:00,
2013-07-30 12:06:00,82.6,46.2,30.15,NNW,345,5.4,6.7,28,0.00,,---,0.00,VWS V14.01,2013-07-30 16:06:00,
2013-07-30 12:07:00,79.5,42.6,30.15,NE,55,6.3,6.3,27,0.00,,---,0.00,VWS V14.01,2013-07-30 16:07:00,
2013-07-30 12:08:00,81.7,43.5,30.15,South,179,3.1,3.1,26,0.00,,---,0.00,VWS V14.01,2013-07-30 16:08:00,
2013-07-30 12:09:00,79.7,41.8,30.15,West,262,0.0,4.0,26,0.00,,---,0.00,VWS V14.01,2013-07-30 16:09:00,
2013-07-30 12:10:00,80.9,42.9,30.15,NW,326,0.0,4.5,26,0.00,,---,0.00,VWS V14.01,2013-07-30 16:10:00,
2013-07-30 12:11:00,82.0,43.8,30.15,ESE,103,0.0,3.6,26,0.00,,---,0.00,VWS V14.01,2013-07-30 16:11:00,
2013-07-30 12:12:00,80.4,42.4,30.15,North,8,3.1,5.8,26,0.00,,---,0.00,VWS V14.01,2013-07-30 16:12:00,
2013-07-30 12:13:00,78.4,41.7,30.15,North,356,0.0,0.0,27,0.00,,---,0.00,VWS V14.01,2013-07-30 16:13:00,
2013-07-30 12:14:00,80.8,42.7,30.15,NE,35,6.3,7.8,26,0.00,,---,0.00,VWS V14.01,2013-07-30 16:14:00,
2013-07-30 12:15:00,80.2,42.3,30.15,NNE,29,2.7,6.3,26,0.00,,---,0.00,VWS V14.01,2013-07-30 16:15:00,
2013-07-30 12:16:00,80.2,42.3,30.15,NE,42,4.9,4.9,26,0.00,,---,0.00,VWS V14.01,2013-07-30 16:16:00,
2013-07-30 12:17:00,79.5,41.7,30.15,North,356,3.6,6.9,26,0.00,,---,0.00,VWS V14.01,2013-07-30 16:17:00,
2013-07-30 12:18:00,77.5,40.9,30.15,SSE,152,0.0,0.0,27,0.00,,---,0.00,VWS V14.01,2013-07-30 16:18:00,
2013-07-30 12:19:00,79.0,42.2,30.15,NNW,344,3.1,6.7,27,0.00,,---,0.00,VWS V14.01,2013-07-30 16:19:00,
2013-07-30 12:20:00,78.1,41.4,30.15,NE,46,3.6,5.4,27,0.00,,---,0.00,VWS V14.01,2013-07-30 16:20:00,
2013-07-30 12:21:00,76.8,40.3,30.15,North,10,4.0,6.3,27,0.00,,---,0.00,VWS V14.01,2013-07-30 16:21:00,
2013-07-30 12:22:00,76.6,40.2,30.15,ENE,69,5.8,5.8,27,0.00,,---,0.00,VWS V14.01,2013-07-30 16:22:00,
2013-07-30 12:23:00,77.7,41.1,30.15,North,356,3.6,3.6,27,0.00,,---,0.00,VWS V14.01,2013-07-30 16:23:00,
2013-07-30 12:24:00,78.8,43.9,30.15,North,10,3.1,8.3,29,0.00,,---,0.00,VWS V14.01,2013-07-30 16:24:00,
2013-07-30 12:25:00,79.9,42.0,30.15,NW,318,7.4,9.6,26,0.00,,---,0.00,VWS V14.01,2013-07-30 16:25:00,
2013-07-30 12:26:00,80.9,45.7,30.15,NW,306,0.0,7.4,29,0.00,,---,0.00,VWS V14.01,2013-07-30 16:26:00,
2013-07-30 12:27:00,80.9,42.9,30.15,NNE,28,3.1,8.7,26,0.00,,---,0.00,VWS V14.01,2013-07-30 16:27:00,
2013-07-30 12:28:00,77.3,40.8,30.15,WNW,294,5.4,5.4,27,0.00,,---,0.00,VWS V14.01,2013-07-30 16:28:00,
2013-07-30 12:29:00,82.7,46.3,30.15,North,351,6.9,8.3,28,0.00,,---,0.00,VWS V14.01,2013-07-30 16:29:00,
2013-07-30 12:30:00,83.3,46.8,30.15,North,351,8.3,8.3,28,0.00,,---,0.00,VWS V14.01,2013-07-30 16:30:00,
2013-07-30 12:31:00,83.1,46.7,30.15,North,356,5.8,8.7,28,0.00,,---,0.00,VWS V14.01,2013-07-30 16:31:00,
2013-07-30 12:32:00,82.6,44.2,30.15,NW,325,3.1,6.9,26,0.00,,---,0.00,VWS V14.01,2013-07-30 16:32:00,
2013-07-30 12:33:00,82.2,43.9,30.15,WSW,246,0.0,0.0,26,0.00,,---,0.00,VWS V14.01,2013-07-30 16:33:00,
2013-07-30 12:34:00,83.5,47.0,30.15,NNW,340,4.5,7.4,28,0.00,,---,0.00,VWS V14.01,2013-07-30 16:34:00,
2013-07-30 12:35:00,83.3,44.8,30.15,NNE,26,3.1,4.9,26,0.00,,---,0.00,VWS V14.01,2013-07-30 16:35:00,
2013-07-30 12:36:00,80.6,42.6,30.15,NE,39,4.0,6.3,26,0.00,,---,0.00,VWS V14.01,2013-07-30 16:36:00,
2013-07-30 12:37:00,80.4,42.4,30.15,ENE,73,4.0,6.3,26,0.00,,---,0.00,VWS V14.01,2013-07-30 16:37:00,
2013-07-30 12:38:00,82.6,44.2,30.15,West,264,4.5,4.5,26,0.00,,---,0.00,VWS V14.01,2013-07-30 16:38:00,
2013-07-30 12:39:00,79.7,41.8,30.15,NNW,330,4.9,4.9,26,0.00,,---,0.00,VWS V14.01,2013-07-30 16:39:00,
2013-07-30 12:40:00,80.8,42.7,30.15,East,99,4.0,4.9,26,0.00,,---,0.00,VWS V14.01,2013-07-30 16:40:00,
2013-07-30 12:41:00,80.6,42.6,30.15,ENE,62,5.8,5.8,26,0.00,,---,0.00,VWS V14.01,2013-07-30 16:41:00,
2013-07-30 12:42:00,78.1,41.4,30.15,NE,53,4.9,6.9,27,0.00,,---,0.00,VWS V14.01,2013-07-30 16:42:00,
2013-07-30 12:43:00,81.7,43.5,30.15,NE,43,4.0,4.0,26,0.00,,---,0.00,VWS V14.01,2013-07-30 16:43:00,
2013-07-30 12:44:00,78.2,41.5,30.15,NW,311,4.0,5.4,27,0.00,,---,0.00,VWS V14.01,2013-07-30 16:44:00,
2013-07-30 12:45:00,79.7,41.8,30.15,NNE,27,3.1,4.5,26,0.00,,---,0.00,VWS V14.01,2013-07-30 16:45:00,
2013-07-30 12:46:00,81.1,43.0,30.15,NNW,342,0.0,3.1,26,0.00,,---,0.00,VWS V14.01,2013-07-30 16:46:00,
2013-07-30 12:47:00,82.4,44.1,30.15,SSW,212,0.0,0.0,26,0.00,,---,0.00,VWS V14.01,2013-07-30 16:47:00,
2013-07-30 12:48:00,80.8,42.7,30.15,WSW,254,4.0,4.0,26,0.00,,---,0.00,VWS V14.01,2013-07-30 16:48:00,
2013-07-30 12:49:00,83.6,45.2,30.15,NNE,27,3.6,5.4,26,0.00,,---,0.00,VWS V14.01,2013-07-30 16:49:00,
2013-07-30 12:50:00,83.6,47.1,30.15,NE,36,8.3,8.7,28,0.00,,---,0.00,VWS V14.01,2013-07-30 16:50:00,
2013-07-30 12:51:00,82.6,44.2,30.15,ENE,66,3.1,8.3,26,0.00,,---,0.00,VWS V14.01,2013-07-30 16:51:00,
2013-07-30 12:52:00,82.4,46.0,30.15,North,351,5.4,10.1,28,0.00,,---,0.00,VWS V14.01,2013-07-30 16:52:00,
2013-07-30 12:53:00,79.5,41.7,30.15,ENE,61,3.6,3.6,26,0.00,,---,0.00,VWS V14.01,2013-07-30 16:53:00,
2013-07-30 12:54:00,83.6,45.2,30.15,NNW,339,2.7,9.2,26,0.00,,---,0.00,VWS V14.01,2013-07-30 16:54:00,
2013-07-30 12:55:00,83.5,45.0,30.15,NNE,33,4.0,6.3,26,0.00,,---,0.00,VWS V14.01,2013-07-30 16:55:00,
2013-07-30 12:56:00,83.1,44.7,30.15,NW,324,2.7,4.0,26,0.00,,---,0.00,VWS V14.01,2013-07-30 16:56:00,
2013-07-30 12:57:00,82.6,44.2,30.15,NW,312,5.8,6.7,26,0.00,,---,0.00,VWS V14.01,2013-07-30 16:57:00,
2013-07-30 12:58:00,77.2,40.6,30.15,WNW,295,0.0,0.0,27,0.00,,---,0.00,VWS V14.01,2013-07-30 16:58:00,
2013-07-30 12:59:00,82.7,44.4,30.15,NE,48,4.5,4.9,26,0.00,,---,0.00,VWS V14.01,2013-07-30 16:59:00,
2013-07-30 13:00:00,82.4,44.1,30.15,ENE,64,0.0,5.4,26,0.00,,---,0.00,VWS V14.01,2013-07-30 17:00:00,
2013-07-30 13:01:00,82.7,44.4,30.15,ENE,65,3.1,3.6,26,0.00,,---,0.00,VWS V14.01,2013-07-30 17:01:00,
2013-07-30 13:02:00,83.1,44.7,30.15,ENE,69,0.0,3.1,26,0.00,,---,0.00,VWS V14.01,2013-07-30 17:02:00,
2013-07-30 13:03:00,77.2,40.6,30.15,East,90,0.0,0.0,27,0.00,,---,0.00,VWS V14.01,2013-07-30 17:03:00,
2013-07-30 13:04:00,83.6,45.2,30.15,West,261,2.7,5.8,26,0.00,,---,0.00,VWS V14.01,2013-07-30 17:04:00,
2013-07-30 13:05:00,84.5,45.9,30.15,NE,34,4.5,6.7,26,0.00,,---,0.00,VWS V14.01,2013-07-30 17:05:00,
2013-07-30 13:06:00,84.9,45.2,30.15,NNE,12,3.1,4.5,25,0.00,,---,0.00,VWS V14.01,2013-07-30 17:06:00,
2013-07-30 13:07:00,84.5,45.9,30.15,SW,219,0.0,4.5,26,0.00,,---,0.00,VWS V14.01,2013-07-30 17:07:00,
2013-07-30 13:08:00,77.7,41.1,30.15,SW,231,4.9,4.9,27,0.00,,---,0.00,VWS V14.01,2013-07-30 17:08:00,
2013-07-30 13:09:00,79.5,42.6,30.15,SSW,213,0.0,3.1,27,0.00,,---,0.00,VWS V14.01,2013-07-30 17:09:00,
2013-07-30 13:10:00,78.1,41.4,30.15,South,189,0.0,3.6,27,0.00,,---,0.00,VWS V14.01,2013-07-30 17:10:00,
2013-07-30 13:11:00,79.0,42.2,30.15,NE,36,0.0,0.0,27,0.00,,---,0.00,VWS V14.01,2013-07-30 17:11:00,
2013-07-30 13:12:00,78.8,42.0,30.15,ENE,74,0.0,0.0,27,0.00,,---,0.00,VWS V14.01,2013-07-30 17:12:00,
2013-07-30 13:13:00,77.5,40.9,30.15,NW,322,3.1,4.5,27,0.00,,---,0.00,VWS V14.01,2013-07-30 17:13:00,
2013-07-30 13:14:00,78.6,41.9,30.15,North,351,3.6,4.5,27,0.00,,---,0.00,VWS V14.01,2013-07-30 17:14:00,
2013-07-30 13:15:00,78.1,41.4,30.15,SSW,201,0.0,3.6,27,0.00,,---,0.00,VWS V14.01,2013-07-30 17:15:00,
2013-07-30 13:16:00,78.4,41.7,30.15,SSE,152,0.0,0.0,27,0.00,,---,0.00,VWS V14.01,2013-07-30 17:16:00,
2013-07-30 13:17:00,78.2,41.5,30.15,South,180,0.0,0.0,27,0.00,,---,0.00,VWS V14.01,2013-07-30 17:17:00,
2013-07-30 13:18:00,79.1,42.3,30.15,North,351,4.9,5.8,27,0.00,,---,0.00,VWS V14.01,2013-07-30 17:18:00,
2013-07-30 13:19:00,78.6,41.9,30.15,East,89,0.0,0.0,27,0.00,,---,0.00,VWS V14.01,2013-07-30 17:19:00,
2013-07-30 13:20:00,78.8,42.0,30.15,ENE,66,2.7,4.0,27,0.00,,---,0.00,VWS V14.01,2013-07-30 17:20:00,
2013-07-30 13:21:00,79.1,42.3,30.15,NNW,327,0.0,3.6,27,0.00,,---,0.00,VWS V14.01,2013-07-30 17:21:00,
2013-07-30 13:22:00,78.6,41.9,30.15,ENE,57,3.6,4.0,27,0.00,,---,0.00,VWS V14.01,2013-07-30 17:22:00,
2013-07-30 13:23:00,77.0,40.5,30.15,NE,39,2.7,2.7,27,0.00,,---,0.00,VWS V14.01,2013-07-30 17:23:00,
2013-07-30 13:24:00,77.0,40.5,30.15,WNW,303,2.7,6.3,27,0.00,,---,0.00,VWS V14.01,2013-07-30 17:24:00,
2013-07-30 13:25:00,77.2,40.6,30.15,WNW,283,6.7,6.7,27,0.00,,---,0.00,VWS V14.01,2013-07-30 17:25:00,
2013-07-30 13:26:00,77.2,40.6,30.15,ENE,70,0.0,8.3,27,0.00,,---,0.00,VWS V14.01,2013-07-30 17:26:00,
2013-07-30 13:27:00,77.3,40.8,30.15,WNW,297,2.7,6.9,27,0.00,,---,0.00,VWS V14.01,2013-07-30 17:27:00,
2013-07-30 13:28:00,78.2,41.5,30.15,South,184,0.0,2.7,27,0.00,,---,0.00,VWS V14.01,2013-07-30 17:28:00,
2013-07-30 13:29:00,77.2,43.4,30.15,West,278,5.4,6.7,30,0.00,,---,0.00,VWS V14.01,2013-07-30 17:29:00,
2013-07-30 13:30:00,78.1,41.4,30.15,WNW,298,0.0,6.7,27,0.00,,---,0.00,VWS V14.01,2013-07-30 17:30:00,
2013-07-30 13:31:00,79.7,41.8,30.15,NW,323,4.9,6.3,26,0.00,,---,0.00,VWS V14.01,2013-07-30 17:31:00,
2013-07-30 13:32:00,81.5,45.3,30.15,WNW,293,2.7,4.9,28,0.00,,---,0.00,VWS V14.01,2013-07-30 17:32:00,
2013-07-30 13:33:00,75.7,40.3,30.15,North,7,0.0,2.7,28,0.00,,---,0.00,VWS V14.01,2013-07-30 17:33:00,
2013-07-30 13:34:00,82.6,44.2,30.15,WSW,242,0.0,0.0,26,0.00,,---,0.00,VWS V14.01,2013-07-30 17:34:00,
2013-07-30 13:35:00,81.8,43.6,30.15,SSW,213,0.0,0.0,26,0.00,,---,0.00,VWS V14.01,2013-07-30 17:35:00,
2013-07-30 13:36:00,81.5,43.3,30.15,WSW,248,0.0,0.0,26,0.00,,---,0.00,VWS V14.01,2013-07-30 17:36:00,
2013-07-30 13:37:00,81.8,45.6,30.15,West,269,4.5,4.9,28,0.00,,---,0.00,VWS V14.01,2013-07-30 17:37:00,
2013-07-30 13:38:00,74.6,39.4,30.12,NE,40,3.1,3.6,28,0.00,,---,0.00,VWS V14.01,2013-07-30 17:38:00,
2013-07-30 13:39:00,82.7,44.4,30.15,NNW,330,3.6,4.5,26,0.00,,---,0.00,VWS V14.01,2013-07-30 17:39:00,
2013-07-30 13:40:00,82.7,44.4,30.15,NW,313,2.7,6.3,26,0.00,,---,0.00,VWS V14.01,2013-07-30 17:40:00,
2013-07-30 13:41:00,83.1,44.7,30.15,WNW,299,2.7,4.0,26,0.00,,---,0.00,VWS V14.01,2013-07-30 17:41:00,
2013-07-30 13:42:00,82.7,44.4,30.15,North,351,3.6,4.0,26,0.00,,---,0.00,VWS V14.01,2013-07-30 17:42:00,
2013-07-30 13:43:00,78.2,43.4,30.12,WNW,298,4.0,4.0,29,0.00,,---,0.00,VWS V14.01,2013-07-30 17:43:00,
2013-07-30 13:44:00,81.3,43.2,30.15,NE,52,2.7,4.0,26,0.00,,---,0.00,VWS V14.01,2013-07-30 17:44:00,
2013-07-30 13:45:00,81.5,43.3,30.15,NE,52,0.0,4.0,26,0.00,,---,0.00,VWS V14.01,2013-07-30 17:45:00,
2013-07-30 13:46:00,82.2,43.9,30.15,ENE,76,0.0,0.0,26,0.00,,---,0.00,VWS V14.01,2013-07-30 17:46:00,
2013-07-30 13:47:00,83.5,45.0,30.15,ENE,61,0.0,0.0,26,0.00,,---,0.00,VWS V14.01,2013-07-30 17:47:00,
2013-07-30 13:48:00,82.4,46.0,30.12,NNW,331,0.0,2.7,28,0.00,,---,0.00,VWS V14.01,2013-07-30 17:48:00,
2013-07-30 13:49:00,80.0,42.1,30.15,SSE,166,2.7,6.3,26,0.00,,---,0.00,VWS V14.01,2013-07-30 17:49:00,
2013-07-30 13:50:00,78.6,41.9,30.15,NW,309,6.7,9.2,27,0.00,,---,0.00,VWS V14.01,2013-07-30 17:50:00,
2013-07-30 13:51:00,79.0,42.2,30.15,North,8,3.1,6.7,27,0.00,,---,0.00,VWS V14.01,2013-07-30 17:51:00,
2013-07-30 13:52:00,79.1,42.3,30.15,NE,34,0.0,3.1,27,0.00,,---,0.00,VWS V14.01,2013-07-30 17:52:00,
2013-07-30 13:53:00,81.1,43.0,30.12,North,9,0.0,0.0,26,0.00,,---,0.00,VWS V14.01,2013-07-30 17:53:00,
2013-07-30 13:54:00,78.4,41.7,30.15,North,11,2.7,3.6,27,0.00,,---,0.00,VWS V14.01,2013-07-30 17:54:00,
2013-07-30 13:55:00,78.2,41.5,30.15,ENE,67,3.1,5.4,27,0.00,,---,0.00,VWS V14.01,2013-07-30 17:55:00,
2013-07-30 13:56:00,77.0,40.5,30.15,NNW,337,4.9,5.8,27,0.00,,---,0.00,VWS V14.01,2013-07-30 17:56:00,
2013-07-30 13:57:00,76.8,40.3,30.15,WNW,292,3.1,5.8,27,0.00,,---,0.00,VWS V14.01,2013-07-30 17:57:00,
2013-07-30 13:58:00,81.7,43.5,30.12,East,90,0.0,0.0,26,0.00,,---,0.00,VWS V14.01,2013-07-30 17:58:00,
2013-07-30 13:59:00,76.8,40.3,30.15,NNW,339,4.5,4.5,27,0.00,,---,0.00,VWS V14.01,2013-07-30 17:59:00,
2013-07-30 14:00:00,76.8,40.3,30.15,NW,311,0.0,4.5,27,0.00,,---,0.00,VWS V14.01,2013-07-30 18:00:00,
2013-07-30 14:01:00,77.5,40.9,30.15,East,90,0.0,2.7,27,0.00,,---,0.00,VWS V14.01,2013-07-30 18:01:00,
2013-07-30 14:02:00,77.2,40.6,30.15,East,90,0.0,0.0,27,0.00,,---,0.00,VWS V14.01,2013-07-30 18:02:00,
2013-07-30 14:03:00,79.0,42.2,30.12,NE,37,2.7,3.1,27,0.00,,---,0.00,VWS V14.01,2013-07-30 18:03:00,
2013-07-30 14:04:00,77.3,40.8,30.15,East,90,0.0,0.0,27,0.00,,---,0.00,VWS V14.01,2013-07-30 18:04:00,
2013-07-30 14:05:00,77.3,40.8,30.15,WSW,254,0.0,4.9,27,0.00,,---,0.00,VWS V14.01,2013-07-30 18:05:00,
2013-07-30 14:06:00,77.2,40.6,30.15,West,278,5.8,6.3,27,0.00,,---,0.00,VWS V14.01,2013-07-30 18:06:00,
2013-07-30 14:07:00,77.5,40.9,30.15,West,279,0.0,5.8,27,0.00,,---,0.00,VWS V14.01,2013-07-30 18:07:00,
2013-07-30 14:08:00,79.7,41.8,30.12,South,187,4.0,4.9,26,0.00,,---,0.00,VWS V14.01,2013-07-30 18:08:00,
2013-07-30 14:09:00,77.2,40.6,30.15,North,351,4.5,6.3,27,0.00,,---,0.00,VWS V14.01,2013-07-30 18:09:00,
2013-07-30 14:10:00,78.2,41.5,30.15,NW,313,5.4,9.2,27,0.00,,---,0.00,VWS V14.01,2013-07-30 18:10:00,
2013-07-30 14:11:00,78.2,41.5,30.15,North,11,4.5,6.9,27,0.00,,---,0.00,VWS V14.01,2013-07-30 18:11:00,
2013-07-30 14:12:00,77.2,40.6,30.15,WSW,257,4.0,6.7,27,0.00,,---,0.00,VWS V14.01,2013-07-30 18:12:00,
2013-07-30 14:13:00,82.0,43.8,30.12,North,356,5.4,5.4,26,0.00,,---,0.00,VWS V14.01,2013-07-30 18:13:00,
2013-07-30 14:14:00,77.7,41.1,30.15,WNW,301,0.0,4.5,27,0.00,,---,0.00,VWS V14.01,2013-07-30 18:14:00,
2013-07-30 14:15:00,78.6,41.9,30.15,WNW,297,4.0,4.5,27,0.00,,---,0.00,VWS V14.01,2013-07-30 18:15:00,
2013-07-30 14:16:00,79.1,42.3,30.15,North,351,3.6,4.0,27,0.00,,---,0.00,VWS V14.01,2013-07-30 18:16:00,
2013-07-30 14:17:00,79.1,42.3,30.15,NW,312,2.7,4.5,27,0.00,,---,0.00,VWS V14.01,2013-07-30 18:17:00,
2013-07-30 14:18:00,83.1,44.7,30.12,North,351,3.1,4.0,26,0.00,,---,0.00,VWS V14.01,2013-07-30 18:18:00,
2013-07-30 14:19:00,79.1,42.3,30.15,NNW,339,4.9,6.3,27,0.00,,---,0.00,VWS V14.01,2013-07-30 18:19:00,
2013-07-30 14:20:00,79.1,42.3,30.15,SSW,209,0.0,6.3,27,0.00,,---,0.00,VWS V14.01,2013-07-30 18:20:00,
2013-07-30 14:21:00,79.0,42.2,30.15,NNE,23,0.0,4.0,27,0.00,,---,0.00,VWS V14.01,2013-07-30 18:21:00,
2013-07-30 14:22:00,78.6,41.9,30.15,NNE,27,3.1,4.5,27,0.00,,---,0.00,VWS V14.01,2013-07-30 18:22:00,
2013-07-30 14:23:00,78.4,41.7,30.12,SSW,211,0.0,0.0,27,0.00,,---,0.00,VWS V14.01,2013-07-30 18:23:00,
2013-07-30 14:24:00,77.0,40.5,30.15,ENE,69,2.7,3.6,27,0.00,,---,0.00,VWS V14.01,2013-07-30 18:24:00,
2013-07-30 14:25:00,77.7,41.1,30.15,NE,53,3.1,4.0,27,0.00,,---,0.00,VWS V14.01,2013-07-30 18:25:00,
2013-07-30 14:26:00,77.7,41.1,30.15,East,86,0.0,3.6,27,0.00,,---,0.00,VWS V14.01,2013-07-30 18:26:00,
2013-07-30 14:27:00,77.9,41.2,30.15,SE,134,2.7,4.5,27,0.00,,---,0.00,VWS V14.01,2013-07-30 18:27:00,
2013-07-30 14:28:00,80.2,42.3,30.12,SE,125,0.0,0.0,26,0.00,,---,0.00,VWS V14.01,2013-07-30 18:28:00,
2013-07-30 14:29:00,77.9,41.2,30.15,ESE,108,0.0,2.7,27,0.00,,---,0.00,VWS V14.01,2013-07-30 18:29:00,
2013-07-30 14:30:00,78.1,41.4,30.15,NE,56,0.0,3.6,27,0.00,,---,0.00,VWS V14.01,2013-07-30 18:30:00,
2013-07-30 14:31:00,77.7,41.1,30.15,NNE,31,0.0,0.0,27,0.00,,---,0.00,VWS V14.01,2013-07-30 18:31:00,
2013-07-30 14:32:00,76.6,40.2,30.15,NE,53,4.5,4.5,27,0.00,,---,0.00,VWS V14.01,2013-07-30 18:32:00,
2013-07-30 14:33:00,80.6,42.6,30.12,NE,51,0.0,2.7,26,0.00,,---,0.00,VWS V14.01,2013-07-30 18:33:00,
2013-07-30 14:34:00,76.1,39.7,30.15,NE,48,3.6,4.5,27,0.00,,---,0.00,VWS V14.01,2013-07-30 18:34:00,
2013-07-30 14:35:00,74.8,39.6,30.12,ENE,60,4.0,4.9,28,0.00,,---,0.00,VWS V14.01,2013-07-30 18:35:00,
2013-07-30 14:36:00,74.8,39.6,30.12,ENE,58,4.5,5.4,28,0.00,,---,0.00,VWS V14.01,2013-07-30 18:36:00,
2013-07-30 14:37:00,74.8,39.6,30.12,NE,55,4.0,4.5,28,0.00,,---,0.00,VWS V14.01,2013-07-30 18:37:00,
2013-07-30 14:38:00,79.0,42.2,30.12,WNW,288,4.0,5.4,27,0.00,,---,0.00,VWS V14.01,2013-07-30 18:38:00,
2013-07-30 14:39:00,74.8,39.6,30.12,ENE,57,2.7,4.9,28,0.00,,---,0.00,VWS V14.01,2013-07-30 18:39:00,
2013-07-30 14:40:00,74.6,39.4,30.12,North,356,3.1,4.9,28,0.00,,---,0.00,VWS V14.01,2013-07-30 18:40:00,
2013-07-30 14:41:00,75.5,40.2,30.12,West,274,0.0,3.1,28,0.00,,---,0.00,VWS V14.01,2013-07-30 18:41:00,
2013-07-30 14:42:00,76.4,40.0,30.12,WNW,301,0.0,3.6,27,0.00,,---,0.00,VWS V14.01,2013-07-30 18:42:00,
2013-07-30 14:43:00,81.5,43.3,30.12,NW,307,6.9,6.9,26,0.00,,---,0.00,VWS V14.01,2013-07-30 18:43:00,
2013-07-30 14:44:00,79.0,42.2,30.12,West,263,0.0,4.9,27,0.00,,---,0.00,VWS V14.01,2013-07-30 18:44:00,
2013-07-30 14:45:00,79.5,44.5,30.12,NNW,339,2.7,3.1,29,0.00,,---,0.00,VWS V14.01,2013-07-30 18:45:00,
2013-07-30 14:46:00,80.8,42.7,30.12,North,351,5.4,6.3,26,0.00,,---,0.00,VWS V14.01,2013-07-30 18:46:00,
2013-07-30 14:47:00,81.7,43.5,30.12,NNW,335,4.5,7.8,26,0.00,,---,0.00,VWS V14.01,2013-07-30 18:47:00,
2013-07-30 14:48:00,78.4,41.7,30.12,West,271,5.8,6.9,27,0.00,,---,0.00,VWS V14.01,2013-07-30 18:48:00,
2013-07-30 14:49:00,82.7,44.4,30.12,West,274,2.7,2.7,26,0.00,,---,0.00,VWS V14.01,2013-07-30 18:49:00,
2013-07-30 14:50:00,83.1,44.7,30.12,WNW,290,3.6,3.6,26,0.00,,---,0.00,VWS V14.01,2013-07-30 18:50:00,
2013-07-30 14:51:00,83.3,44.8,30.12,WNW,289,0.0,4.9,26,0.00,,---,0.00,VWS V14.01,2013-07-30 18:51:00,
2013-07-30 14:52:00,82.6,44.2,30.12,North,356,0.0,2.7,26,0.00,,---,0.00,VWS V14.01,2013-07-30 18:52:00,
2013-07-30 14:53:00,79.5,41.7,30.12,WSW,238,5.4,5.4,26,0.00,,---,0.00,VWS V14.01,2013-07-30 18:53:00,
2013-07-30 14:54:00,81.5,43.3,30.12,NE,53,0.0,2.7,26,0.00,,---,0.00,VWS V14.01,2013-07-30 18:54:00,
2013-07-30 14:55:00,81.3,43.2,30.12,WNW,292,4.5,4.9,26,0.00,,---,0.00,VWS V14.01,2013-07-30 18:55:00,
2013-07-30 14:56:00,81.7,43.5,30.12,South,179,0.0,4.5,26,0.00,,---,0.00,VWS V14.01,2013-07-30 18:56:00,
2013-07-30 14:57:00,81.8,43.6,30.12,ENE,59,0.0,3.6,26,0.00,,---,0.00,VWS V14.01,2013-07-30 18:57:00,
2013-07-30 14:58:00,78.4,41.7,30.12,WSW,248,4.5,5.4,27,0.00,,---,0.00,VWS V14.01,2013-07-30 18:58:00,
2013-07-30 14:59:00,80.6,42.6,30.12,SE,133,0.0,0.0,26,0.00,,---,0.00,VWS V14.01,2013-07-30 18:59:00,
2013-07-30 15:00:00,79.0,42.2,30.12,WSW,247,5.4,5.4,27,0.00,,---,0.00,VWS V14.01,2013-07-30 19:00:00,
2013-07-30 15:01:00,78.6,41.9,30.12,West,274,3.6,5.4,27,0.00,,---,0.00,VWS V14.01,2013-07-30 19:01:00,
2013-07-30 15:02:00,79.3,42.5,30.12,West,259,0.0,3.6,27,0.00,,---,0.00,VWS V14.01,2013-07-30 19:02:00,
2013-07-30 15:03:00,76.3,39.9,30.12,WSW,245,2.7,5.4,27,0.00,,---,0.00,VWS V14.01,2013-07-30 19:03:00,
2013-07-30 15:04:00,79.5,42.6,30.12,NNW,330,5.4,6.3,27,0.00,,---,0.00,VWS V14.01,2013-07-30 19:04:00,
2013-07-30 15:05:00,80.0,42.1,30.12,NNW,329,4.0,6.3,26,0.00,,---,0.00,VWS V14.01,2013-07-30 19:05:00,
2013-07-30 15:06:00,79.7,41.8,30.12,NW,322,0.0,4.0,26,0.00,,---,0.00,VWS V14.01,2013-07-30 19:06:00,
2013-07-30 15:07:00,79.5,41.7,30.12,WSW,241,0.0,3.1,26,0.00,,---,0.00,VWS V14.01,2013-07-30 19:07:00,
2013-07-30 15:08:00,75.2,39.9,30.12,West,272,4.9,4.9,28,0.00,,---,0.00,VWS V14.01,2013-07-30 19:08:00,
2013-07-30 15:09:00,79.5,41.7,30.12,NNW,328,3.6,4.9,26,0.00,,---,0.00,VWS V14.01,2013-07-30 19:09:00,
2013-07-30 15:10:00,80.0,42.1,30.12,WSW,240,5.4,6.7,26,0.00,,---,0.00,VWS V14.01,2013-07-30 19:10:00,
2013-07-30 15:11:00,79.3,42.5,30.12,West,281,8.7,8.7,27,0.00,,---,0.00,VWS V14.01,2013-07-30 19:11:00,
2013-07-30 15:12:00,80.6,42.6,30.12,NW,322,4.5,8.7,26,0.00,,---,0.00,VWS V14.01,2013-07-30 19:12:00,
2013-07-30 15:13:00,74.3,39.1,30.12,South,171,0.0,2.7,28,0.00,,---,0.00,VWS V14.01,2013-07-30 19:13:00,
2013-07-30 15:14:00,82.4,44.1,30.12,WSW,254,3.1,5.8,26,0.00,,---,0.00,VWS V14.01,2013-07-30 19:14:00,
2013-07-30 15:15:00,82.9,44.5,30.12,NNW,342,6.7,6.7,26,0.00,,---,0.00,VWS V14.01,2013-07-30 19:15:00,
2013-07-30 15:16:00,82.9,44.5,30.12,NW,317,6.3,6.7,26,0.00,,---,0.00,VWS V14.01,2013-07-30 19:16:00,
2013-07-30 15:17:00,82.9,44.5,30.12,NNW,338,6.9,6.9,26,0.00,,---,0.00,VWS V14.01,2013-07-30 19:17:00,
2013-07-30 15:18:00,74.5,39.3,30.12,SSW,194,0.0,3.1,28,0.00,,---,0.00,VWS V14.01,2013-07-30 19:18:00,
2013-07-30 15:19:00,82.7,44.4,30.12,WNW,303,6.3,6.3,26,0.00,,---,0.00,VWS V14.01,2013-07-30 19:19:00,
2013-07-30 15:20:00,82.7,44.4,30.12,WNW,284,2.7,6.3,26,0.00,,---,0.00,VWS V14.01,2013-07-30 19:20:00,
2013-07-30 15:21:00,81.7,43.5,30.12,WNW,295,4.0,4.0,26,0.00,,---,0.00,VWS V14.01,2013-07-30 19:21:00,
2013-07-30 15:22:00,80.2,42.3,30.12,SSW,211,2.7,4.0,26,0.00,,---,0.00,VWS V14.01,2013-07-30 19:22:00,
2013-07-30 15:23:00,75.4,40.0,30.12,WSW,245,0.0,2.7,28,0.00,,---,0.00,VWS V14.01,2013-07-30 19:23:00,
2013-07-30 15:24:00,79.0,42.2,30.12,NNW,345,4.0,4.9,27,0.00,,---,0.00,VWS V14.01,2013-07-30 19:24:00,
2013-07-30 15:25:00,79.5,41.7,30.12,NNE,12,0.0,4.0,26,0.00,,---,0.00,VWS V14.01,2013-07-30 19:25:00,
2013-07-30 15:26:00,80.0,42.1,30.12,ENE,62,0.0,0.0,26,0.00,,---,0.00,VWS V14.01,2013-07-30 19:26:00,
2013-07-30 15:27:00,80.4,42.4,30.12,SE,142,3.1,3.6,26,0.00,,---,0.00,VWS V14.01,2013-07-30 19:27:00,
2013-07-30 15:28:00,74.6,39.4,30.12,SSE,166,2.7,2.7,28,0.00,,---,0.00,VWS V14.01,2013-07-30 19:28:00,
2013-07-30 15:29:00,80.0,42.1,30.12,SE,124,0.0,0.0,26,0.00,,---,0.00,VWS V14.01,2013-07-30 19:29:00,
2013-07-30 15:30:00,80.4,42.4,30.12,North,351,7.4,7.4,26,0.00,,---,0.00,VWS V14.01,2013-07-30 19:30:00,
2013-07-30 15:31:00,80.9,42.9,30.12,NE,37,3.6,7.4,26,0.00,,---,0.00,VWS V14.01,2013-07-30 19:31:00,
2013-07-30 15:32:00,80.6,42.6,30.12,NE,50,4.9,6.7,26,0.00,,---,0.00,VWS V14.01,2013-07-30 19:32:00,
2013-07-30 15:33:00,74.5,39.3,30.12,SW,217,0.0,3.1,28,0.00,,---,0.00,VWS V14.01,2013-07-30 19:33:00,
2013-07-30 15:34:00,81.1,43.0,30.12,ESE,121,0.0,2.7,26,0.00,,---,0.00,VWS V14.01,2013-07-30 19:34:00,
2013-07-30 15:35:00,81.8,43.6,30.12,SW,232,3.1,4.9,26,0.00,,---,0.00,VWS V14.01,2013-07-30 19:35:00,
2013-07-30 15:36:00,80.0,42.1,30.12,WSW,257,5.4,6.9,26,0.00,,---,0.00,VWS V14.01,2013-07-30 19:36:00,
2013-07-30 15:37:00,78.6,41.9,30.12,WSW,245,2.7,6.7,27,0.00,,---,0.00,VWS V14.01,2013-07-30 19:37:00,
2013-07-30 15:38:00,74.5,39.3,30.12,WSW,248,2.7,4.9,28,0.00,,---,0.00,VWS V14.01,2013-07-30 19:38:00,
2013-07-30 15:39:00,79.3,42.5,30.12,SW,224,3.1,5.4,27,0.00,,---,0.00,VWS V14.01,2013-07-30 19:39:00,
2013-07-30 15:40:00,80.2,42.3,30.12,West,280,5.4,5.4,26,0.00,,---,0.00,VWS V14.01,2013-07-30 19:40:00,
2013-07-30 15:41:00,80.9,42.9,30.12,West,266,4.5,5.4,26,0.00,,---,0.00,VWS V14.01,2013-07-30 19:41:00,
2013-07-30 15:42:00,81.3,43.2,30.12,WSW,258,3.1,4.5,26,0.00,,---,0.00,VWS V14.01,2013-07-30 19:42:00,
2013-07-30 15:43:00,75.2,39.9,30.12,SW,228,2.7,3.6,28,0.00,,---,0.00,VWS V14.01,2013-07-30 19:43:00,
2013-07-30 15:44:00,81.3,43.2,30.12,NW,320,2.7,6.9,26,0.00,,---,0.00,VWS V14.01,2013-07-30 19:44:00,
2013-07-30 15:45:00,80.4,42.4,30.12,WSW,256,6.7,10.1,26,0.00,,---,0.00,VWS V14.01,2013-07-30 19:45:00,
2013-07-30 15:46:00,79.1,42.3,30.12,West,261,7.4,9.2,27,0.00,,---,0.00,VWS V14.01,2013-07-30 19:46:00,
2013-07-30 15:47:00,78.6,41.9,30.12,West,276,9.6,9.6,27,0.00,,---,0.00,VWS V14.01,2013-07-30 19:47:00,
2013-07-30 15:48:00,75.9,39.6,30.12,SSW,213,0.0,0.0,27,0.00,,---,0.00,VWS V14.01,2013-07-30 19:48:00,
2013-07-30 15:49:00,79.0,42.2,30.12,WSW,248,7.4,7.8,27,0.00,,---,0.00,VWS V14.01,2013-07-30 19:49:00,
2013-07-30 15:50:00,77.5,40.9,30.12,WSW,255,8.3,10.1,27,0.00,,---,0.00,VWS V14.01,2013-07-30 19:50:00,
2013-07-30 15:51:00,77.7,41.1,30.12,West,276,3.6,8.3,27,0.00,,---,0.00,VWS V14.01,2013-07-30 19:51:00,
2013-07-30 15:52:00,78.4,41.7,30.12,WSW,247,6.9,6.9,27,0.00,,---,0.00,VWS V14.01,2013-07-30 19:52:00,
2013-07-30 15:53:00,75.4,40.0,30.12,SSE,166,0.0,3.1,28,0.00,,---,0.00,VWS V14.01,2013-07-30 19:53:00,
2013-07-30 15:54:00,79.5,42.6,30.12,SSW,197,4.9,7.4,27,0.00,,---,0.00,VWS V14.01,2013-07-30 19:54:00,
2013-07-30 15:55:00,79.7,41.8,30.12,WSW,238,3.1,6.3,26,0.00,,---,0.00,VWS V14.01,2013-07-30 19:55:00,
2013-07-30 15:56:00,79.0,42.2,30.12,West,260,3.6,7.4,27,0.00,,---,0.00,VWS V14.01,2013-07-30 19:56:00,
2013-07-30 15:57:00,78.6,41.9,30.12,West,266,7.4,9.2,27,0.00,,---,0.00,VWS V14.01,2013-07-30 19:57:00,
2013-07-30 15:58:00,76.1,39.7,30.12,NW,323,0.0,3.6,27,0.00,,---,0.00,VWS V14.01,2013-07-30 19:58:00,
2013-07-30 15:59:00,78.2,41.5,30.12,WSW,248,4.0,5.4,27,0.00,,---,0.00,VWS V14.01,2013-07-30 19:59:00,
2013-07-30 16:00:00,77.3,40.8,30.12,West,280,3.1,7.8,27,0.00,,---,0.00,VWS V14.01,2013-07-30 20:00:00,
2013-07-30 16:01:00,77.0,40.5,30.12,West,264,4.9,5.4,27,0.00,,---,0.00,VWS V14.01,2013-07-30 20:01:00,
2013-07-30 16:02:00,76.6,40.2,30.12,WSW,254,5.4,5.8,27,0.00,,---,0.00,VWS V14.01,2013-07-30 20:02:00,
2013-07-30 16:03:00,76.6,42.9,30.12,WNW,290,0.0,0.0,30,0.00,,---,0.00,VWS V14.01,2013-07-30 20:03:00,
2013-07-30 16:04:00,76.4,40.0,30.12,WSW,243,5.8,5.8,27,0.00,,---,0.00,VWS V14.01,2013-07-30 20:04:00,
2013-07-30 16:05:00,75.9,39.6,30.12,West,259,3.1,7.4,27,0.00,,---,0.00,VWS V14.01,2013-07-30 20:05:00,
2013-07-30 16:06:00,75.5,40.2,30.12,West,266,7.4,7.4,28,0.00,,---,0.00,VWS V14.01,2013-07-30 20:06:00,
2013-07-30 16:07:00,75.0,39.7,30.12,West,261,6.3,7.4,28,0.00,,---,0.00,VWS V14.01,2013-07-30 20:07:00,
2013-07-30 16:08:00,76.4,40.0,30.12,WNW,290,0.0,0.0,27,0.00,,---,0.00,VWS V14.01,2013-07-30 20:08:00,
2013-07-30 16:09:00,75.2,39.9,30.12,WSW,251,4.0,4.9,28,0.00,,---,0.00,VWS V14.01,2013-07-30 20:09:00,
2013-07-30 16:10:00,75.0,39.7,30.12,WSW,241,4.0,4.9,28,0.00,,---,0.00,VWS V14.01,2013-07-30 20:10:00,
2013-07-30 16:11:00,74.5,39.3,30.12,West,261,5.4,5.4,28,0.00,,---,0.00,VWS V14.01,2013-07-30 20:11:00,
2013-07-30 16:12:00,74.5,39.3,30.12,SW,233,4.5,5.8,28,0.00,,---,0.00,VWS V14.01,2013-07-30 20:12:00,
2013-07-30 16:13:00,75.0,41.5,30.12,ENE,60,0.0,2.7,30,0.00,,---,0.00,VWS V14.01,2013-07-30 20:13:00,
2013-07-30 16:14:00,74.1,39.0,30.12,WSW,242,5.8,6.7,28,0.00,,---,0.00,VWS V14.01,2013-07-30 20:14:00,
2013-07-30 16:15:00,73.7,38.6,30.12,SW,225,3.6,5.8,28,0.00,,---,0.00,VWS V14.01,2013-07-30 20:15:00,
2013-07-30 16:16:00,73.9,38.8,30.12,SW,219,3.6,4.5,28,0.00,,---,0.00,VWS V14.01,2013-07-30 20:16:00,
2013-07-30 16:17:00,74.1,39.0,30.12,SSW,205,2.7,4.0,28,0.00,,---,0.00,VWS V14.01,2013-07-30 20:17:00,
2013-07-30 16:18:00,74.8,39.6,30.12,ENE,58,0.0,0.0,28,0.00,,---,0.00,VWS V14.01,2013-07-30 20:18:00,
2013-07-30 16:19:00,74.5,39.3,30.12,WSW,257,4.0,4.9,28,0.00,,---,0.00,VWS V14.01,2013-07-30 20:19:00,
2013-07-30 16:20:00,74.8,39.6,30.12,WSW,258,5.4,5.8,28,0.00,,---,0.00,VWS V14.01,2013-07-30 20:20:00,
2013-07-30 16:21:00,74.8,39.6,30.12,SW,228,4.5,6.7,28,0.00,,---,0.00,VWS V14.01,2013-07-30 20:21:00,
2013-07-30 16:22:00,75.2,39.9,30.12,WSW,245,4.0,4.9,28,0.00,,---,0.00,VWS V14.01,2013-07-30 20:22:00,
2013-07-30 16:23:00,74.8,39.6,30.12,NE,44,0.0,0.0,28,0.00,,---,0.00,VWS V14.01,2013-07-30 20:23:00,
2013-07-30 16:24:00,75.7,40.3,30.12,WNW,290,3.1,3.6,28,0.00,,---,0.00,VWS V14.01,2013-07-30 20:24:00,
2013-07-30 16:25:00,75.9,40.5,30.12,SW,218,3.1,3.1,28,0.00,,---,0.00,VWS V14.01,2013-07-30 20:25:00,
2013-07-30 16:26:00,75.5,40.2,30.12,West,268,0.0,3.1,28,0.00,,---,0.00,VWS V14.01,2013-07-30 20:26:00,
2013-07-30 16:27:00,74.8,39.6,30.12,SSW,202,3.6,4.9,28,0.00,,---,0.00,VWS V14.01,2013-07-30 20:27:00,
2013-07-30 16:28:00,75.2,39.9,30.12,NE,44,0.0,0.0,28,0.00,,---,0.00,VWS V14.01,2013-07-30 20:28:00,
2013-07-30 16:29:00,74.8,39.6,30.12,West,264,2.7,3.1,28,0.00,,---,0.00,VWS V14.01,2013-07-30 20:29:00,
2013-07-30 16:30:00,75.0,39.7,30.12,SW,218,0.0,3.1,28,0.00,,---,0.00,VWS V14.01,2013-07-30 20:30:00,
2013-07-30 16:31:00,74.6,39.4,30.12,SW,217,0.0,0.0,28,0.00,,---,0.00,VWS V14.01,2013-07-30 20:31:00,
2013-07-30 16:32:00,74.3,39.1,30.12,WSW,240,0.0,0.0,28,0.00,,---,0.00,VWS V14.01,2013-07-30 20:32:00,
2013-07-30 16:33:00,75.4,40.0,30.12,NE,51,0.0,0.0,28,0.00,,---,0.00,VWS V14.01,2013-07-30 20:33:00,
2013-07-30 16:34:00,74.3,39.1,30.12,SSW,205,2.7,3.6,28,0.00,,---,0.00,VWS V14.01,2013-07-30 20:34:00,
2013-07-30 16:35:00,74.6,39.4,30.12,NNW,329,0.0,3.6,28,0.00,,---,0.00,VWS V14.01,2013-07-30 20:35:00,
2013-07-30 16:36:00,74.8,39.6,30.12,NNW,328,0.0,2.7,28,0.00,,---,0.00,VWS V14.01,2013-07-30 20:36:00,
2013-07-30 16:37:00,74.6,39.4,30.12,SW,232,2.7,3.1,28,0.00,,---,0.00,VWS V14.01,2013-07-30 20:37:00,
2013-07-30 16:38:00,75.5,40.2,30.12,West,274,0.0,0.0,28,0.00,,---,0.00,VWS V14.01,2013-07-30 20:38:00,
2013-07-30 16:39:00,74.6,39.4,30.12,WSW,248,0.0,4.9,28,0.00,,---,0.00,VWS V14.01,2013-07-30 20:39:00,
2013-07-30 16:40:00,74.6,39.4,30.12,West,259,5.8,5.8,28,0.00,,---,0.00,VWS V14.01,2013-07-30 20:40:00,
2013-07-30 16:41:00,74.8,39.6,30.12,WSW,250,0.0,5.8,28,0.00,,---,0.00,VWS V14.01,2013-07-30 20:41:00,
2013-07-30 16:42:00,75.0,39.7,30.12,WNW,298,3.1,5.4,28,0.00,,---,0.00,VWS V14.01,2013-07-30 20:42:00,
2013-07-30 16:43:00,75.7,42.1,30.12,West,279,0.0,0.0,30,0.00,,---,0.00,VWS V14.01,2013-07-30 20:43:00,
2013-07-30 16:44:00,75.0,39.7,30.12,SW,228,0.0,3.6,28,0.00,,---,0.00,VWS V14.01,2013-07-30 20:44:00,
2013-07-30 16:45:00,75.5,40.2,30.12,SW,218,3.6,3.6,28,0.00,,---,0.00,VWS V14.01,2013-07-30 20:45:00,
2013-07-30 16:46:00,75.9,40.5,30.12,SSW,213,0.0,3.6,28,0.00,,---,0.00,VWS V14.01,2013-07-30 20:46:00,
2013-07-30 16:47:00,75.9,39.6,30.12,SSW,213,0.0,0.0,27,0.00,,---,0.00,VWS V14.01,2013-07-30 20:47:00,
2013-07-30 16:48:00,75.5,40.2,30.12,NNW,340,0.0,0.0,28,0.00,,---,0.00,VWS V14.01,2013-07-30 20:48:00,
2013-07-30 16:49:00,75.9,42.3,30.12,SSW,213,0.0,0.0,30,0.00,,---,0.00,VWS V14.01,2013-07-30 20:49:00,
2013-07-30 16:50:00,75.5,40.2,30.12,West,261,3.6,4.9,28,0.00,,---,0.00,VWS V14.01,2013-07-30 20:50:00,
2013-07-30 16:51:00,75.4,40.0,30.12,SW,231,3.6,4.0,28,0.00,,---,0.00,VWS V14.01,2013-07-30 20:51:00,
2013-07-30 16:52:00,75.2,39.9,30.12,SW,225,2.7,4.0,28,0.00,,---,0.00,VWS V14.01,2013-07-30 20:52:00,
2013-07-30 16:53:00,75.5,40.2,30.12,NE,53,0.0,0.0,28,0.00,,---,0.00,VWS V14.01,2013-07-30 20:53:00,
2013-07-30 16:54:00,75.4,40.0,30.12,WSW,247,0.0,4.0,28,0.00,,---,0.00,VWS V14.01,2013-07-30 20:54:00,
2013-07-30 16:55:00,75.4,40.0,30.12,WSW,254,0.0,3.1,28,0.00,,---,0.00,VWS V14.01,2013-07-30 20:55:00,
2013-07-30 16:56:00,75.5,40.2,30.12,WSW,253,4.0,4.5,28,0.00,,---,0.00,VWS V14.01,2013-07-30 20:56:00,
2013-07-30 16:57:00,75.7,40.3,30.12,WSW,258,0.0,4.0,28,0.00,,---,0.00,VWS V14.01,2013-07-30 20:57:00,
2013-07-30 16:58:00,76.3,39.9,30.12,NE,56,0.0,0.0,27,0.00,,---,0.00,VWS V14.01,2013-07-30 20:58:00,
2013-07-30 16:59:00,76.4,40.0,30.12,NW,323,0.0,3.6,27,0.00,,---,0.00,VWS V14.01,2013-07-30 20:59:00,
2013-07-30 17:00:00,76.4,42.7,30.12,WNW,290,2.7,4.5,30,0.00,,---,0.00,VWS V14.01,2013-07-30 21:00:00,
2013-07-30 17:01:00,76.4,42.7,30.12,WNW,290,0.0,2.7,30,0.00,,---,0.00,VWS V14.01,2013-07-30 21:01:00,
2013-07-30 17:02:00,76.6,42.9,30.12,WNW,290,0.0,0.0,30,0.00,,---,0.00,VWS V14.01,2013-07-30 21:02:00,
2013-07-30 17:03:00,75.7,40.3,30.12,NNW,328,0.0,0.0,28,0.00,,---,0.00,VWS V14.01,2013-07-30 21:03:00,
2013-07-30 17:04:00,76.6,40.2,30.12,WNW,290,0.0,0.0,27,0.00,,---,0.00,VWS V14.01,2013-07-30 21:04:00,
2013-07-30 17:05:00,76.6,40.2,30.12,WNW,290,0.0,0.0,27,0.00,,---,0.00,VWS V14.01,2013-07-30 21:05:00,
2013-07-30 17:06:00,76.6,42.9,30.12,WNW,290,0.0,0.0,30,0.00,,---,0.00,VWS V14.01,2013-07-30 21:06:00,
2013-07-30 17:07:00,76.4,40.0,30.12,WNW,290,0.0,0.0,27,0.00,,---,0.00,VWS V14.01,2013-07-30 21:07:00,
2013-07-30 17:08:00,74.8,39.6,30.12,WNW,293,2.7,4.0,28,0.00,,---,0.00,VWS V14.01,2013-07-30 21:08:00,
2013-07-30 17:09:00,76.3,39.9,30.12,WNW,290,0.0,0.0,27,0.00,,---,0.00,VWS V14.01,2013-07-30 21:09:00,
2013-07-30 17:10:00,75.7,40.3,30.12,WNW,290,0.0,0.0,28,0.00,,---,0.00,VWS V14.01,2013-07-30 21:10:00,
2013-07-30 17:11:00,75.7,40.3,30.12,WNW,291,0.0,0.0,28,0.00,,---,0.00,VWS V14.01,2013-07-30 21:11:00,
2013-07-30 17:12:00,75.4,41.8,30.12,ENE,60,3.1,3.1,30,0.00,,---,0.00,VWS V14.01,2013-07-30 21:12:00,
2013-07-30 17:13:00,74.6,39.4,30.12,West,277,4.5,4.5,28,0.00,,---,0.00,VWS V14.01,2013-07-30 21:13:00,
2013-07-30 17:14:00,75.0,39.7,30.12,ENE,60,0.0,2.7,28,0.00,,---,0.00,VWS V14.01,2013-07-30 21:14:00,
2013-07-30 17:15:00,74.5,39.3,30.12,ENE,58,0.0,0.0,28,0.00,,---,0.00,VWS V14.01,2013-07-30 21:15:00,
2013-07-30 17:16:00,74.6,39.4,30.12,ENE,58,0.0,0.0,28,0.00,,---,0.00,VWS V14.01,2013-07-30 21:16:00,
2013-07-30 17:17:00,74.6,39.4,30.12,ENE,58,0.0,0.0,28,0.00,,---,0.00,VWS V14.01,2013-07-30 21:17:00,
2013-07-30 17:18:00,75.0,41.5,30.12,SW,233,0.0,0.0,30,0.00,,---,0.00,VWS V14.01,2013-07-30 21:18:00,
2013-07-30 17:19:00,74.8,41.3,30.12,ENE,59,0.0,0.0,30,0.00,,---,0.00,VWS V14.01,2013-07-30 21:19:00,
2013-07-30 17:20:00,74.6,39.4,30.12,ENE,59,0.0,0.0,28,0.00,,---,0.00,VWS V14.01,2013-07-30 21:20:00,
2013-07-30 17:21:00,74.6,39.4,30.12,NE,46,0.0,0.0,28,0.00,,---,0.00,VWS V14.01,2013-07-30 21:21:00,
2013-07-30 17:22:00,74.6,39.4,30.12,NE,43,2.7,4.0,28,0.00,,---,0.00,VWS V14.01,2013-07-30 21:22:00,
2013-07-30 17:23:00,75.2,41.7,30.12,West,265,0.0,0.0,30,0.00,,---,0.00,VWS V14.01,2013-07-30 21:23:00,
2013-07-30 17:24:00,74.8,39.6,30.12,NE,44,0.0,0.0,28,0.00,,---,0.00,VWS V14.01,2013-07-30 21:24:00,
2013-07-30 17:25:00,75.0,39.7,30.12,NE,44,0.0,0.0,28,0.00,,---,0.00,VWS V14.01,2013-07-30 21:25:00,
2013-07-30 17:26:00,75.0,39.7,30.12,NE,44,0.0,0.0,28,0.00,,---,0.00,VWS V14.01,2013-07-30 21:26:00,
2013-07-30 17:27:00,75.2,39.9,30.12,NE,44,0.0,0.0,28,0.00,,---,0.00,VWS V14.01,2013-07-30 21:27:00,
2013-07-30 17:28:00,74.8,41.3,30.12,West,270,0.0,0.0,30,0.00,,---,0.00,VWS V14.01,2013-07-30 21:28:00,
2013-07-30 17:29:00,75.4,40.0,30.12,NE,49,0.0,0.0,28,0.00,,---,0.00,VWS V14.01,2013-07-30 21:29:00,
2013-07-30 17:30:00,75.4,40.0,30.12,NE,49,0.0,0.0,28,0.00,,---,0.00,VWS V14.01,2013-07-30 21:30:00,
2013-07-30 17:31:00,75.4,40.0,30.12,NE,49,0.0,0.0,28,0.00,,---,0.00,VWS V14.01,2013-07-30 21:31:00,
2013-07-30 17:32:00,75.4,40.0,30.12,NE,50,0.0,0.0,28,0.00,,---,0.00,VWS V14.01,2013-07-30 21:32:00,
2013-07-30 17:33:00,75.5,42.0,30.12,NW,307,0.0,0.0,30,0.00,,---,0.00,VWS V14.01,2013-07-30 21:33:00,
2013-07-30 17:34:00,75.2,39.9,30.12,NE,51,0.0,0.0,28,0.00,,---,0.00,VWS V14.01,2013-07-30 21:34:00,
2013-07-30 17:35:00,75.2,39.9,30.12,NE,51,0.0,0.0,28,0.00,,---,0.00,VWS V14.01,2013-07-30 21:35:00,
2013-07-30 17:36:00,75.2,39.9,30.12,NE,39,0.0,0.0,28,0.00,,---,0.00,VWS V14.01,2013-07-30 21:36:00,
2013-07-30 17:37:00,75.4,40.0,30.12,NE,40,0.0,0.0,28,0.00,,---,0.00,VWS V14.01,2013-07-30 21:37:00,
2013-07-30 17:38:00,75.4,41.8,30.12,West,259,0.0,0.0,30,0.00,,---,0.00,VWS V14.01,2013-07-30 21:38:00,
2013-07-30 17:39:00,75.4,40.0,30.12,West,274,0.0,0.0,28,0.00,,---,0.00,VWS V14.01,2013-07-30 21:39:00,
2013-07-30 17:40:00,75.4,40.0,30.12,West,279,0.0,0.0,28,0.00,,---,0.00,VWS V14.01,2013-07-30 21:40:00,
2013-07-30 17:41:00,75.5,42.0,30.12,West,279,0.0,0.0,30,0.00,,---,0.00,VWS V14.01,2013-07-30 21:41:00,
2013-07-30 17:42:00,75.7,40.3,30.12,West,279,0.0,0.0,28,0.00,,---,0.00,VWS V14.01,2013-07-30 21:42:00,
2013-07-30 17:43:00,74.5,41.0,30.12,SW,226,4.0,4.0,30,0.00,,---,0.00,VWS V14.01,2013-07-30 21:43:00,
2013-07-30 17:44:00,75.7,42.1,30.12,NW,314,0.0,0.0,30,0.00,,---,0.00,VWS V14.01,2013-07-30 21:44:00,
2013-07-30 17:45:00,75.5,40.2,30.12,NW,314,0.0,0.0,28,0.00,,---,0.00,VWS V14.01,2013-07-30 21:45:00,
2013-07-30 17:46:00,75.4,40.0,30.12,NW,317,0.0,0.0,28,0.00,,---,0.00,VWS V14.01,2013-07-30 21:46:00,
2013-07-30 17:47:00,75.5,40.2,30.12,WSW,244,0.0,0.0,28,0.00,,---,0.00,VWS V14.01,2013-07-30 21:47:00,
2013-07-30 17:48:00,74.1,40.7,30.12,WSW,253,0.0,0.0,30,0.00,,---,0.00,VWS V14.01,2013-07-30 21:48:00,
2013-07-30 17:49:00,75.5,40.2,30.12,North,351,0.0,0.0,28,0.00,,---,0.00,VWS V14.01,2013-07-30 21:49:00,
2013-07-30 17:50:00,75.5,40.2,30.12,NE,53,0.0,0.0,28,0.00,,---,0.00,VWS V14.01,2013-07-30 21:50:00,
2013-07-30 17:51:00,75.4,40.0,30.12,NE,54,0.0,0.0,28,0.00,,---,0.00,VWS V14.01,2013-07-30 21:51:00,
2013-07-30 17:52:00,75.7,40.3,30.12,NE,53,0.0,0.0,28,0.00,,---,0.00,VWS V14.01,2013-07-30 21:52:00,
2013-07-30 17:53:00,74.3,40.9,30.12,SSE,163,0.0,0.0,30,0.00,,---,0.00,VWS V14.01,2013-07-30 21:53:00,
2013-07-30 17:54:00,75.5,40.2,30.12,NE,53,0.0,0.0,28,0.00,,---,0.00,VWS V14.01,2013-07-30 21:54:00,
2013-07-30 17:55:00,75.7,40.3,30.12,NE,53,0.0,0.0,28,0.00,,---,0.00,VWS V14.01,2013-07-30 21:55:00,
2013-07-30 17:56:00,75.9,39.6,30.12,NE,53,0.0,0.0,27,0.00,,---,0.00,VWS V14.01,2013-07-30 21:56:00,
2013-07-30 17:57:00,76.1,39.7,30.12,NE,56,0.0,0.0,27,0.00,,---,0.00,VWS V14.01,2013-07-30 21:57:00,
2013-07-30 17:58:00,74.8,41.3,30.12,NNW,336,0.0,0.0,30,0.00,,---,0.00,VWS V14.01,2013-07-30 21:58:00,
2013-07-30 17:59:00,76.3,39.9,30.12,NE,56,0.0,0.0,27,0.00,,---,0.00,VWS V14.01,2013-07-30 21:59:00,
2013-07-30 18:00:00,76.3,39.9,30.12,NNE,25,0.0,0.0,27,0.00,,---,0.00,VWS V14.01,2013-07-30 22:00:00,
2013-07-30 18:01:00,76.3,39.9,30.12,NNE,25,0.0,0.0,27,0.00,,---,0.00,VWS V14.01,2013-07-30 22:01:00,
2013-07-30 18:02:00,75.9,39.6,30.12,WNW,284,0.0,0.0,27,0.00,,---,0.00,VWS V14.01,2013-07-30 22:02:00,
2013-07-30 18:03:00,74.3,40.9,30.12,NE,37,2.7,2.7,30,0.00,,---,0.00,VWS V14.01,2013-07-30 22:03:00,
2013-07-30 18:04:00,75.9,40.5,30.12,WSW,250,0.0,0.0,28,0.00,,---,0.00,VWS V14.01,2013-07-30 22:04:00,
2013-07-30 18:05:00,75.4,40.0,30.12,West,259,3.6,4.0,28,0.00,,---,0.00,VWS V14.01,2013-07-30 22:05:00,
2013-07-30 18:06:00,75.2,39.9,30.12,West,259,3.1,3.6,28,0.00,,---,0.00,VWS V14.01,2013-07-30 22:06:00,
2013-07-30 18:07:00,75.0,39.7,30.12,West,268,4.0,4.0,28,0.00,,---,0.00,VWS V14.01,2013-07-30 22:07:00,
2013-07-30 18:08:00,74.1,40.7,30.12,North,356,0.0,0.0,30,0.00,,---,0.00,VWS V14.01,2013-07-30 22:08:00,
2013-07-30 18:09:00,75.0,39.7,30.12,WNW,284,3.1,4.0,28,0.00,,---,0.00,VWS V14.01,2013-07-30 22:09:00,
2013-07-30 18:10:00,75.0,39.7,30.12,WNW,284,0.0,3.1,28,0.00,,---,0.00,VWS V14.01,2013-07-30 22:10:00,
2013-07-30 18:11:00,75.2,41.7,30.12,SSW,207,0.0,0.0,30,0.00,,---,0.00,VWS V14.01,2013-07-30 22:11:00,
2013-07-30 18:12:00,74.6,39.4,30.12,West,260,4.5,4.9,28,0.00,,---,0.00,VWS V14.01,2013-07-30 22:12:00,
2013-07-30 18:13:00,73.6,40.2,30.12,NNE,16,0.0,0.0,30,0.00,,---,0.00,VWS V14.01,2013-07-30 22:13:00,
2013-07-30 18:14:00,74.3,39.1,30.12,WNW,282,3.6,5.4,28,0.00,,---,0.00,VWS V14.01,2013-07-30 22:14:00,
2013-07-30 18:15:00,74.3,39.1,30.12,West,268,0.0,3.6,28,0.00,,---,0.00,VWS V14.01,2013-07-30 22:15:00,
2013-07-30 18:16:00,74.5,39.3,30.12,WNW,302,0.0,0.0,28,0.00,,---,0.00,VWS V14.01,2013-07-30 22:16:00,
2013-07-30 18:17:00,74.6,39.4,30.12,WNW,294,4.0,4.5,28,0.00,,---,0.00,VWS V14.01,2013-07-30 22:17:00,
2013-07-30 18:18:00,72.8,39.6,30.12,WNW,300,3.6,3.6,30,0.00,,---,0.00,VWS V14.01,2013-07-30 22:18:00,
2013-07-30 18:19:00,75.2,41.7,30.12,NNE,15,3.6,3.6,30,0.00,,---,0.00,VWS V14.01,2013-07-30 22:19:00,
2013-07-30 18:20:00,75.2,39.9,30.12,NNW,330,0.0,4.9,28,0.00,,---,0.00,VWS V14.01,2013-07-30 22:20:00,
2013-07-30 18:21:00,75.2,39.9,30.12,NW,308,4.5,4.9,28,0.00,,---,0.00,VWS V14.01,2013-07-30 22:21:00,
2013-07-30 18:22:00,75.2,39.9,30.12,West,264,4.5,5.8,28,0.00,,---,0.00,VWS V14.01,2013-07-30 22:22:00,
2013-07-30 18:23:00,72.7,39.5,30.12,WNW,298,3.6,3.6,30,0.00,,---,0.00,VWS V14.01,2013-07-30 22:23:00,
2013-07-30 18:24:00,74.8,41.3,30.12,NW,321,3.1,3.1,30,0.00,,---,0.00,VWS V14.01,2013-07-30 22:24:00,
2013-07-30 18:25:00,74.6,41.2,30.12,West,271,3.6,4.0,30,0.00,,---,0.00,VWS V14.01,2013-07-30 22:25:00,
2013-07-30 18:26:00,74.8,41.3,30.12,West,271,0.0,3.6,30,0.00,,---,0.00,VWS V14.01,2013-07-30 22:26:00,
2013-07-30 18:27:00,74.6,39.4,30.12,West,271,0.0,0.0,28,0.00,,---,0.00,VWS V14.01,2013-07-30 22:27:00,
2013-07-30 18:28:00,72.8,39.6,30.12,NNW,346,3.6,3.6,30,0.00,,---,0.00,VWS V14.01,2013-07-30 22:28:00,
2013-07-30 18:29:00,75.0,41.5,30.12,West,270,0.0,0.0,30,0.00,,---,0.00,VWS V14.01,2013-07-30 22:29:00,
2013-07-30 18:30:00,75.4,41.8,30.12,West,270,0.0,0.0,30,0.00,,---,0.00,VWS V14.01,2013-07-30 22:30:00,
2013-07-30 18:31:00,75.5,42.0,30.12,NW,305,0.0,0.0,30,0.00,,---,0.00,VWS V14.01,2013-07-30 22:31:00,
2013-07-30 18:32:00,75.5,42.0,30.12,NW,307,0.0,0.0,30,0.00,,---,0.00,VWS V14.01,2013-07-30 22:32:00,
2013-07-30 18:33:00,72.8,39.6,30.12,NE,49,0.0,0.0,30,0.00,,---,0.00,VWS V14.01,2013-07-30 22:33:00,
2013-07-30 18:34:00,75.7,42.1,30.12,NW,311,0.0,3.6,30,0.00,,---,0.00,VWS V14.01,2013-07-30 22:34:00,
2013-07-30 18:35:00,75.7,40.3,30.12,NW,311,0.0,0.0,28,0.00,,---,0.00,VWS V14.01,2013-07-30 22:35:00,
2013-07-30 18:36:00,75.4,40.0,30.12,NW,311,0.0,0.0,28,0.00,,---,0.00,VWS V14.01,2013-07-30 22:36:00,
2013-07-30 18:37:00,75.4,40.0,30.12,NW,311,0.0,0.0,28,0.00,,---,0.00,VWS V14.01,2013-07-30 22:37:00,
2013-07-30 18:38:00,72.5,39.3,30.09,North,351,0.0,0.0,30,0.00,,---,0.00,VWS V14.01,2013-07-30 22:38:00,
2013-07-30 18:39:00,75.4,41.8,30.12,West,259,0.0,0.0,30,0.00,,---,0.00,VWS V14.01,2013-07-30 22:39:00,
2013-07-30 18:40:00,75.4,41.8,30.12,West,259,0.0,0.0,30,0.00,,---,0.00,VWS V14.01,2013-07-30 22:40:00,
2013-07-30 18:41:00,75.2,41.7,30.12,West,259,0.0,2.7,30,0.00,,---,0.00,VWS V14.01,2013-07-30 22:41:00,
2013-07-30 18:42:00,75.2,41.7,30.12,WSW,258,0.0,0.0,30,0.00,,---,0.00,VWS V14.01,2013-07-30 22:42:00,
2013-07-30 18:43:00,72.1,39.8,30.09,NNW,330,0.0,4.5,31,0.00,,---,0.00,VWS V14.01,2013-07-30 22:43:00,
2013-07-30 18:44:00,74.1,40.7,30.12,WSW,253,3.6,4.0,30,0.00,,---,0.00,VWS V14.01,2013-07-30 22:44:00,
2013-07-30 18:45:00,73.9,40.6,30.12,WSW,253,0.0,3.6,30,0.00,,---,0.00,VWS V14.01,2013-07-30 22:45:00,
2013-07-30 18:46:00,74.1,40.7,30.12,WSW,253,0.0,0.0,30,0.00,,---,0.00,VWS V14.01,2013-07-30 22:46:00,
2013-07-30 18:47:00,74.1,40.7,30.12,WSW,253,0.0,0.0,30,0.00,,---,0.00,VWS V14.01,2013-07-30 22:47:00,
2013-07-30 18:48:00,71.9,39.7,30.09,West,274,2.7,4.0,31,0.00,,---,0.00,VWS V14.01,2013-07-30 22:48:00,
2013-07-30 18:49:00,73.9,40.6,30.12,WSW,252,0.0,0.0,30,0.00,,---,0.00,VWS V14.01,2013-07-30 22:49:00,
2013-07-30 18:50:00,73.9,40.6,30.12,WSW,245,4.0,4.5,30,0.00,,---,0.00,VWS V14.01,2013-07-30 22:50:00,
2013-07-30 18:51:00,74.1,40.7,30.12,WSW,247,0.0,4.0,30,0.00,,---,0.00,VWS V14.01,2013-07-30 22:51:00,
2013-07-30 18:52:00,74.1,40.7,30.12,WSW,247,2.7,3.6,30,0.00,,---,0.00,VWS V14.01,2013-07-30 22:52:00,
2013-07-30 18:53:00,72.1,39.8,30.09,West,271,0.0,3.1,31,0.00,,---,0.00,VWS V14.01,2013-07-30 22:53:00,
2013-07-30 18:54:00,74.5,41.0,30.12,NE,56,3.6,3.6,30,0.00,,---,0.00,VWS V14.01,2013-07-30 22:54:00,
2013-07-30 18:55:00,74.5,41.0,30.12,North,351,0.0,3.6,30,0.00,,---,0.00,VWS V14.01,2013-07-30 22:55:00,
2013-07-30 18:56:00,74.6,41.2,30.12,NNW,336,3.1,4.5,30,0.00,,---,0.00,VWS V14.01,2013-07-30 22:56:00,
2013-07-30 18:57:00,74.8,41.3,30.12,NNW,336,0.0,3.1,30,0.00,,---,0.00,VWS V14.01,2013-07-30 22:57:00,
2013-07-30 18:58:00,72.1,39.8,30.09,WNW,299,3.6,5.4,31,0.00,,---,0.00,VWS V14.01,2013-07-30 22:58:00,
2013-07-30 18:59:00,74.6,41.2,30.12,WNW,295,0.0,0.0,30,0.00,,---,0.00,VWS V14.01,2013-07-30 22:59:00,
2013-07-30 19:00:00,74.5,41.0,30.12,WNW,295,0.0,0.0,30,0.00,,---,0.00,VWS V14.01,2013-07-30 23:00:00,
2013-07-30 19:01:00,74.5,41.0,30.12,North,351,0.0,0.0,30,0.00,,---,0.00,VWS V14.01,2013-07-30 23:01:00,
2013-07-30 19:02:00,74.3,40.9,30.12,North,356,2.7,2.7,30,0.00,,---,0.00,VWS V14.01,2013-07-30 23:02:00,
2013-07-30 19:03:00,71.8,39.5,30.09,North,5,0.0,0.0,31,0.00,,---,0.00,VWS V14.01,2013-07-30 23:03:00,
2013-07-30 19:04:00,74.3,40.9,30.12,NNE,32,0.0,3.1,30,0.00,,---,0.00,VWS V14.01,2013-07-30 23:04:00,
2013-07-30 19:05:00,74.3,40.9,30.12,NNE,32,0.0,0.0,30,0.00,,---,0.00,VWS V14.01,2013-07-30 23:05:00,
2013-07-30 19:06:00,74.3,40.9,30.12,NE,45,0.0,0.0,30,0.00,,---,0.00,VWS V14.01,2013-07-30 23:06:00,
2013-07-30 19:07:00,74.1,40.7,30.12,NE,45,0.0,0.0,30,0.00,,---,0.00,VWS V14.01,2013-07-30 23:07:00,
2013-07-30 19:08:00,71.4,39.2,30.09,WNW,289,0.0,0.0,31,0.00,,---,0.00,VWS V14.01,2013-07-30 23:08:00,
2013-07-30 19:09:00,73.9,40.6,30.12,NE,37,0.0,0.0,30,0.00,,---,0.00,VWS V14.01,2013-07-30 23:09:00,
2013-07-30 19:10:00,73.9,40.6,30.12,WSW,241,2.7,4.5,30,0.00,,---,0.00,VWS V14.01,2013-07-30 23:10:00,
2013-07-30 19:11:00,73.7,40.4,30.12,North,10,3.1,4.9,30,0.00,,---,0.00,VWS V14.01,2013-07-30 23:11:00,
2013-07-30 19:12:00,73.6,40.2,30.12,NNE,15,0.0,3.1,30,0.00,,---,0.00,VWS V14.01,2013-07-30 23:12:00,
2013-07-30 19:13:00,71.2,39.1,30.09,WNW,291,0.0,0.0,31,0.00,,---,0.00,VWS V14.01,2013-07-30 23:13:00,
2013-07-30 19:14:00,73.4,40.1,30.12,NW,304,0.0,0.0,30,0.00,,---,0.00,VWS V14.01,2013-07-30 23:14:00,
2013-07-30 19:15:00,73.2,39.9,30.12,NW,307,0.0,4.9,30,0.00,,---,0.00,VWS V14.01,2013-07-30 23:15:00,
2013-07-30 19:16:00,71.2,40.7,30.09,WNW,292,0.0,0.0,33,0.00,,---,0.00,VWS V14.01,2013-07-30 23:16:00,
2013-07-30 19:17:00,72.8,39.6,30.12,NW,321,3.6,4.5,30,0.00,,---,0.00,VWS V14.01,2013-07-30 23:17:00,
2013-07-30 19:18:00,71.2,40.7,30.09,WSW,244,2.7,4.5,33,0.00,,---,0.00,VWS V14.01,2013-07-30 23:18:00,
2013-07-30 19:19:00,72.7,39.5,30.12,SSW,200,0.0,3.6,30,0.00,,---,0.00,VWS V14.01,2013-07-30 23:19:00,
2013-07-30 19:20:00,72.7,39.5,30.12,North,351,3.6,4.0,30,0.00,,---,0.00,VWS V14.01,2013-07-30 23:20:00,
2013-07-30 19:21:00,72.7,39.5,30.12,NW,315,3.6,4.9,30,0.00,,---,0.00,VWS V14.01,2013-07-30 23:21:00,
2013-07-30 19:22:00,72.7,39.5,30.12,NW,306,0.0,4.0,30,0.00,,---,0.00,VWS V14.01,2013-07-30 23:22:00,
2013-07-30 19:23:00,71.4,39.2,30.09,West,267,4.0,4.0,31,0.00,,---,0.00,VWS V14.01,2013-07-30 23:23:00,
2013-07-30 19:24:00,72.7,39.5,30.12,NW,314,4.0,5.4,30,0.00,,---,0.00,VWS V14.01,2013-07-30 23:24:00,
2013-07-30 19:25:00,72.7,39.5,30.12,WSW,258,0.0,4.0,30,0.00,,---,0.00,VWS V14.01,2013-07-30 23:25:00,
2013-07-30 19:26:00,72.7,39.5,30.12,NNW,331,0.0,0.0,30,0.00,,---,0.00,VWS V14.01,2013-07-30 23:26:00,
2013-07-30 19:27:00,72.8,39.6,30.12,North,4,0.0,4.5,30,0.00,,---,0.00,VWS V14.01,2013-07-30 23:27:00,
2013-07-30 19:28:00,71.4,39.2,30.09,SW,235,0.0,0.0,31,0.00,,---,0.00,VWS V14.01,2013-07-30 23:28:00,
2013-07-30 19:29:00,72.8,39.6,30.12,NW,320,4.0,4.9,30,0.00,,---,0.00,VWS V14.01,2013-07-30 23:29:00,
2013-07-30 19:30:00,72.8,39.6,30.12,NNW,335,0.0,4.0,30,0.00,,---,0.00,VWS V14.01,2013-07-30 23:30:00,
2013-07-30 19:31:00,72.8,39.6,30.12,NE,49,0.0,0.0,30,0.00,,---,0.00,VWS V14.01,2013-07-30 23:31:00,
2013-07-30 19:32:00,72.8,39.6,30.12,NE,49,0.0,0.0,30,0.00,,---,0.00,VWS V14.01,2013-07-30 23:32:00,
2013-07-30 19:33:00,71.2,39.1,30.09,West,259,0.0,0.0,31,0.00,,---,0.00,VWS V14.01,2013-07-30 23:33:00,
2013-07-30 19:34:00,72.7,39.5,30.12,NE,50,0.0,0.0,30,0.00,,---,0.00,VWS V14.01,2013-07-30 23:34:00,
2013-07-30 19:35:00,72.7,39.5,30.09,NNW,335,0.0,0.0,30,0.00,,---,0.00,VWS V14.01,2013-07-30 23:35:00,
2013-07-30 19:36:00,72.7,39.5,30.09,NNW,327,0.0,0.0,30,0.00,,---,0.00,VWS V14.01,2013-07-30 23:36:00,
2013-07-30 19:37:00,72.5,39.3,30.09,NNW,327,0.0,0.0,30,0.00,,---,0.00,VWS V14.01,2013-07-30 23:37:00,
2013-07-30 19:38:00,71.0,40.5,30.09,WSW,258,0.0,0.0,33,0.00,,---,0.00,VWS V14.01,2013-07-30 23:38:00,
2013-07-30 19:39:00,72.5,39.3,30.09,WNW,295,0.0,0.0,30,0.00,,---,0.00,VWS V14.01,2013-07-30 23:39:00,
2013-07-30 19:40:00,72.3,39.2,30.09,North,1,0.0,0.0,30,0.00,,---,0.00,VWS V14.01,2013-07-30 23:40:00,
2013-07-30 19:41:00,72.3,40.0,30.09,West,266,3.6,4.5,31,0.00,,---,0.00,VWS V14.01,2013-07-30 23:41:00,
2013-07-30 19:42:00,72.1,39.8,30.09,NW,316,0.0,4.0,31,0.00,,---,0.00,VWS V14.01,2013-07-30 23:42:00,
2013-07-30 19:43:00,70.7,40.2,30.09,West,261,0.0,0.0,33,0.00,,---,0.00,VWS V14.01,2013-07-30 23:43:00,
2013-07-30 19:44:00,71.9,39.7,30.09,West,272,4.9,4.9,31,0.00,,---,0.00,VWS V14.01,2013-07-30 23:44:00,
2013-07-30 19:45:00,71.9,39.7,30.09,WNW,291,0.0,5.4,31,0.00,,---,0.00,VWS V14.01,2013-07-30 23:45:00,
2013-07-30 19:46:00,71.9,39.7,30.09,NW,315,3.1,4.9,31,0.00,,---,0.00,VWS V14.01,2013-07-30 23:46:00,
2013-07-30 19:47:00,71.9,39.7,30.09,NW,318,0.0,4.5,31,0.00,,---,0.00,VWS V14.01,2013-07-30 23:47:00,
2013-07-30 19:48:00,70.3,42.1,30.09,WSW,251,0.0,0.0,36,0.00,,---,0.00,VWS V14.01,2013-07-30 23:48:00,
2013-07-30 19:49:00,71.9,39.7,30.09,NW,316,4.0,4.0,31,0.00,,---,0.00,VWS V14.01,2013-07-30 23:49:00,
2013-07-30 19:50:00,71.9,39.7,30.09,SW,236,3.6,4.5,31,0.00,,---,0.00,VWS V14.01,2013-07-30 23:50:00,
2013-07-30 19:51:00,72.1,39.8,30.09,WNW,300,0.0,4.5,31,0.00,,---,0.00,VWS V14.01,2013-07-30 23:51:00,
2013-07-30 19:52:00,72.1,39.8,30.09,West,271,3.1,4.9,31,0.00,,---,0.00,VWS V14.01,2013-07-30 23:52:00,
2013-07-30 19:53:00,70.0,42.5,30.09,West,261,0.0,0.0,37,0.00,,---,0.00,VWS V14.01,2013-07-30 23:53:00,
2013-07-30 19:54:00,72.1,39.8,30.09,West,271,0.0,0.0,31,0.00,,---,0.00,VWS V14.01,2013-07-30 23:54:00,
2013-07-30 19:55:00,72.1,39.8,30.09,WSW,254,0.0,0.0,31,0.00,,---,0.00,VWS V14.01,2013-07-30 23:55:00,
2013-07-30 19:56:00,72.1,39.8,30.09,WSW,248,0.0,0.0,31,0.00,,---,0.00,VWS V14.01,2013-07-30 23:56:00,
2013-07-30 19:57:00,72.1,39.8,30.09,WSW,248,0.0,0.0,31,0.00,,---,0.00,VWS V14.01,2013-07-30 23:57:00,
2013-07-30 19:58:00,69.6,42.2,30.09,West,261,0.0,0.0,37,0.00,,---,0.00,VWS V14.01,2013-07-30 23:58:00,
2013-07-30 19:59:00,72.1,39.8,30.09,West,261,0.0,3.6,31,0.00,,---,0.00,VWS V14.01,2013-07-30 23:59:00,
2013-07-30 20:00:00,71.9,39.7,30.09,West,261,0.0,0.0,31,0.00,,---,0.00,VWS V14.01,2013-07-31 00:00:00,
2013-07-30 20:01:00,71.9,39.7,30.09,WNW,292,0.0,0.0,31,0.00,,---,0.00,VWS V14.01,2013-07-31 00:01:00,
2013-07-30 20:02:00,71.9,39.7,30.09,WNW,292,0.0,0.0,31,0.00,,---,0.00,VWS V14.01,2013-07-31 00:02:00,
2013-07-30 20:03:00,69.2,42.6,30.09,West,276,0.0,0.0,38,0.00,,---,0.00,VWS V14.01,2013-07-31 00:03:00,
2013-07-30 20:04:00,71.8,39.5,30.09,NNW,339,0.0,0.0,31,0.00,,---,0.00,VWS V14.01,2013-07-31 00:04:00,
2013-07-30 20:05:00,71.8,39.5,30.09,NNW,339,0.0,0.0,31,0.00,,---,0.00,VWS V14.01,2013-07-31 00:05:00,
2013-07-30 20:06:00,71.6,39.4,30.09,NNW,339,0.0,0.0,31,0.00,,---,0.00,VWS V14.01,2013-07-31 00:06:00,
2013-07-30 20:07:00,71.6,39.4,30.09,NNW,339,0.0,0.0,31,0.00,,---,0.00,VWS V14.01,2013-07-31 00:07:00,
2013-07-30 20:08:00,68.5,43.3,30.09,NW,322,0.0,0.0,40,0.00,,---,0.00,VWS V14.01,2013-07-31 00:08:00,
2013-07-30 20:09:00,71.2,39.1,30.09,West,277,0.0,0.0,31,0.00,,---,0.00,VWS V14.01,2013-07-31 00:09:00,
2013-07-30 20:10:00,71.2,40.7,30.09,WSW,247,0.0,0.0,33,0.00,,---,0.00,VWS V14.01,2013-07-31 00:10:00,
2013-07-30 20:11:00,71.2,39.1,30.09,WSW,247,0.0,0.0,31,0.00,,---,0.00,VWS V14.01,2013-07-31 00:11:00,
2013-07-30 20:12:00,71.2,39.1,30.09,WSW,247,0.0,0.0,31,0.00,,---,0.00,VWS V14.01,2013-07-31 00:12:00,
2013-07-30 20:13:00,67.8,44.5,30.09,NW,322,0.0,0.0,43,0.00,,---,0.00,VWS V14.01,2013-07-31 00:13:00,
2013-07-30 20:14:00,71.2,40.7,30.09,WNW,292,0.0,0.0,33,0.00,,---,0.00,VWS V14.01,2013-07-31 00:14:00,
2013-07-30 20:15:00,71.2,40.7,30.09,WNW,292,0.0,0.0,33,0.00,,---,0.00,VWS V14.01,2013-07-31 00:15:00,
2013-07-30 20:16:00,71.2,40.7,30.09,WNW,292,0.0,0.0,33,0.00,,---,0.00,VWS V14.01,2013-07-31 00:16:00,
2013-07-30 20:17:00,71.0,40.5,30.09,WNW,282,0.0,0.0,33,0.00,,---,0.00,VWS V14.01,2013-07-31 00:17:00,
2013-07-30 20:18:00,67.4,45.4,30.09,NW,306,0.0,0.0,45,0.00,,---,0.00,VWS V14.01,2013-07-31 00:18:00,
2013-07-30 20:19:00,71.2,39.1,30.09,WSW,244,0.0,2.7,31,0.00,,---,0.00,VWS V14.01,2013-07-31 00:19:00,
2013-07-30 20:20:00,71.2,39.1,30.09,WSW,245,0.0,0.0,31,0.00,,---,0.00,VWS V14.01,2013-07-31 00:20:00,
2013-07-30 20:21:00,71.2,39.1,30.09,WSW,245,0.0,0.0,31,0.00,,---,0.00,VWS V14.01,2013-07-31 00:21:00,
2013-07-30 20:22:00,71.2,39.1,30.09,SW,236,0.0,0.0,31,0.00,,---,0.00,VWS V14.01,2013-07-31 00:22:00,
2013-07-30 20:23:00,66.7,45.9,30.09,NW,306,0.0,0.0,47,0.00,,---,0.00,VWS V14.01,2013-07-31 00:23:00,
2013-07-30 20:24:00,71.4,39.2,30.09,West,267,3.1,4.0,31,0.00,,---,0.00,VWS V14.01,2013-07-31 00:24:00,
2013-07-30 20:25:00,71.4,39.2,30.09,WSW,258,2.7,3.6,31,0.00,,---,0.00,VWS V14.01,2013-07-31 00:25:00,
2013-07-30 20:26:00,71.4,39.2,30.09,WSW,246,3.6,3.6,31,0.00,,---,0.00,VWS V14.01,2013-07-31 00:26:00,
2013-07-30 20:27:00,71.4,39.2,30.09,SW,235,0.0,4.0,31,0.00,,---,0.00,VWS V14.01,2013-07-31 00:27:00,
2013-07-30 20:28:00,66.4,45.5,30.09,West,279,0.0,0.0,47,0.00,,---,0.00,VWS V14.01,2013-07-31 00:28:00,
2013-07-30 20:29:00,71.4,39.2,30.09,SW,235,0.0,0.0,31,0.00,,---,0.00,VWS V14.01,2013-07-31 00:29:00,
2013-07-30 20:30:00,71.2,39.1,30.09,West,269,4.5,4.5,31,0.00,,---,0.00,VWS V14.01,2013-07-31 00:30:00,
2013-07-30 20:31:00,71.2,39.1,30.09,West,259,0.0,4.5,31,0.00,,---,0.00,VWS V14.01,2013-07-31 00:31:00,
2013-07-30 20:32:00,71.2,39.1,30.09,West,259,0.0,2.7,31,0.00,,---,0.00,VWS V14.01,2013-07-31 00:32:00,
2013-07-30 20:33:00,68.0,37.1,30.09,West,269,3.1,3.6,32,0.00,,---,0.00,VWS V14.01,2013-07-31 00:33:00,
2013-07-30 20:34:00,71.2,40.7,30.09,WSW,244,0.0,0.0,33,0.00,,---,0.00,VWS V14.01,2013-07-31 00:34:00,
2013-07-30 20:35:00,71.2,40.7,30.09,WSW,244,0.0,0.0,33,0.00,,---,0.00,VWS V14.01,2013-07-31 00:35:00,
2013-07-30 20:36:00,71.2,40.7,30.09,WSW,257,0.0,0.0,33,0.00,,---,0.00,VWS V14.01,2013-07-31 00:36:00,
2013-07-30 20:37:00,71.0,40.5,30.09,WSW,258,0.0,0.0,33,0.00,,---,0.00,VWS V14.01,2013-07-31 00:37:00,
2013-07-30 20:38:00,67.6,36.8,30.09,West,265,0.0,0.0,32,0.00,,---,0.00,VWS V14.01,2013-07-31 00:38:00,
2013-07-30 20:39:00,67.6,36.8,30.09,West,265,0.0,0.0,32,0.00,,---,0.00,VWS V14.01,2013-07-31 00:39:00,
2013-07-30 20:40:00,70.9,40.3,30.09,WSW,258,0.0,0.0,33,0.00,,---,0.00,VWS V14.01,2013-07-31 00:40:00,
2013-07-30 20:41:00,70.9,40.3,30.09,West,259,0.0,0.0,33,0.00,,---,0.00,VWS V14.01,2013-07-31 00:41:00,
2013-07-30 20:42:00,67.3,36.4,30.09,NW,309,0.0,0.0,32,0.00,,---,0.00,VWS V14.01,2013-07-31 00:42:00,
2013-07-30 20:43:00,67.3,36.4,30.09,NW,307,0.0,0.0,32,0.00,,---,0.00,VWS V14.01,2013-07-31 00:43:00,
2013-07-30 20:44:00,67.1,36.3,30.09,NW,307,0.0,0.0,32,0.00,,---,0.00,VWS V14.01,2013-07-31 00:44:00,
2013-07-30 20:45:00,70.7,40.2,30.09,West,261,0.0,0.0,33,0.00,,---,0.00,VWS V14.01,2013-07-31 00:45:00,
2013-07-30 20:46:00,70.5,40.0,30.09,WSW,251,2.7,3.1,33,0.00,,---,0.00,VWS V14.01,2013-07-31 00:46:00,
2013-07-30 20:47:00,66.9,36.9,30.09,NW,308,0.0,0.0,33,0.00,,---,0.00,VWS V14.01,2013-07-31 00:47:00,
2013-07-30 20:48:00,66.9,36.9,30.09,NW,311,0.0,0.0,33,0.00,,---,0.00,VWS V14.01,2013-07-31 00:48:00,
2013-07-30 20:49:00,66.9,36.9,30.09,NW,305,0.0,0.0,33,0.00,,---,0.00,VWS V14.01,2013-07-31 00:49:00,
2013-07-30 20:50:00,70.1,42.7,30.09,WSW,251,0.0,0.0,37,0.00,,---,0.00,VWS V14.01,2013-07-31 00:50:00,
2013-07-30 20:51:00,70.1,42.7,30.09,West,261,3.1,3.6,37,0.00,,---,0.00,VWS V14.01,2013-07-31 00:51:00,
2013-07-30 20:52:00,70.0,42.5,30.09,West,261,0.0,3.1,37,0.00,,---,0.00,VWS V14.01,2013-07-31 00:52:00,
2013-07-30 20:53:00,66.6,36.6,30.09,West,277,0.0,0.0,33,0.00,,---,0.00,VWS V14.01,2013-07-31 00:53:00,
2013-07-30 20:54:00,69.8,42.4,30.09,West,261,0.0,0.0,37,0.00,,---,0.00,VWS V14.01,2013-07-31 00:54:00,
2013-07-30 20:55:00,69.8,42.4,30.09,West,261,0.0,0.0,37,0.00,,---,0.00,VWS V14.01,2013-07-31 00:55:00,
2013-07-30 20:56:00,69.6,42.2,30.09,West,261,0.0,0.0,37,0.00,,---,0.00,VWS V14.01,2013-07-31 00:56:00,
2013-07-30 20:57:00,69.6,42.2,30.09,West,261,0.0,0.0,37,0.00,,---,0.00,VWS V14.01,2013-07-31 00:57:00,
2013-07-30 20:58:00,66.2,36.3,30.09,NW,307,0.0,0.0,33,0.00,,---,0.00,VWS V14.01,2013-07-31 00:58:00,
2013-07-30 20:59:00,66.0,36.1,30.09,NW,307,0.0,0.0,33,0.00,,---,0.00,VWS V14.01,2013-07-31 00:59:00,
2013-07-30 21:00:00,69.4,42.0,30.09,West,261,0.0,0.0,37,0.00,,---,0.00,VWS V14.01,2013-07-31 01:00:00,
2013-07-30 21:01:00,69.4,42.7,30.09,West,261,0.0,0.0,38,0.00,,---,0.00,VWS V14.01,2013-07-31 01:01:00,
2013-07-30 21:02:00,69.2,41.9,30.09,West,261,0.0,0.0,37,0.00,,---,0.00,VWS V14.01,2013-07-31 01:02:00,
2013-07-30 21:03:00,65.8,36.0,30.09,WNW,290,0.0,3.6,33,0.00,,---,0.00,VWS V14.01,2013-07-31 01:03:00,
2013-07-30 21:04:00,65.7,35.8,30.09,WNW,290,0.0,2.7,33,0.00,,---,0.00,VWS V14.01,2013-07-31 01:04:00,
2013-07-30 21:05:00,68.9,42.3,30.09,West,279,0.0,0.0,38,0.00,,---,0.00,VWS V14.01,2013-07-31 01:05:00,
2013-07-30 21:06:00,68.7,42.1,30.09,WNW,296,0.0,0.0,38,0.00,,---,0.00,VWS V14.01,2013-07-31 01:06:00,
2013-07-30 21:07:00,65.7,36.6,30.09,WNW,290,0.0,0.0,34,0.00,,---,0.00,VWS V14.01,2013-07-31 01:07:00,
2013-07-30 21:08:00,65.7,36.6,30.09,WNW,295,0.0,0.0,34,0.00,,---,0.00,VWS V14.01,2013-07-31 01:08:00,
2013-07-30 21:09:00,68.3,44.4,30.09,NW,322,0.0,0.0,42,0.00,,---,0.00,VWS V14.01,2013-07-31 01:09:00,
2013-07-30 21:10:00,68.2,44.2,30.09,NW,322,0.0,0.0,42,0.00,,---,0.00,VWS V14.01,2013-07-31 01:10:00,
2013-07-30 21:11:00,68.0,44.1,30.09,NW,322,0.0,0.0,42,0.00,,---,0.00,VWS V14.01,2013-07-31 01:11:00,
2013-07-30 21:12:00,68.0,44.7,30.09,NW,322,0.0,0.0,43,0.00,,---,0.00,VWS V14.01,2013-07-31 01:12:00,
2013-07-30 21:13:00,65.3,37.7,30.09,NW,310,3.1,3.6,36,0.00,,---,0.00,VWS V14.01,2013-07-31 01:13:00,
2013-07-30 21:14:00,67.8,44.5,30.09,WNW,301,0.0,0.0,43,0.00,,---,0.00,VWS V14.01,2013-07-31 01:14:00,
2013-07-30 21:15:00,67.8,45.1,30.09,NW,306,0.0,0.0,44,0.00,,---,0.00,VWS V14.01,2013-07-31 01:15:00,
2013-07-30 21:16:00,67.6,45.0,30.09,NW,306,0.0,0.0,44,0.00,,---,0.00,VWS V14.01,2013-07-31 01:16:00,
2013-07-30 21:17:00,67.4,45.4,30.09,NW,306,0.0,0.0,45,0.00,,---,0.00,VWS V14.01,2013-07-31 01:17:00,
2013-07-30 21:18:00,65.1,37.5,30.09,NW,310,2.7,3.6,36,0.00,,---,0.00,VWS V14.01,2013-07-31 01:18:00,
2013-07-30 21:19:00,67.3,45.8,30.09,NW,306,0.0,0.0,46,0.00,,---,0.00,VWS V14.01,2013-07-31 01:19:00,
2013-07-30 21:20:00,67.3,45.8,30.09,NW,306,0.0,0.0,46,0.00,,---,0.00,VWS V14.01,2013-07-31 01:20:00,
2013-07-30 21:21:00,67.1,46.2,30.09,NW,306,0.0,0.0,47,0.00,,---,0.00,VWS V14.01,2013-07-31 01:21:00,
2013-07-30 21:22:00,66.9,46.0,30.09,NW,306,0.0,0.0,47,0.00,,---,0.00,VWS V14.01,2013-07-31 01:22:00,
2013-07-30 21:23:00,64.8,37.2,30.09,NW,306,0.0,0.0,36,0.00,,---,0.00,VWS V14.01,2013-07-31 01:23:00,
2013-07-30 21:24:00,66.7,45.9,30.09,NW,306,0.0,0.0,47,0.00,,---,0.00,VWS V14.01,2013-07-31 01:24:00,
2013-07-30 21:25:00,66.5,45.7,30.09,NW,306,0.0,0.0,47,0.00,,---,0.00,VWS V14.01,2013-07-31 01:25:00,
2013-07-30 21:26:00,66.5,45.7,30.09,NW,306,0.0,0.0,47,0.00,,---,0.00,VWS V14.01,2013-07-31 01:26:00,
2013-07-30 21:27:00,66.5,45.7,30.09,West,277,0.0,0.0,47,0.00,,---,0.00,VWS V14.01,2013-07-31 01:27:00,
2013-07-30 21:28:00,64.4,36.9,30.09,NW,317,2.7,4.5,36,0.00,,---,0.00,VWS V14.01,2013-07-31 01:28:00,
2013-07-30 21:29:00,66.2,45.4,30.09,West,279,0.0,3.6,47,0.00,,---,0.00,VWS V14.01,2013-07-31 01:29:00,
2013-07-30 21:30:00,66.2,45.4,30.09,West,279,0.0,3.1,47,0.00,,---,0.00,VWS V14.01,2013-07-31 01:30:00,
2013-07-30 21:31:00,68.2,37.2,30.09,West,279,2.7,3.6,32,0.00,,---,0.00,VWS V14.01,2013-07-31 01:31:00,
2013-07-30 21:32:00,68.2,37.2,30.09,West,279,2.7,4.0,32,0.00,,---,0.00,VWS V14.01,2013-07-31 01:32:00,
2013-07-30 21:33:00,64.4,37.6,30.09,NW,315,0.0,0.0,37,0.00,,---,0.00,VWS V14.01,2013-07-31 01:33:00,
2013-07-30 21:34:00,68.0,37.1,30.09,West,273,0.0,3.6,32,0.00,,---,0.00,VWS V14.01,2013-07-31 01:34:00,
2013-07-30 21:35:00,68.0,37.1,30.09,West,264,2.7,3.6,32,0.00,,---,0.00,VWS V14.01,2013-07-31 01:35:00,
2013-07-30 21:36:00,67.8,36.9,30.09,West,264,0.0,3.1,32,0.00,,---,0.00,VWS V14.01,2013-07-31 01:36:00,
2013-07-30 21:37:00,67.8,36.9,30.09,West,265,2.7,2.7,32,0.00,,---,0.00,VWS V14.01,2013-07-31 01:37:00,
2013-07-30 21:38:00,64.4,38.3,30.09,NW,317,0.0,0.0,38,0.00,,---,0.00,VWS V14.01,2013-07-31 01:38:00,
2013-07-30 21:39:00,67.6,36.8,30.09,West,265,0.0,0.0,32,0.00,,---,0.00,VWS V14.01,2013-07-31 01:39:00,
2013-07-30 21:40:00,67.6,36.8,30.09,West,274,0.0,0.0,32,0.00,,---,0.00,VWS V14.01,2013-07-31 01:40:00,
2013-07-30 21:41:00,67.5,36.6,30.09,NW,309,0.0,0.0,32,0.00,,---,0.00,VWS V14.01,2013-07-31 01:41:00,
2013-07-30 21:42:00,64.2,39.4,30.09,NW,316,0.0,0.0,40,0.00,,---,0.00,VWS V14.01,2013-07-31 01:42:00,
2013-07-30 21:43:00,67.3,36.4,30.09,NW,307,0.0,0.0,32,0.00,,---,0.00,VWS V14.01,2013-07-31 01:43:00,
2013-07-30 21:44:00,64.0,39.2,30.09,NW,316,0.0,0.0,40,0.00,,---,0.00,VWS V14.01,2013-07-31 01:44:00,
2013-07-30 21:45:00,67.1,37.1,30.09,NW,307,0.0,0.0,33,0.00,,---,0.00,VWS V14.01,2013-07-31 01:45:00,
2013-07-30 21:46:00,66.9,36.9,30.09,NW,307,0.0,0.0,33,0.00,,---,0.00,VWS V14.01,2013-07-31 01:46:00,
2013-07-30 21:47:00,66.9,36.9,30.09,NW,308,0.0,0.0,33,0.00,,---,0.00,VWS V14.01,2013-07-31 01:47:00,
2013-07-30 21:48:00,62.2,58.0,30.15,SW,235,0.0,0.0,86,9.48,,---,0.00,VWS V14.01,2013-07-31 01:48:00,
2013-07-30 21:49:00,66.9,36.9,30.09,NW,305,0.0,0.0,33,0.00,,---,0.00,VWS V14.01,2013-07-31 01:49:00,
2013-07-30 21:50:00,66.7,36.8,30.09,WNW,290,0.0,0.0,33,0.00,,---,0.00,VWS V14.01,2013-07-31 01:50:00,
2013-07-30 21:51:00,66.7,36.8,30.09,West,277,0.0,0.0,33,0.00,,---,0.00,VWS V14.01,2013-07-31 01:51:00,
2013-07-30 21:52:00,66.7,36.8,30.09,West,277,0.0,0.0,33,0.00,,---,0.00,VWS V14.01,2013-07-31 01:52:00,
2013-07-30 21:53:00,66.6,36.6,30.09,West,277,0.0,0.0,33,0.00,,---,0.00,VWS V14.01,2013-07-31 01:53:00,
2013-07-30 21:54:00,66.6,36.6,30.09,West,278,0.0,0.0,33,0.00,,---,0.00,VWS V14.01,2013-07-31 01:54:00,
2013-07-30 21:55:00,66.4,36.4,30.09,WNW,285,0.0,0.0,33,0.00,,---,0.00,VWS V14.01,2013-07-31 01:55:00,
2013-07-30 21:56:00,62.0,58.1,30.15,WNW,291,0.0,0.0,87,0.00,,---,0.00,VWS V14.01,2013-07-31 01:56:00,
2013-07-30 21:57:00,66.2,36.3,30.09,WNW,298,0.0,0.0,33,0.00,,---,0.00,VWS V14.01,2013-07-31 01:57:00,
2013-07-30 21:58:00,66.2,36.3,30.09,NW,307,0.0,0.0,33,0.00,,---,0.00,VWS V14.01,2013-07-31 01:58:00,
2013-07-30 21:59:00,66.0,36.1,30.09,NW,307,0.0,0.0,33,0.00,,---,0.00,VWS V14.01,2013-07-31 01:59:00,
2013-07-30 22:00:00,66.0,36.1,30.09,NW,310,0.0,0.0,33,0.00,,---,0.00,VWS V14.01,2013-07-31 02:00:00,
2013-07-30 22:01:00,65.8,36.0,30.09,NW,310,3.6,3.6,33,0.00,,---,0.00,VWS V14.01,2013-07-31 02:01:00,
2013-07-30 22:02:00,61.9,58.0,30.15,WNW,291,0.0,1.0,87,9.48,,---,0.00,VWS V14.01,2013-07-31 02:02:00,
2013-07-30 22:03:00,65.8,36.0,30.09,WNW,290,0.0,3.6,33,0.00,,---,0.00,VWS V14.01,2013-07-31 02:03:00,
2013-07-30 22:04:00,65.7,35.8,30.09,WNW,290,0.0,2.7,33,0.00,,---,0.00,VWS V14.01,2013-07-31 02:04:00,
2013-07-30 22:05:00,65.7,36.6,30.09,WNW,290,0.0,0.0,34,0.00,,---,0.00,VWS V14.01,2013-07-31 02:05:00,
2013-07-30 22:06:00,65.7,36.6,30.09,WNW,290,0.0,0.0,34,0.00,,---,0.00,VWS V14.01,2013-07-31 02:06:00,
2013-07-30 22:07:00,61.6,57.7,30.15,WNW,291,0.0,1.0,87,9.48,,---,0.00,VWS V14.01,2013-07-31 02:07:00,
2013-07-30 22:08:00,65.7,36.6,30.09,WNW,295,0.0,0.0,34,0.00,,---,0.00,VWS V14.01,2013-07-31 02:08:00,
2013-07-30 22:09:00,65.7,37.3,30.09,WNW,295,0.0,0.0,35,0.00,,---,0.00,VWS V14.01,2013-07-31 02:09:00,
2013-07-30 22:10:00,65.5,37.1,30.09,WNW,295,0.0,0.0,35,0.00,,---,0.00,VWS V14.01,2013-07-31 02:10:00,
2013-07-30 22:11:00,65.5,37.8,30.09,WNW,295,0.0,0.0,36,0.00,,---,0.00,VWS V14.01,2013-07-31 02:11:00,
2013-07-30 22:12:00,61.3,57.7,30.15,WNW,290,0.0,1.0,88,9.48,,---,0.00,VWS V14.01,2013-07-31 02:12:00,
2013-07-30 22:13:00,65.3,37.7,30.09,WNW,289,3.6,3.6,36,0.00,,---,0.00,VWS V14.01,2013-07-31 02:13:00,
2013-07-30 22:14:00,65.3,37.7,30.09,NW,304,2.7,4.0,36,0.00,,---,0.00,VWS V14.01,2013-07-31 02:14:00,
2013-07-30 22:15:00,65.3,37.7,30.09,NW,308,3.1,3.6,36,0.00,,---,0.00,VWS V14.01,2013-07-31 02:15:00,
2013-07-30 22:16:00,65.3,37.7,30.09,NW,308,2.7,4.0,36,0.00,,---,0.00,VWS V14.01,2013-07-31 02:16:00,
2013-07-30 22:17:00,61.1,57.5,30.15,WNW,290,0.0,1.0,88,9.48,,---,0.00,VWS V14.01,2013-07-31 02:17:00,
2013-07-30 22:18:00,65.1,37.5,30.09,NW,310,3.1,3.6,36,0.00,,---,0.00,VWS V14.01,2013-07-31 02:18:00,
2013-07-30 22:19:00,65.1,37.5,30.09,WNW,303,3.6,3.6,36,0.00,,---,0.00,VWS V14.01,2013-07-31 02:19:00,
2013-07-30 22:20:00,64.9,37.4,30.09,NW,305,2.7,4.0,36,0.00,,---,0.00,VWS V14.01,2013-07-31 02:20:00,
2013-07-30 22:21:00,64.9,37.4,30.09,NW,306,3.1,3.6,36,0.00,,---,0.00,VWS V14.01,2013-07-31 02:21:00,
2013-07-30 22:22:00,61.1,57.5,30.15,WNW,290,0.0,1.0,88,9.48,,---,0.00,VWS V14.01,2013-07-31 02:22:00,
2013-07-30 22:23:00,64.8,37.2,30.09,NW,306,0.0,0.0,36,0.00,,---,0.00,VWS V14.01,2013-07-31 02:23:00,
2013-07-30 22:24:00,64.8,37.2,30.09,NW,306,0.0,0.0,36,0.00,,---,0.00,VWS V14.01,2013-07-31 02:24:00,
2013-07-30 22:25:00,64.8,37.2,30.09,NW,313,0.0,0.0,36,0.00,,---,0.00,VWS V14.01,2013-07-31 02:25:00,
2013-07-30 22:26:00,64.6,37.0,30.09,NW,315,3.6,4.0,36,0.00,,---,0.00,VWS V14.01,2013-07-31 02:26:00,
2013-07-30 22:27:00,61.0,57.7,30.15,WNW,290,0.0,1.0,89,9.48,,---,0.00,VWS V14.01,2013-07-31 02:27:00,
2013-07-30 22:28:00,64.4,36.9,30.09,NW,317,2.7,4.5,36,0.00,,---,0.00,VWS V14.01,2013-07-31 02:28:00,
2013-07-30 22:29:00,64.4,36.9,30.09,WNW,301,3.1,3.6,36,0.00,,---,0.00,VWS V14.01,2013-07-31 02:29:00,
2013-07-30 22:30:00,60.9,57.6,30.15,WNW,290,0.0,1.0,89,9.48,,---,0.00,VWS V14.01,2013-07-31 02:30:00,
2013-07-30 22:31:00,64.2,37.4,30.09,NW,315,0.0,0.0,37,0.00,,---,0.00,VWS V14.01,2013-07-31 02:31:00,
2013-07-30 22:32:00,60.8,57.5,30.16,WNW,290,0.0,0.0,89,9.48,,---,0.00,VWS V14.01,2013-07-31 02:32:00,
2013-07-30 22:33:00,64.4,37.6,30.09,NW,315,0.0,0.0,37,0.00,,---,0.00,VWS V14.01,2013-07-31 02:33:00,
2013-07-30 22:34:00,64.4,38.3,30.09,NW,315,0.0,0.0,38,0.00,,---,0.00,VWS V14.01,2013-07-31 02:34:00,
2013-07-30 22:35:00,64.4,38.3,30.09,NW,315,0.0,0.0,38,0.00,,---,0.00,VWS V14.01,2013-07-31 02:35:00,
2013-07-30 22:36:00,64.4,38.3,30.09,NW,315,0.0,0.0,38,0.00,,---,0.00,VWS V14.01,2013-07-31 02:36:00,
2013-07-30 22:37:00,60.6,57.7,30.16,WNW,290,0.0,0.0,90,9.48,,---,0.00,VWS V14.01,2013-07-31 02:37:00,
2013-07-30 22:38:00,64.4,38.3,30.09,NW,316,0.0,0.0,38,0.00,,---,0.00,VWS V14.01,2013-07-31 02:38:00,
2013-07-30 22:39:00,64.4,38.3,30.09,NW,316,0.0,0.0,38,0.00,,---,0.00,VWS V14.01,2013-07-31 02:39:00,
2013-07-30 22:40:00,64.4,38.9,30.09,NW,316,0.0,0.0,39,0.00,,---,0.00,VWS V14.01,2013-07-31 02:40:00,
2013-07-30 22:41:00,64.4,38.9,30.09,NW,316,0.0,0.0,39,0.00,,---,0.00,VWS V14.01,2013-07-31 02:41:00,
2013-07-30 22:42:00,60.3,57.4,30.16,NNW,327,0.0,0.0,90,9.48,,---,0.00,VWS V14.01,2013-07-31 02:42:00,
2013-07-30 22:43:00,64.2,39.4,30.09,NW,316,0.0,0.0,40,0.00,,---,0.00,VWS V14.01,2013-07-31 02:43:00,
2013-07-30 22:44:00,64.0,39.2,30.09,NW,316,0.0,0.0,40,0.00,,---,0.00,VWS V14.01,2013-07-31 02:44:00,
2013-07-30 22:45:00,63.7,38.9,30.09,NW,316,0.0,0.0,40,0.00,,---,0.00,VWS V14.01,2013-07-31 02:45:00,
2013-07-30 22:47:00,60.1,57.8,30.16,NNW,327,0.0,0.0,92,9.48,,---,0.00,VWS V14.01,2013-07-31 02:47:00,
2013-07-30 22:52:00,60.0,57.4,30.16,NNW,327,0.0,0.0,91,9.48,,---,0.00,VWS V14.01,2013-07-31 02:52:00,
2013-07-30 22:57:00,59.9,57.3,30.16,NNW,327,0.0,0.0,91,9.48,,---,0.00,VWS V14.01,2013-07-31 02:57:00,
2013-07-30 23:00:00,62.0,58.1,30.15,WNW,291,0.0,0.0,87,9.48,,---,0.00,VWS V14.01,2013-07-31 03:00:00,
2013-07-30 23:02:00,59.8,57.2,30.16,NNW,327,0.0,0.0,91,0.00,,---,0.00,VWS V14.01,2013-07-31 03:02:00,
2013-07-30 23:07:00,59.6,57.0,30.16,NNW,327,0.0,0.0,91,0.00,,---,0.00,VWS V14.01,2013-07-31 03:07:00,
2013-07-30 23:12:00,59.5,56.9,30.16,NNW,327,0.0,0.0,91,0.00,,---,0.00,VWS V14.01,2013-07-31 03:12:00,
2013-07-30 23:17:00,59.4,56.8,30.16,NNW,327,0.0,0.0,91,0.00,,---,0.00,VWS V14.01,2013-07-31 03:17:00,
2013-07-30 23:22:00,59.4,56.8,30.16,NNW,327,0.0,0.0,91,0.00,,---,0.00,VWS V14.01,2013-07-31 03:22:00,
2013-07-30 23:27:00,59.3,57.0,30.16,NNW,327,0.0,0.0,92,0.00,,---,0.00,VWS V14.01,2013-07-31 03:27:00,
2013-07-30 23:30:00,60.9,57.6,30.15,WNW,290,0.0,1.0,89,9.48,,---,0.00,VWS V14.01,2013-07-31 03:30:00,
2013-07-30 23:32:00,59.3,57.0,30.16,NNW,327,0.0,0.0,92,0.00,,---,0.00,VWS V14.01,2013-07-31 03:32:00,
2013-07-30 23:37:00,59.3,57.0,30.16,NNW,327,0.0,0.0,92,0.00,,---,0.00,VWS V14.01,2013-07-31 03:37:00,
2013-07-30 23:42:00,59.4,57.1,30.16,NW,312,0.0,0.0,92,0.00,,---,0.00,VWS V14.01,2013-07-31 03:42:00,
2013-07-30 23:47:00,59.4,57.1,30.16,NW,312,0.0,0.0,92,0.00,,---,0.00,VWS V14.01,2013-07-31 03:47:00,
2013-07-30 23:53:00,59.5,57.5,30.16,NW,312,0.0,0.0,93,0.00,,---,0.00,VWS V14.01,2013-07-31 03:53:00,
2013-07-30 23:58:00,59.4,57.4,30.16,NW,312,0.0,0.0,93,0.00,,---,0.00,VWS V14.01,2013-07-31 03:58:00,